<
Pression Relative Température INT. Humidité INT. Température EXT. Humidité EXT. Point de rosée Windchill Vitesse du vent Direction du Vent Pluie / Total Heure Date
[hPa] [°C] [%] [°C] [%] [°C] [°C] [km/h] [mm]
999,2 21,0 44 12,2 76 8,1 --- --- --- 0,5 00:10 01.04.2004
999,1 20,8 46 12,0 76 7,9 --- --- --- 0,5 00:25 01.04.2004
999,2 20,7 46 12,0 77 8,1 --- --- --- 0,5 00:40 01.04.2004
999,3 20,6 46 11,8 77 7,9 --- --- --- 0,5 00:55 01.04.2004
999,5 20,6 47 11,9 77 8,0 --- --- --- 0,5 01:10 01.04.2004
999,4 20,6 47 12,0 77 8,1 --- --- --- 0,5 01:25 01.04.2004
999,5 20,5 47 12,0 77 8,1 --- --- --- 0,5 01:40 01.04.2004
999,6 20,4 47 12,0 77 8,1 --- --- --- 0,5 01:55 01.04.2004
999,4 20,3 48 12,0 77 8,1 --- --- --- 0,5 02:10 01.04.2004
999,5 20,3 48 11,8 77 7,9 --- --- --- 0,5 02:25 01.04.2004
999,3 20,2 48 11,8 77 7,9 --- --- --- 0,5 02:40 01.04.2004
999,4 20,1 48 11,8 78 8,1 --- --- --- 0,5 02:55 01.04.2004
999,4 20,1 48 11,8 78 8,1 --- --- --- 0,5 03:10 01.04.2004
999,4 20,1 48 11,8 78 8,1 --- --- --- 0,5 03:25 01.04.2004
999,4 20,0 48 11,8 78 8,1 --- --- --- 0,5 03:40 01.04.2004
999,3 20,0 48 11,7 78 8,0 --- --- --- 0,5 03:55 01.04.2004
999,2 19,9 48 11,7 78 8,0 --- --- --- 0,5 04:10 01.04.2004
999,2 19,9 48 11,7 78 8,0 --- --- --- 0,5 04:25 01.04.2004
999,3 19,9 48 11,5 78 7,8 --- --- --- 0,5 04:40 01.04.2004
999,2 19,8 48 11,5 78 7,8 --- --- --- 0,5 04:55 01.04.2004
999,2 19,8 49 11,5 78 7,8 --- --- --- 0,5 05:10 01.04.2004
999,1 19,8 49 11,4 79 7,9 --- --- --- 0,5 05:25 01.04.2004
999,1 19,7 49 11,2 79 7,7 --- --- --- 0,5 05:40 01.04.2004
999,1 19,7 49 11,2 80 7,8 --- --- --- 0,5 05:55 01.04.2004
999,3 19,6 49 11,1 80 7,7 --- --- --- 0,5 06:10 01.04.2004
999,2 19,5 49 10,9 81 7,7 --- --- --- 0,5 06:25 01.04.2004
999,0 19,4 49 10,8 82 7,8 --- --- --- 0,5 06:40 01.04.2004
998,8 19,4 49 10,7 82 7,7 --- --- --- 0,5 06:55 01.04.2004
999,0 19,3 49 10,6 82 7,6 --- --- --- 0,5 07:10 01.04.2004
999,1 19,3 49 10,6 83 7,8 --- --- --- 0,5 07:25 01.04.2004
999,2 19,2 50 10,8 84 8,2 --- --- --- 0,5 07:40 01.04.2004
999,3 19,2 50 10,8 83 8,0 --- --- --- 0,5 07:55 01.04.2004
999,2 19,3 50 11,0 83 8,2 --- --- --- 0,5 08:10 01.04.2004
999,3 19,2 50 11,1 83 8,3 --- --- --- 0,5 08:25 01.04.2004
999,5 19,1 50 11,3 82 8,3 --- --- --- 0,5 08:40 01.04.2004
999,7 19,3 49 11,4 82 8,4 --- --- --- 0,5 08:55 01.04.2004
999,6 19,5 49 11,5 80 8,1 --- --- --- 0,5 09:10 01.04.2004
999,5 19,6 48 11,7 79 8,1 --- --- --- 0,5 09:25 01.04.2004
999,6 19,6 48 12,1 79 8,5 --- --- --- 0,5 09:40 01.04.2004
999,4 19,7 47 12,4 77 8,4 --- --- --- 0,5 09:55 01.04.2004
999,2 19,8 47 12,8 76 8,6 --- --- --- 0,5 10:10 01.04.2004
999,3 19,9 47 13,4 74 8,8 --- --- --- 0,5 10:25 01.04.2004
999,0 19,5 47 13,4 72 8,4 --- --- --- 0,5 10:40 01.04.2004
999,0 19,2 48 13,7 69 8,1 --- --- --- 0,5 10:55 01.04.2004
998,9 19,0 48 14,3 67 8,2 --- --- --- 0,5 11:10 01.04.2004
998,6 18,9 49 14,5 65 8,0 --- --- --- 0,5 11:25 01.04.2004
998,5 18,8 49 14,9 64 8,1 --- --- --- 0,5 11:40 01.04.2004
998,3 18,8 50 15,5 60 7,7 --- --- --- 0,5 11:55 01.04.2004
997,9 18,8 50 15,8 59 7,8 --- --- --- 0,5 12:10 01.04.2004
998,0 18,8 50 19,2 53 9,4 --- --- --- 0,5 12:25 01.04.2004
997,9 18,8 50 24,4 39 9,5 --- --- --- 0,5 12:40 01.04.2004
997,7 18,8 50 26,2 31 7,7 --- --- --- 0,5 12:55 01.04.2004
997,5 18,9 50 27,8 28 7,6 --- --- --- 0,5 13:10 01.04.2004
997,3 18,9 50 28,0 25 6,1 --- --- --- 0,5 13:25 01.04.2004
997,3 18,9 50 26,4 27 5,9 --- --- --- 0,5 13:40 01.04.2004
997,0 19,0 49 26,5 25 4,9 --- --- --- 0,5 13:55 01.04.2004
996,9 19,2 50 26,3 28 6,3 --- --- --- 0,5 14:10 01.04.2004
996,8 19,9 50 26,5 25 4,9 --- --- --- 0,5 14:25 01.04.2004
997,0 20,5 50 26,7 25 5,0 --- --- --- 0,5 14:40 01.04.2004
996,9 21,1 48 27,4 25 5,6 --- --- --- 0,5 14:55 01.04.2004
997,0 21,4 47 25,8 25 4,3 --- --- --- 0,5 15:10 01.04.2004
996,5 21,6 47 25,4 24 3,3 --- --- --- 0,5 15:25 01.04.2004
996,6 21,7 46 23,6 28 4,0 --- --- --- 0,5 15:40 01.04.2004
996,7 21,9 46 23,6 28 4,0 --- --- --- 0,5 15:55 01.04.2004
996,6 22,1 45 23,3 28 3,7 --- --- --- 0,5 16:10 01.04.2004
996,7 22,3 44 23,6 29 4,5 --- --- --- 0,5 16:25 01.04.2004
996,7 22,3 44 22,7 29 3,7 --- --- --- 0,5 16:40 01.04.2004
996,4 22,3 44 23,7 30 5,1 --- --- --- 0,5 16:55 01.04.2004
996,2 21,9 43 25,1 27 4,8 --- --- --- 0,5 17:10 01.04.2004
996,3 22,1 43 26,1 25 4,5 --- --- --- 0,5 17:25 01.04.2004
996,1 22,5 43 24,5 26 3,7 --- --- --- 0,5 17:40 01.04.2004
995,9 22,7 43 23,3 30 4,7 --- --- --- 0,5 17:55 01.04.2004
995,8 22,9 44 23,4 29 4,3 --- --- --- 0,5 18:10 01.04.2004
995,9 23,2 43 23,8 30 5,2 --- --- --- 0,5 18:25 01.04.2004
995,8 23,2 40 22,4 30 4,0 --- --- --- 0,5 18:40 01.04.2004
995,8 23,0 39 21,2 33 4,3 --- --- --- 0,5 18:55 01.04.2004
995,8 22,9 38 20,4 35 4,4 --- --- --- 0,5 19:10 01.04.2004
995,8 22,9 38 19,8 36 4,3 --- --- --- 0,5 19:25 01.04.2004
995,9 22,8 37 19,2 38 4,5 --- --- --- 0,5 19:40 01.04.2004
995,9 22,9 36 18,7 39 4,4 --- --- --- 0,5 19:55 01.04.2004
996,0 23,1 34 18,3 40 4,4 --- --- --- 0,5 20:10 01.04.2004
995,9 23,1 34 17,9 41 4,4 --- --- --- 0,5 20:25 01.04.2004
996,0 23,2 34 17,5 41 4,1 --- --- --- 0,5 20:40 01.04.2004
996,1 23,3 37 17,4 43 4,7 --- --- --- 0,5 20:55 01.04.2004
996,3 23,4 39 17,1 43 4,4 --- --- --- 0,5 21:10 01.04.2004
996,2 23,6 40 16,8 44 4,4 --- --- --- 0,5 21:25 01.04.2004
996,3 23,8 41 16,6 44 4,3 --- --- --- 0,5 21:40 01.04.2004
996,3 23,8 42 16,4 45 4,4 --- --- --- 0,5 21:55 01.04.2004
996,4 23,3 41 16,3 45 4,3 --- --- --- 0,5 22:10 01.04.2004
996,3 22,9 43 16,2 46 4,5 --- --- --- 0,5 22:25 01.04.2004
996,4 22,7 43 16,2 46 4,5 --- --- --- 0,5 22:40 01.04.2004
996,5 22,3 43 16,1 47 4,8 --- --- --- 0,5 22:55 01.04.2004
996,2 22,0 44 16,0 46 4,4 --- --- --- 0,5 23:10 01.04.2004
996,2 21,9 45 15,8 47 4,5 --- --- --- 0,5 23:25 01.04.2004
996,3 21,8 46 15,5 47 4,2 --- --- --- 0,5 23:40 01.04.2004
996,3 21,6 46 15,4 48 4,4 --- --- --- 0,5 23:55 01.04.2004
996,6 21,5 46 15,4 48 4,4 --- --- --- 0,5 00:10 02.04.2004
996,7 21,4 46 15,3 49 4,6 --- --- --- 0,5 00:25 02.04.2004
996,6 21,3 47 15,1 49 4,4 --- --- --- 0,5 00:40 02.04.2004
996,8 21,2 47 14,7 50 4,4 --- --- --- 0,5 00:55 02.04.2004
996,9 21,2 47 14,4 52 4,6 --- --- --- 0,5 01:10 02.04.2004
997,0 21,0 47 14,0 53 4,5 --- --- --- 0,5 01:25 02.04.2004
997,0 21,0 48 13,8 55 4,9 --- --- --- 0,5 01:40 02.04.2004
997,1 20,9 49 13,6 58 5,5 --- --- --- 0,5 01:55 02.04.2004
997,1 20,9 49 13,6 59 5,7 --- --- --- 0,5 02:10 02.04.2004
997,3 20,8 50 13,4 61 6,0 --- --- --- 0,5 02:25 02.04.2004
997,3 20,7 50 13,3 61 5,9 --- --- --- 0,5 02:40 02.04.2004
997,3 20,7 50 13,1 62 6,0 --- --- --- 0,5 02:55 02.04.2004
997,6 20,6 50 12,7 65 6,3 --- --- --- 0,5 03:10 02.04.2004
997,4 20,6 50 12,6 67 6,6 --- --- --- 0,5 03:25 02.04.2004
997,6 20,5 51 12,5 68 6,7 --- --- --- 0,5 03:40 02.04.2004
997,6 20,4 51 12,4 70 7,0 --- --- --- 0,5 03:55 02.04.2004
997,5 20,4 51 12,3 70 7,0 --- --- --- 0,5 04:10 02.04.2004
997,6 20,4 51 12,4 70 7,0 --- --- --- 0,5 04:25 02.04.2004
997,6 20,3 51 12,2 70 6,9 --- --- --- 0,5 04:40 02.04.2004
997,6 20,3 51 12,1 70 6,8 --- --- --- 0,5 04:55 02.04.2004
997,7 20,2 51 12,0 71 6,9 --- --- --- 0,5 05:10 02.04.2004
997,7 20,1 51 11,9 72 7,0 --- --- --- 0,5 05:25 02.04.2004
997,8 20,1 51 11,7 73 7,0 --- --- --- 0,5 05:40 02.04.2004
997,8 20,0 51 11,7 74 7,2 --- --- --- 0,5 05:55 02.04.2004
997,7 20,0 51 11,5 74 7,0 --- --- --- 0,5 06:10 02.04.2004
998,0 19,9 52 11,5 75 7,2 --- --- --- 0,5 06:25 02.04.2004
998,1 19,9 52 11,5 76 7,4 --- --- --- 0,5 06:40 02.04.2004
998,2 19,9 52 11,4 77 7,5 --- --- --- 0,5 06:55 02.04.2004
998,5 19,8 52 11,3 77 7,4 --- --- --- 0,5 07:10 02.04.2004
998,7 19,9 52 11,2 78 7,5 --- --- --- 0,5 07:25 02.04.2004
999,0 19,8 52 11,2 78 7,5 --- --- --- 0,5 07:40 02.04.2004
998,8 19,7 52 11,2 78 7,5 --- --- --- 0,5 07:55 02.04.2004
998,8 19,7 53 11,2 78 7,5 --- --- --- 0,5 08:10 02.04.2004
998,7 19,5 53 11,2 78 7,5 --- --- --- 0,5 08:25 02.04.2004
999,1 19,5 53 11,2 78 7,5 --- --- --- 0,5 08:40 02.04.2004
999,2 19,4 53 11,1 78 7,4 --- --- --- 0,5 08:55 02.04.2004
999,3 19,3 52 11,1 77 7,2 --- --- --- 0,5 09:10 02.04.2004
998,9 19,2 51 11,1 78 7,4 --- --- --- 0,5 09:25 02.04.2004
999,1 19,2 51 11,1 78 7,4 --- --- --- 0,5 09:40 02.04.2004
999,1 19,2 51 11,2 78 7,5 --- --- --- 0,5 09:55 02.04.2004
999,5 19,1 51 11,3 78 7,6 --- --- --- 0,5 10:10 02.04.2004
999,4 19,1 52 11,4 78 7,7 --- --- --- 0,5 10:25 02.04.2004
999,5 19,1 52 11,5 77 7,6 --- --- --- 0,5 10:40 02.04.2004
999,5 19,1 52 11,7 77 7,8 --- --- --- 0,5 10:55 02.04.2004
999,6 19,0 52 12,2 77 8,3 --- --- --- 0,5 11:10 02.04.2004
999,8 19,0 52 12,7 75 8,3 --- --- --- 0,5 11:25 02.04.2004
1000,0 19,0 52 13,1 73 8,3 --- --- --- 0,5 11:40 02.04.2004
1000,2 19,1 52 13,4 71 8,2 --- --- --- 0,5 11:55 02.04.2004
1000,2 19,1 52 13,8 69 8,2 --- --- --- 0,5 12:10 02.04.2004
1000,2 19,1 52 14,2 67 8,1 --- --- --- 0,5 12:25 02.04.2004
1000,5 19,1 52 14,5 64 7,7 --- --- --- 0,5 12:40 02.04.2004
1000,6 19,1 52 14,2 65 7,7 --- --- --- 0,5 12:55 02.04.2004
1000,6 19,0 52 14,2 65 7,7 --- --- --- 0,5 13:10 02.04.2004
1000,6 19,0 52 14,0 65 7,5 --- --- --- 0,5 13:25 02.04.2004
1000,6 19,0 52 14,1 65 7,6 --- --- --- 0,5 13:40 02.04.2004
1000,5 19,0 52 14,2 65 7,7 --- --- --- 0,5 13:55 02.04.2004
1000,4 19,0 52 14,2 64 7,5 --- --- --- 0,5 14:10 02.04.2004
1000,4 19,0 52 14,2 64 7,5 --- --- --- 0,5 14:25 02.04.2004
1000,6 19,0 52 14,4 63 7,4 --- --- --- 0,5 14:40 02.04.2004
1000,7 19,0 52 14,5 61 7,0 --- --- --- 0,5 14:55 02.04.2004
1000,6 19,0 51 14,5 61 7,0 --- --- --- 0,5 15:10 02.04.2004
1000,9 19,0 51 14,5 61 7,0 --- --- --- 0,5 15:25 02.04.2004
1000,6 18,9 52 14,5 61 7,0 --- --- --- 0,5 15:40 02.04.2004
1000,6 18,9 52 14,4 62 7,2 --- --- --- 0,5 15:55 02.04.2004
1000,7 18,9 52 14,4 63 7,4 --- --- --- 0,5 16:10 02.04.2004
1000,8 18,9 52 14,3 63 7,3 --- --- --- 0,5 16:25 02.04.2004
1000,9 18,9 52 14,1 64 7,4 --- --- --- 0,5 16:40 02.04.2004
1000,8 18,9 52 14,2 64 7,5 --- --- --- 0,5 16:55 02.04.2004
1000,8 18,8 52 14,2 64 7,5 --- --- --- 0,5 17:10 02.04.2004
1000,4 18,8 52 14,2 65 7,7 --- --- --- 0,5 17:25 02.04.2004
1000,3 18,8 52 14,5 64 7,7 --- --- --- 0,5 17:40 02.04.2004
1000,6 18,8 52 14,6 63 7,6 --- --- --- 0,5 17:55 02.04.2004
1000,6 18,8 52 14,5 62 7,3 --- --- --- 0,5 18:10 02.04.2004
1000,7 18,8 52 14,4 63 7,4 --- --- --- 0,5 18:25 02.04.2004
1001,0 18,8 52 14,2 64 7,5 --- --- --- 0,5 18:40 02.04.2004
1001,2 18,9 52 14,2 64 7,5 --- --- --- 0,5 18:55 02.04.2004
1001,3 19,3 52 14,4 65 7,9 --- --- --- 0,5 19:10 02.04.2004
1001,6 20,0 52 14,2 65 7,7 --- --- --- 0,5 19:25 02.04.2004
1001,9 20,0 51 13,9 65 7,4 --- --- --- 0,5 19:40 02.04.2004
1002,2 19,7 51 13,5 66 7,2 --- --- --- 0,5 19:55 02.04.2004
1002,2 20,0 52 13,2 68 7,4 --- --- --- 0,5 20:10 02.04.2004
1002,4 20,7 52 12,9 68 7,1 --- --- --- 0,5 20:25 02.04.2004
1002,5 21,0 50 12,7 69 7,1 --- --- --- 0,5 20:40 02.04.2004
1002,7 21,5 50 12,6 70 7,2 --- --- --- 0,5 20:55 02.04.2004
1002,7 21,9 50 12,5 70 7,1 --- --- --- 0,5 21:10 02.04.2004
1002,7 22,2 48 12,4 71 7,3 --- --- --- 0,5 21:25 02.04.2004
1002,8 22,4 48 12,4 71 7,3 --- --- --- 0,5 21:40 02.04.2004
1002,9 22,6 48 12,2 71 7,1 --- --- --- 0,5 21:55 02.04.2004
1003,2 22,7 48 12,1 71 7,0 --- --- --- 0,5 22:10 02.04.2004
1003,4 22,9 48 11,8 69 6,3 --- --- --- 0,5 22:25 02.04.2004
1003,5 22,9 47 11,6 70 6,3 --- --- --- 0,5 22:40 02.04.2004
1003,6 22,9 46 11,3 72 6,4 --- --- --- 0,5 22:55 02.04.2004
1003,7 22,8 46 11,1 73 6,4 --- --- --- 0,5 23:10 02.04.2004
1003,7 22,8 46 11,0 74 6,5 --- --- --- 0,5 23:25 02.04.2004
1003,9 22,0 45 10,8 76 6,7 --- --- --- 0,5 23:40 02.04.2004
1004,1 21,2 47 10,6 77 6,7 --- --- --- 0,5 23:55 02.04.2004
1004,3 20,8 49 10,5 78 6,8 --- --- --- 0,5 00:10 03.04.2004
1004,5 20,6 49 10,5 78 6,8 --- --- --- 0,5 00:25 03.04.2004
1004,6 20,4 50 10,5 79 7,0 --- --- --- 0,5 00:40 03.04.2004
1004,9 20,3 50 10,4 81 7,2 --- --- --- 0,5 00:55 03.04.2004
1005,1 20,2 51 10,4 82 7,4 --- --- --- 0,5 01:10 03.04.2004
1005,2 20,1 51 10,4 82 7,4 --- --- --- 0,5 01:25 03.04.2004
1005,2 20,0 51 10,4 81 7,2 --- --- --- 0,5 01:40 03.04.2004
1005,5 19,9 51 10,4 82 7,4 --- --- --- 0,5 01:55 03.04.2004
1005,6 19,9 51 10,4 82 7,4 --- --- --- 0,5 02:10 03.04.2004
1005,8 19,8 51 10,4 82 7,4 --- --- --- 0,5 02:25 03.04.2004
1005,9 19,8 52 10,3 83 7,5 --- --- --- 0,5 02:40 03.04.2004
1005,9 19,8 52 10,3 82 7,3 --- --- --- 0,5 02:55 03.04.2004
1006,0 19,7 52 10,2 82 7,2 --- --- --- 0,5 03:10 03.04.2004
1006,1 19,7 52 10,2 82 7,2 --- --- --- 0,5 03:25 03.04.2004
1006,1 19,8 53 10,2 82 7,2 --- --- --- 0,5 03:40 03.04.2004
1006,1 19,7 53 10,2 82 7,2 --- --- --- 0,5 03:55 03.04.2004
1006,1 19,6 52 10,2 81 7,0 --- --- --- 0,5 04:10 03.04.2004
1006,2 19,5 52 10,2 81 7,0 --- --- --- 0,5 04:25 03.04.2004
1006,2 19,4 52 10,1 80 6,8 --- --- --- 0,5 04:40 03.04.2004
1006,1 19,3 52 9,8 81 6,7 --- --- --- 0,5 04:55 03.04.2004
1006,2 19,2 52 9,5 81 6,4 --- --- --- 0,5 05:10 03.04.2004
1006,3 19,2 52 9,4 82 6,4 --- --- --- 0,5 05:25 03.04.2004
1006,2 19,1 52 9,5 81 6,4 --- --- --- 0,5 05:40 03.04.2004
1006,4 19,1 52 9,5 80 6,2 --- --- --- 0,5 05:55 03.04.2004
1006,5 19,0 52 9,7 79 6,2 --- --- --- 0,5 06:10 03.04.2004
1006,5 19,0 52 9,7 78 6,0 --- --- --- 0,5 06:25 03.04.2004
1006,6 18,9 53 9,8 79 6,3 --- --- --- 0,5 06:40 03.04.2004
1006,6 18,9 53 9,7 79 6,2 --- --- --- 0,5 06:55 03.04.2004
1006,9 18,9 53 9,6 80 6,3 --- --- --- 0,5 07:10 03.04.2004
1007,1 19,0 53 9,6 81 6,5 --- --- --- 0,5 07:25 03.04.2004
1007,2 19,2 52 9,7 82 6,7 --- --- --- 0,5 07:40 03.04.2004
1007,6 18,9 53 9,7 82 6,7 --- --- --- 0,5 07:55 03.04.2004
1007,7 18,8 53 10,0 82 7,0 --- --- --- 0,5 08:10 03.04.2004
1007,9 18,8 53 10,1 82 7,1 --- --- --- 0,5 08:25 03.04.2004
1008,2 18,7 53 10,2 83 7,4 --- --- --- 0,5 08:40 03.04.2004
1008,3 18,6 53 10,1 84 7,5 --- --- --- 0,5 08:55 03.04.2004
1008,4 18,5 53 10,2 85 7,8 --- --- --- 0,5 09:10 03.04.2004
1008,5 18,5 53 10,4 84 7,8 --- --- --- 0,5 09:25 03.04.2004
1008,9 18,4 53 10,7 83 7,9 --- --- --- 0,5 09:40 03.04.2004
1009,2 18,4 53 11,1 82 8,1 --- --- --- 0,5 09:55 03.04.2004
1009,4 18,5 53 11,4 80 8,0 --- --- --- 0,5 10:10 03.04.2004
1009,6 18,7 53 11,5 78 7,8 --- --- --- 0,5 10:25 03.04.2004
1009,7 18,9 54 11,7 76 7,6 --- --- --- 0,5 10:40 03.04.2004
1010,0 19,0 53 12,1 75 7,8 --- --- --- 0,5 10:55 03.04.2004
1010,2 19,0 53 12,4 73 7,7 --- --- --- 0,5 11:10 03.04.2004
1010,4 19,1 53 12,5 72 7,6 --- --- --- 0,5 11:25 03.04.2004
1010,6 19,1 52 13,4 70 8,0 --- --- --- 0,5 11:40 03.04.2004
1010,8 19,1 52 13,8 66 7,5 --- --- --- 0,5 11:55 03.04.2004
1010,9 19,1 52 13,8 63 6,8 --- --- --- 0,5 12:10 03.04.2004
1011,2 19,1 52 13,2 66 7,0 --- --- --- 0,5 12:25 03.04.2004
1011,4 19,1 52 13,1 72 8,1 --- --- --- 0,5 12:40 03.04.2004
1011,5 19,1 52 15,1 66 8,8 --- --- --- 0,5 12:55 03.04.2004
1011,6 19,2 52 15,9 57 7,4 --- --- --- 0,5 13:10 03.04.2004
1011,6 19,2 51 16,4 52 6,5 --- --- --- 0,5 13:25 03.04.2004
1011,4 19,3 50 17,8 49 6,9 --- --- --- 0,5 13:40 03.04.2004
1011,4 19,9 50 18,1 48 6,9 --- --- --- 0,5 13:55 03.04.2004
1011,7 20,5 50 18,7 46 6,8 --- --- --- 0,5 14:10 03.04.2004
1011,6 21,0 49 18,1 45 6,0 --- --- --- 0,5 14:25 03.04.2004
1011,9 21,3 49 17,0 46 5,3 --- --- --- 0,5 14:40 03.04.2004
1011,9 21,6 48 16,6 46 4,9 --- --- --- 0,5 14:55 03.04.2004
1011,8 21,7 45 15,9 46 4,3 --- --- --- 0,5 15:10 03.04.2004
1011,9 21,9 44 16,1 50 5,6 --- --- --- 0,5 15:25 03.04.2004
1012,0 21,9 43 16,2 49 5,4 --- --- --- 0,5 15:40 03.04.2004
1011,9 22,0 41 16,2 50 5,7 --- --- --- 0,5 15:55 03.04.2004
1011,7 22,2 41 16,5 50 6,0 --- --- --- 0,5 16:10 03.04.2004
1011,7 22,3 40 17,1 48 6,0 --- --- --- 0,5 16:25 03.04.2004
1011,5 22,5 41 16,7 49 5,9 --- --- --- 0,5 16:40 03.04.2004
1011,7 22,6 42 16,4 50 5,9 --- --- --- 0,5 16:55 03.04.2004
1011,5 22,7 42 15,7 50 5,3 --- --- --- 0,5 17:10 03.04.2004
1011,5 22,7 42 15,4 53 5,8 --- --- --- 0,5 17:25 03.04.2004
1011,4 22,8 42 15,7 53 6,1 --- --- --- 0,5 17:40 03.04.2004
1011,4 22,9 42 16,3 52 6,4 --- --- --- 0,5 17:55 03.04.2004
1011,4 22,9 42 15,8 53 6,2 --- --- --- 0,5 18:10 03.04.2004
1011,6 22,9 42 15,1 57 6,6 --- --- --- 0,5 18:25 03.04.2004
1011,6 22,8 42 14,6 60 6,9 --- --- --- 0,5 18:40 03.04.2004
1011,5 22,9 42 14,4 62 7,2 --- --- --- 0,5 18:55 03.04.2004
1011,5 22,8 43 14,4 62 7,2 --- --- --- 0,5 19:10 03.04.2004
1011,6 22,9 43 14,3 64 7,6 --- --- --- 0,5 19:25 03.04.2004
1011,5 23,0 42 14,1 64 7,4 --- --- --- 0,5 19:40 03.04.2004
1011,4 22,6 43 14,0 64 7,3 --- --- --- 0,5 19:55 03.04.2004
1011,5 21,7 44 13,8 65 7,3 --- --- --- 0,5 20:10 03.04.2004
1011,5 21,2 44 13,6 65 7,1 --- --- --- 0,5 20:25 03.04.2004
1011,7 21,0 45 13,5 66 7,2 --- --- --- 0,5 20:40 03.04.2004
1011,5 20,8 46 13,3 70 7,9 --- --- --- 0,5 20:55 03.04.2004
1011,7 20,7 47 13,1 72 8,1 --- --- --- 0,5 21:10 03.04.2004
1011,4 20,6 47 12,9 73 8,1 --- --- --- 0,5 21:25 03.04.2004
1011,6 20,5 47 12,8 74 8,2 --- --- --- 0,5 21:40 03.04.2004
1011,7 20,8 49 12,7 76 8,5 --- --- --- 0,5 21:55 03.04.2004
1011,9 21,5 48 12,5 77 8,5 --- --- --- 0,5 22:10 03.04.2004
1011,8 22,0 46 12,5 77 8,5 --- --- --- 0,5 22:25 03.04.2004
1012,0 22,3 46 12,5 77 8,5 --- --- --- 0,5 22:40 03.04.2004
1011,8 22,5 46 12,6 77 8,6 --- --- --- 0,5 22:55 03.04.2004
1011,9 22,7 45 12,5 77 8,5 --- --- --- 0,5 23:10 03.04.2004
1011,5 22,8 45 12,4 77 8,4 --- --- --- 0,5 23:25 03.04.2004
1011,5 22,9 45 12,3 78 8,5 --- --- --- 0,5 23:40 03.04.2004
1011,3 22,6 44 12,3 77 8,3 --- --- --- 0,5 23:55 03.04.2004
1011,3 21,6 46 12,3 76 8,2 --- --- --- 0,5 00:10 04.04.2004
1011,1 21,1 46 12,2 76 8,1 --- --- --- 0,5 00:25 04.04.2004
1010,8 20,7 47 12,2 76 8,1 --- --- --- 0,5 00:40 04.04.2004
1010,7 20,5 48 12,1 75 7,8 --- --- --- 0,5 00:55 04.04.2004
1010,5 20,3 48 11,9 75 7,6 --- --- --- 0,5 01:10 04.04.2004
1010,2 20,2 49 11,9 76 7,8 --- --- --- 0,5 01:25 04.04.2004
1010,3 20,0 49 11,7 76 7,6 --- --- --- 0,5 01:40 04.04.2004
1010,2 19,9 49 11,7 76 7,6 --- --- --- 0,5 01:55 04.04.2004
1010,0 19,9 49 11,7 75 7,4 --- --- --- 0,5 02:10 04.04.2004
1009,8 19,8 50 11,6 74 7,1 --- --- --- 0,5 02:25 04.04.2004
1009,5 19,7 50 11,6 73 6,9 --- --- --- 0,5 02:40 04.04.2004
1008,9 19,7 50 11,5 72 6,6 --- --- --- 0,5 02:55 04.04.2004
1008,9 19,7 50 11,5 71 6,4 --- --- --- 0,5 03:10 04.04.2004
1008,7 19,6 50 11,5 70 6,2 --- --- --- 0,5 03:25 04.04.2004
1008,5 19,6 50 11,5 69 6,0 --- --- --- 0,5 03:40 04.04.2004
1008,3 19,5 50 11,6 68 5,9 --- --- --- 0,5 03:55 04.04.2004
1007,9 19,4 50 11,7 67 5,7 --- --- --- 0,5 04:10 04.04.2004
1007,9 19,4 50 11,7 66 5,5 --- --- --- 0,5 04:25 04.04.2004
1007,5 19,3 49 11,8 66 5,6 --- --- --- 0,5 04:40 04.04.2004
1007,5 19,3 50 11,8 66 5,6 --- --- --- 0,5 04:55 04.04.2004
1007,4 19,2 49 11,8 66 5,6 --- --- --- 0,5 05:10 04.04.2004
1007,4 19,2 49 11,7 66 5,5 --- --- --- 0,5 05:25 04.04.2004
1007,4 19,1 49 11,8 66 5,6 --- --- --- 0,5 05:40 04.04.2004
1007,6 19,1 49 11,8 67 5,8 --- --- --- 0,5 05:55 04.04.2004
1007,5 19,1 49 11,8 68 6,1 --- --- --- 0,5 06:10 04.04.2004
1007,6 19,0 49 11,4 73 6,7 --- --- --- 0,5 06:25 04.04.2004
1008,5 18,9 50 10,9 78 7,2 --- --- --- 0,5 06:40 04.04.2004
1008,8 18,9 51 10,5 82 7,5 --- --- --- 0,5 06:55 04.04.2004
1008,9 18,9 51 10,3 84 7,7 --- --- --- 0,5 07:10 04.04.2004
1009,2 18,9 51 10,1 85 7,7 --- --- --- 0,5 07:25 04.04.2004
1009,6 18,9 51 10,1 85 7,7 --- --- --- 0,5 07:40 04.04.2004
1009,9 18,9 52 9,8 86 7,5 --- --- --- 0,5 07:55 04.04.2004
1010,2 18,9 52 9,9 86 7,6 --- --- --- 0,5 08:10 04.04.2004
1010,5 18,8 52 10,1 85 7,7 --- --- --- 0,5 08:25 04.04.2004
1011,0 18,8 52 10,1 84 7,5 --- --- --- 0,5 08:40 04.04.2004
1011,3 18,8 52 10,1 82 7,1 --- --- --- 0,5 08:55 04.04.2004
1011,7 18,8 52 10,2 80 6,9 --- --- --- 0,5 09:10 04.04.2004
1011,4 18,8 52 10,2 76 6,1 --- --- --- 0,5 09:25 04.04.2004
1011,8 19,1 52 10,2 75 5,9 --- --- --- 0,5 09:40 04.04.2004
1011,9 19,6 51 10,2 75 5,9 --- --- --- 0,5 09:55 04.04.2004
1012,1 20,1 50 10,5 72 5,6 --- --- --- 0,5 10:10 04.04.2004
1012,5 20,7 50 10,7 69 5,2 --- --- --- 0,5 10:25 04.04.2004
1012,5 20,5 48 11,2 67 5,3 --- --- --- 0,5 10:40 04.04.2004
1012,7 20,0 50 11,7 64 5,1 --- --- --- 0,5 10:55 04.04.2004
1012,8 19,7 51 11,7 63 4,9 --- --- --- 0,5 11:10 04.04.2004
1012,8 19,5 51 11,9 62 4,8 --- --- --- 0,5 11:25 04.04.2004
1013,0 19,4 51 12,1 59 4,3 --- --- --- 0,5 11:40 04.04.2004
1012,9 19,3 51 12,5 59 4,7 --- --- --- 0,5 11:55 04.04.2004
1012,9 19,3 51 12,9 57 4,6 --- --- --- 0,5 12:10 04.04.2004
1013,2 19,2 51 13,4 54 4,2 --- --- --- 0,5 12:25 04.04.2004
1013,1 19,2 52 15,8 51 5,7 --- --- --- 0,5 12:40 04.04.2004
1013,1 19,2 53 19,2 43 6,3 --- --- --- 0,5 12:55 04.04.2004
1013,2 19,2 53 22,5 33 5,4 --- --- --- 0,5 13:10 04.04.2004
1013,1 19,3 53 22,8 28 3,3 --- --- --- 0,5 13:25 04.04.2004
1013,1 19,3 52 21,5 29 2,7 --- --- --- 0,5 13:40 04.04.2004
1013,1 19,3 52 19,2 34 2,9 --- --- --- 0,5 13:55 04.04.2004
1013,1 19,3 52 18,7 37 3,7 --- --- --- 0,5 14:10 04.04.2004
1013,2 19,4 52 18,2 36 2,9 --- --- --- 0,5 14:25 04.04.2004
1013,1 19,8 52 18,7 37 3,7 --- --- --- 0,5 14:40 04.04.2004
1013,0 20,3 52 20,9 32 3,6 --- --- --- 0,5 14:55 04.04.2004
1012,7 20,2 51 21,0 35 4,9 --- --- --- 0,5 15:10 04.04.2004
1012,7 20,3 51 22,2 26 1,8 --- --- --- 0,5 15:25 04.04.2004
1012,4 20,3 50 24,6 25 3,2 --- --- --- 0,5 15:40 04.04.2004
1012,5 20,4 50 24,3 22 1,2 --- --- --- 0,5 15:55 04.04.2004
1012,4 20,4 48 21,5 26 1,2 --- --- --- 0,5 16:10 04.04.2004
1012,4 20,5 47 19,8 30 1,7 --- --- --- 0,5 16:25 04.04.2004
1012,3 20,6 47 20,5 30 2,3 --- --- --- 0,5 16:40 04.04.2004
1012,1 20,6 45 19,2 31 1,6 --- --- --- 0,5 16:55 04.04.2004
1011,9 20,9 44 17,2 35 1,6 --- --- --- 0,5 17:10 04.04.2004
1011,8 21,4 43 17,4 37 2,5 --- --- --- 0,5 17:25 04.04.2004
1011,5 21,9 40 18,1 37 3,2 --- --- --- 0,5 17:40 04.04.2004
1011,5 22,4 40 20,2 30 2,0 --- --- --- 0,5 17:55 04.04.2004
1011,2 22,7 39 18,2 32 1,2 --- --- --- 0,5 18:10 04.04.2004
1011,2 22,9 39 16,5 36 1,3 --- --- --- 0,5 18:25 04.04.2004
1010,9 23,0 38 15,8 38 1,5 --- --- --- 0,5 18:40 04.04.2004
1011,1 23,1 39 15,2 39 1,3 --- --- --- 0,5 18:55 04.04.2004
1011,0 23,2 39 15,4 40 1,8 --- --- --- 0,5 19:10 04.04.2004
1010,9 23,3 40 15,2 40 1,7 --- --- --- 0,5 19:25 04.04.2004
1010,8 23,5 40 14,7 41 1,6 --- --- --- 0,5 19:40 04.04.2004
1010,6 23,5 39 14,3 42 1,5 --- --- --- 0,5 19:55 04.04.2004
1010,5 23,5 37 13,8 44 1,7 --- --- --- 0,5 20:10 04.04.2004
1010,4 23,5 37 13,5 45 1,8 --- --- --- 0,5 20:25 04.04.2004
1010,3 23,3 38 13,4 47 2,3 --- --- --- 0,5 20:40 04.04.2004
1010,3 22,3 40 13,2 47 2,1 --- --- --- 0,5 20:55 04.04.2004
1010,3 21,9 43 12,9 48 2,1 --- --- --- 0,5 21:10 04.04.2004
1010,4 22,5 43 12,8 49 2,3 --- --- --- 0,5 21:25 04.04.2004
1010,7 23,0 42 12,7 50 2,5 --- --- --- 0,5 21:40 04.04.2004
1010,6 22,4 42 12,5 51 2,6 --- --- --- 0,5 21:55 04.04.2004
1010,4 21,9 44 12,4 52 2,8 --- --- --- 0,5 22:10 04.04.2004
1010,6 21,7 44 12,2 53 2,9 --- --- --- 0,5 22:25 04.04.2004
1010,4 22,1 43 12,1 53 2,8 --- --- --- 0,5 22:40 04.04.2004
1010,4 22,5 43 12,2 54 3,1 --- --- --- 0,5 22:55 04.04.2004
1010,6 22,9 43 12,1 54 3,0 --- --- --- 0,5 23:10 04.04.2004
1010,4 23,2 42 12,1 55 3,3 --- --- --- 0,5 23:25 04.04.2004
1010,5 23,6 42 11,7 57 3,4 --- --- --- 0,5 23:40 04.04.2004
1010,3 23,7 42 11,4 60 3,9 --- --- --- 0,5 23:55 04.04.2004
1010,3 23,8 42 11,2 61 3,9 --- --- --- 0,5 00:10 05.04.2004
1010,4 23,8 42 11,1 62 4,1 --- --- --- 0,5 00:25 05.04.2004
1010,5 23,7 41 11,1 62 4,1 --- --- --- 0,5 00:40 05.04.2004
1010,6 23,7 41 11,1 63 4,3 --- --- --- 0,5 00:55 05.04.2004
1010,6 23,7 41 11,0 63 4,2 --- --- --- 0,5 01:10 05.04.2004
1010,5 23,2 41 10,9 64 4,3 --- --- --- 0,5 01:25 05.04.2004
1010,5 22,3 42 10,8 64 4,2 --- --- --- 0,5 01:40 05.04.2004
1010,3 21,8 44 10,7 64 4,1 --- --- --- 0,5 01:55 05.04.2004
1010,2 21,5 44 10,5 64 3,9 --- --- --- 0,5 02:10 05.04.2004
1010,1 21,2 44 10,5 64 3,9 --- --- --- 0,5 02:25 05.04.2004
1010,0 20,9 45 10,3 66 4,2 --- --- --- 0,5 02:40 05.04.2004
1010,1 20,7 46 10,2 66 4,1 --- --- --- 0,5 02:55 05.04.2004
1010,1 20,6 46 10,0 66 3,9 --- --- --- 0,5 03:10 05.04.2004
1009,9 20,5 46 9,7 68 4,0 --- --- --- 0,5 03:25 05.04.2004
1010,2 20,4 46 9,4 69 4,0 --- --- --- 0,5 03:40 05.04.2004
1010,1 20,3 46 9,4 71 4,4 --- --- --- 0,5 03:55 05.04.2004
1010,1 20,2 47 9,4 72 4,6 --- --- --- 0,5 04:10 05.04.2004
1010,0 20,2 47 9,4 71 4,4 --- --- --- 0,5 04:25 05.04.2004
1010,1 20,0 47 9,4 71 4,4 --- --- --- 0,5 04:40 05.04.2004
1010,1 19,9 47 9,4 72 4,6 --- --- --- 0,5 04:55 05.04.2004
1010,1 19,9 47 9,4 72 4,6 --- --- --- 0,5 05:10 05.04.2004
1010,0 19,8 47 9,1 73 4,5 --- --- --- 0,5 05:25 05.04.2004
1010,2 19,7 47 8,9 73 4,3 --- --- --- 0,5 05:40 05.04.2004
1010,1 19,6 47 8,7 73 4,1 --- --- --- 0,5 05:55 05.04.2004
1010,2 19,5 47 8,7 74 4,3 --- --- --- 0,5 06:10 05.04.2004
1010,2 19,5 47 8,7 75 4,5 --- --- --- 0,5 06:25 05.04.2004
1010,3 19,4 47 8,7 75 4,5 --- --- --- 0,5 06:40 05.04.2004
1010,2 19,2 47 8,8 75 4,6 --- --- --- 0,5 06:55 05.04.2004
1010,4 19,2 48 8,5 75 4,3 --- --- --- 0,5 07:10 05.04.2004
1010,5 19,1 48 8,3 76 4,3 --- --- --- 0,5 07:25 05.04.2004
1010,6 19,0 48 8,0 77 4,2 --- --- --- 0,5 07:40 05.04.2004
1010,7 19,0 48 7,9 77 4,1 --- --- --- 0,5 07:55 05.04.2004
1010,8 19,1 48 8,0 77 4,2 --- --- --- 0,5 08:10 05.04.2004
1010,7 19,0 48 8,1 78 4,5 --- --- --- 0,5 08:25 05.04.2004
1010,8 19,2 48 8,2 78 4,6 --- --- --- 0,5 08:40 05.04.2004
1010,9 19,5 47 8,6 77 4,8 --- --- --- 0,5 08:55 05.04.2004
1010,9 19,2 47 8,7 76 4,7 --- --- --- 0,5 09:10 05.04.2004
1010,9 19,4 48 8,8 76 4,8 --- --- --- 0,5 09:25 05.04.2004
1010,9 20,1 48 9,3 75 5,1 --- --- --- 0,5 09:40 05.04.2004
1011,0 20,0 47 9,8 73 5,2 --- --- --- 0,5 09:55 05.04.2004
1010,7 19,5 47 10,1 71 5,0 --- --- --- 0,5 10:10 05.04.2004
1010,7 19,2 47 10,4 70 5,1 --- --- --- 0,5 10:25 05.04.2004
1010,9 19,0 47 10,5 67 4,6 --- --- --- 0,5 10:40 05.04.2004
1010,6 19,4 47 10,8 65 4,4 --- --- --- 0,5 10:55 05.04.2004
1010,8 20,3 47 10,9 62 3,9 --- --- --- 0,5 11:10 05.04.2004
1010,6 20,9 46 11,1 60 3,6 --- --- --- 0,5 11:25 05.04.2004
1010,7 21,3 44 11,7 58 3,7 --- --- --- 0,5 11:40 05.04.2004
1010,5 21,5 43 11,6 56 3,1 --- --- --- 0,5 11:55 05.04.2004
1010,6 21,7 43 11,7 55 2,9 --- --- --- 0,5 12:10 05.04.2004
1010,4 21,8 42 12,2 54 3,1 --- --- --- 0,5 12:25 05.04.2004
1010,4 21,9 41 12,8 49 2,3 --- --- --- 0,5 12:40 05.04.2004
1010,2 22,0 40 13,2 48 2,4 --- --- --- 0,5 12:55 05.04.2004
1010,0 21,2 40 13,4 47 2,3 --- --- --- 0,5 13:10 05.04.2004
1009,9 20,5 42 13,4 46 2,0 --- --- --- 0,5 13:25 05.04.2004
1010,0 20,1 42 12,4 48 1,7 --- --- --- 0,5 13:40 05.04.2004
1009,6 19,9 42 12,5 49 2,0 --- --- --- 0,5 13:55 05.04.2004
1009,4 19,8 43 13,6 46 2,2 --- --- --- 0,5 14:10 05.04.2004
1009,3 19,8 43 14,8 45 2,9 --- --- --- 0,5 14:25 05.04.2004
1009,2 19,7 43 14,4 44 2,3 --- --- --- 0,5 14:40 05.04.2004
1009,2 19,7 43 13,8 44 1,7 --- --- --- 0,5 14:55 05.04.2004
1009,1 19,6 43 13,2 46 1,8 --- --- --- 0,5 15:10 05.04.2004
1009,1 19,6 43 12,5 52 2,9 --- --- --- 0,5 15:25 05.04.2004
1009,2 19,6 43 11,8 59 4,0 --- --- --- 0,5 15:40 05.04.2004
1008,9 19,7 44 12,5 61 5,1 --- --- --- 0,5 15:55 05.04.2004
1008,3 19,9 45 13,8 56 5,1 --- --- --- 0,5 16:10 05.04.2004
1008,3 20,0 45 13,4 57 5,0 --- --- --- 0,5 16:25 05.04.2004
1008,0 20,3 45 12,8 56 4,2 --- --- --- 0,5 16:40 05.04.2004
1008,1 20,4 45 11,5 62 4,4 --- --- --- 0,5 16:55 05.04.2004
1007,8 20,5 45 10,8 65 4,4 --- --- --- 0,5 17:10 05.04.2004
1007,6 20,6 45 11,2 67 5,3 --- --- --- 0,5 17:25 05.04.2004
1007,4 20,8 45 11,5 64 4,9 --- --- --- 0,5 17:40 05.04.2004
1007,3 20,8 45 11,5 61 4,2 --- --- --- 0,5 17:55 05.04.2004
1007,2 20,7 45 11,2 63 4,4 --- --- --- 0,5 18:10 05.04.2004
1006,9 20,7 45 10,8 67 4,9 --- --- --- 0,5 18:25 05.04.2004
1006,9 20,9 45 10,6 69 5,1 --- --- --- 0,5 18:40 05.04.2004
1006,8 21,3 45 10,6 69 5,1 --- --- --- 0,5 18:55 05.04.2004
1006,7 21,5 46 10,6 67 4,7 --- --- --- 0,5 19:10 05.04.2004
1006,5 21,7 47 10,4 70 5,1 --- --- --- 0,5 19:25 05.04.2004
1006,4 21,8 47 10,1 72 5,2 --- --- --- 0,5 19:40 05.04.2004
1006,2 21,8 47 10,0 73 5,3 --- --- --- 0,5 19:55 05.04.2004
1006,0 21,3 41 10,1 73 5,4 --- --- --- 0,5 20:10 05.04.2004
1006,0 18,5 40 10,2 72 5,3 --- --- --- 0,5 20:25 05.04.2004
1006,1 18,6 41 10,2 72 5,3 --- --- --- 0,5 20:40 05.04.2004
1006,1 19,5 45 9,8 73 5,2 --- --- --- 0,5 20:55 05.04.2004
1005,9 20,2 46 9,2 76 5,2 --- --- --- 0,5 21:10 05.04.2004
1005,8 20,2 47 9,1 76 5,1 --- --- --- 0,5 21:25 05.04.2004
1005,6 19,8 47 9,1 76 5,1 --- --- --- 0,5 21:40 05.04.2004
1005,4 19,5 47 9,2 76 5,2 --- --- --- 0,5 21:55 05.04.2004
1005,2 19,4 48 9,2 76 5,2 --- --- --- 0,5 22:10 05.04.2004
1005,2 19,2 48 9,2 76 5,2 --- --- --- 0,5 22:25 05.04.2004
1005,1 19,2 48 9,4 76 5,3 --- --- --- 0,5 22:40 05.04.2004
1005,0 19,1 48 9,4 76 5,3 --- --- --- 0,5 22:55 05.04.2004
1004,9 19,1 49 9,5 75 5,3 --- --- --- 0,5 23:10 05.04.2004
1004,8 19,3 50 9,5 74 5,1 --- --- --- 0,5 23:25 05.04.2004
1004,6 19,4 49 9,6 73 5,0 --- --- --- 0,5 23:40 05.04.2004
1004,5 19,4 48 9,6 72 4,8 --- --- --- 0,5 23:55 05.04.2004
1004,3 19,3 48 9,3 75 5,1 --- --- --- 0,5 00:10 06.04.2004
1004,0 19,2 48 9,2 75 5,0 --- --- --- 0,5 00:25 06.04.2004
1003,9 19,2 48 9,2 76 5,2 --- --- --- 0,5 00:40 06.04.2004
1003,9 19,2 49 9,2 76 5,2 --- --- --- 0,5 00:55 06.04.2004
1003,7 19,0 49 9,1 77 5,2 --- --- --- 0,5 01:10 06.04.2004
1003,6 18,9 49 8,8 79 5,3 --- --- --- 0,5 01:25 06.04.2004
1003,4 18,9 50 8,7 79 5,2 --- --- --- 0,5 01:40 06.04.2004
1003,2 18,9 51 8,8 78 5,1 --- --- --- 0,5 01:55 06.04.2004
1002,9 18,9 51 8,9 78 5,2 --- --- --- 0,5 02:10 06.04.2004
1003,0 18,9 51 9,0 77 5,1 --- --- --- 0,5 02:25 06.04.2004
1002,7 18,9 51 8,9 77 5,0 --- --- --- 0,5 02:40 06.04.2004
1002,4 18,8 51 9,0 77 5,1 --- --- --- 0,5 02:55 06.04.2004
1002,2 18,8 51 8,8 77 5,0 --- --- --- 0,5 03:10 06.04.2004
1002,0 18,7 51 9,0 77 5,1 --- --- --- 0,5 03:25 06.04.2004
1002,0 18,7 51 8,9 77 5,0 --- --- --- 0,5 03:40 06.04.2004
1001,9 18,6 51 8,8 77 5,0 --- --- --- 0,5 03:55 06.04.2004
1001,8 18,5 51 9,0 77 5,1 --- --- --- 0,5 04:10 06.04.2004
1001,6 18,5 51 8,9 77 5,0 --- --- --- 0,5 04:25 06.04.2004
1001,5 18,5 51 8,8 77 5,0 --- --- --- 0,5 04:40 06.04.2004
1001,5 18,5 51 8,8 77 5,0 --- --- --- 0,5 04:55 06.04.2004
1001,3 18,5 51 8,7 77 4,9 --- --- --- 0,5 05:10 06.04.2004
1001,2 18,4 51 8,7 77 4,9 --- --- --- 0,5 05:25 06.04.2004
1001,2 18,3 51 8,7 77 4,9 --- --- --- 0,5 05:40 06.04.2004
1001,6 18,2 51 8,0 75 3,8 --- --- --- 0,5 05:55 06.04.2004
1001,5 18,2 51 6,7 78 3,1 --- --- --- 0,5 06:10 06.04.2004
1001,3 18,2 51 6,4 80 3,2 --- --- --- 0,5 06:25 06.04.2004
1001,3 18,2 51 6,5 81 3,4 --- --- --- 0,5 06:40 06.04.2004
1001,1 18,2 51 6,4 83 3,7 --- --- --- 0,5 06:55 06.04.2004
1001,3 18,2 51 6,4 83 3,7 --- --- --- 0,5 07:10 06.04.2004
1001,4 18,1 51 6,3 84 3,8 --- --- --- 0,5 07:25 06.04.2004
1001,7 18,1 51 6,4 83 3,7 --- --- --- 0,5 07:40 06.04.2004
1001,6 18,5 52 6,4 84 3,9 --- --- --- 0,5 07:55 06.04.2004
1001,8 18,9 47 6,2 84 3,7 --- --- --- 0,5 08:10 06.04.2004
1002,0 18,7 43 6,2 83 3,5 --- --- --- 0,5 08:25 06.04.2004
1001,9 18,5 42 6,3 83 3,6 --- --- --- 0,5 08:40 06.04.2004
1001,9 18,3 42 6,2 83 3,5 --- --- --- 0,5 08:55 06.04.2004
1002,0 18,1 42 6,4 83 3,7 --- --- --- 0,5 09:10 06.04.2004
1001,8 17,9 42 6,5 82 3,6 --- --- --- 0,5 09:25 06.04.2004
1002,0 17,8 42 6,8 82 3,9 --- --- --- 0,5 09:40 06.04.2004
1002,0 17,4 42 7,4 81 4,3 --- --- --- 0,5 09:55 06.04.2004
1002,1 17,0 43 7,8 79 4,3 --- --- --- 0,5 10:10 06.04.2004
1002,1 17,2 42 8,4 75 4,2 --- --- --- 0,5 10:25 06.04.2004
1002,2 17,4 41 8,4 73 3,8 --- --- --- 0,5 10:40 06.04.2004
1002,4 17,6 41 8,7 70 3,5 --- --- --- 0,5 10:55 06.04.2004
1002,5 17,8 40 9,2 68 3,6 --- --- --- 0,5 11:10 06.04.2004
1002,2 17,8 40 8,5 70 3,3 --- --- --- 0,5 11:25 06.04.2004
1001,8 18,0 40 9,2 71 4,2 --- --- --- 0,5 11:40 06.04.2004
1001,9 18,0 38 10,1 65 3,8 --- --- --- 0,5 11:55 06.04.2004
1001,9 18,2 40 10,1 63 3,3 --- --- --- 0,5 12:10 06.04.2004
1001,9 18,6 42 10,8 61 3,5 --- --- --- 0,5 12:25 06.04.2004
1001,9 19,0 43 10,5 59 2,8 --- --- --- 0,5 12:40 06.04.2004
1001,8 19,3 42 11,9 59 4,1 --- --- --- 0,5 12:55 06.04.2004
1001,4 19,5 42 14,4 45 2,6 --- --- --- 0,5 13:10 06.04.2004
1001,4 18,7 43 11,8 52 2,2 --- --- --- 0,5 13:25 06.04.2004
1001,3 18,3 43 13,7 50 3,4 --- --- --- 0,5 13:40 06.04.2004
1001,0 18,2 44 13,8 49 3,2 --- --- --- 0,5 13:55 06.04.2004
1001,1 18,0 44 12,1 48 1,4 --- --- --- 0,5 14:10 06.04.2004
1000,6 18,0 44 13,8 48 2,9 --- --- --- 0,5 14:25 06.04.2004
1000,5 18,0 44 14,5 44 2,4 --- --- --- 0,5 14:40 06.04.2004
1000,7 17,9 45 12,7 46 1,3 --- --- --- 0,5 14:55 06.04.2004
1000,4 17,8 45 13,3 51 3,3 --- --- --- 0,5 15:10 06.04.2004
1000,4 17,9 45 14,5 44 2,4 --- --- --- 0,5 15:25 06.04.2004
1000,0 17,8 45 12,0 48 1,3 --- --- --- 0,5 15:40 06.04.2004
1000,1 18,0 45 11,1 53 1,8 --- --- --- 0,5 15:55 06.04.2004
999,7 18,8 45 9,8 60 2,4 --- --- --- 0,5 16:10 06.04.2004
999,7 19,4 44 9,5 64 3,0 --- --- --- 0,5 16:25 06.04.2004
999,5 19,0 43 10,0 65 3,7 --- --- --- 0,5 16:40 06.04.2004
999,6 18,5 44 10,2 62 3,2 --- --- --- 0,5 16:55 06.04.2004
999,3 19,1 44 10,1 62 3,1 --- --- --- 0,5 17:10 06.04.2004
998,9 19,7 43 9,9 60 2,5 --- --- --- 0,5 17:25 06.04.2004
998,9 20,1 43 9,8 57 1,6 --- --- --- 0,5 17:40 06.04.2004
998,6 20,4 42 9,6 55 1,0 --- --- --- 0,5 17:55 06.04.2004
998,6 20,6 41 9,4 56 1,0 --- --- --- 0,5 18:10 06.04.2004
998,6 20,7 41 9,3 56 0,9 --- --- --- 0,5 18:25 06.04.2004
998,5 20,8 41 9,4 57 1,3 --- --- --- 0,5 18:40 06.04.2004
998,5 20,8 41 9,2 58 1,3 --- --- --- 0,5 18:55 06.04.2004
998,8 20,7 41 8,3 62 1,4 --- --- --- 0,5 19:10 06.04.2004
998,7 20,7 41 7,3 67 1,5 --- --- --- 0,5 19:25 06.04.2004
998,4 20,8 41 6,8 69 1,5 --- --- --- 0,5 19:40 06.04.2004
998,3 20,7 41 6,5 71 1,6 --- --- --- 0,5 19:55 06.04.2004
998,4 20,8 41 6,5 73 2,0 --- --- --- 0,5 20:10 06.04.2004
998,3 20,9 41 6,3 73 1,8 --- --- --- 0,5 20:25 06.04.2004
998,4 21,0 42 6,0 73 1,5 --- --- --- 0,5 20:40 06.04.2004
998,6 21,1 42 5,8 73 1,3 --- --- --- 0,5 20:55 06.04.2004
998,7 21,0 42 5,8 73 1,3 --- --- --- 0,5 21:10 06.04.2004
998,4 20,1 43 5,8 74 1,5 --- --- --- 0,5 21:25 06.04.2004
998,9 19,7 43 5,8 74 1,5 --- --- --- 0,5 21:40 06.04.2004
998,7 19,5 43 5,7 75 1,6 --- --- --- 0,5 21:55 06.04.2004
998,8 19,2 43 5,8 76 1,9 --- --- --- 0,5 22:10 06.04.2004
998,7 19,4 44 5,8 77 2,0 --- --- --- 0,5 22:25 06.04.2004
998,5 19,2 44 5,4 78 1,8 --- --- --- 0,5 22:40 06.04.2004
998,8 19,0 44 5,3 79 1,9 --- --- --- 0,5 22:55 06.04.2004
999,0 19,0 44 5,2 79 1,8 --- --- --- 0,5 23:10 06.04.2004
999,2 18,9 44 5,3 80 2,1 --- --- --- 0,5 23:25 06.04.2004
999,2 18,9 45 5,4 81 2,4 --- --- --- 0,5 23:40 06.04.2004
999,2 18,9 45 5,5 80 2,3 --- --- --- 0,5 23:55 06.04.2004
999,3 18,9 45 5,5 80 2,3 --- --- --- 0,5 00:10 07.04.2004
999,5 18,8 46 5,5 80 2,3 --- --- --- 0,5 00:25 07.04.2004
999,6 18,8 46 5,4 82 2,5 --- --- --- 0,5 00:40 07.04.2004
999,7 18,7 46 5,4 82 2,5 --- --- --- 0,5 00:55 07.04.2004
999,9 18,7 46 5,4 82 2,5 --- --- --- 0,5 01:10 07.04.2004
999,9 18,6 46 5,2 82 2,3 --- --- --- 0,5 01:25 07.04.2004
1000,1 18,6 46 5,0 82 2,1 --- --- --- 0,5 01:40 07.04.2004
1000,2 18,5 46 4,9 83 2,2 --- --- --- 0,5 01:55 07.04.2004
1000,3 18,5 46 5,1 83 2,4 --- --- --- 0,5 02:10 07.04.2004
1000,5 18,5 47 5,1 83 2,4 --- --- --- 0,5 02:25 07.04.2004
1000,6 18,4 47 5,1 83 2,4 --- --- --- 0,5 02:40 07.04.2004
1000,7 18,5 47 5,1 83 2,4 --- --- --- 0,5 02:55 07.04.2004
1000,9 18,4 47 5,0 84 2,5 --- --- --- 0,5 03:10 07.04.2004
1001,0 18,3 47 4,8 85 2,4 --- --- --- 0,5 03:25 07.04.2004
1001,0 18,3 47 4,8 85 2,4 --- --- --- 0,5 03:40 07.04.2004
1001,0 18,2 47 4,8 86 2,6 --- --- --- 0,5 03:55 07.04.2004
1001,0 18,2 47 4,8 86 2,6 --- --- --- 0,5 04:10 07.04.2004
1001,0 18,1 47 4,8 86 2,6 --- --- --- 0,5 04:25 07.04.2004
1001,3 18,1 47 4,9 86 2,7 --- --- --- 0,5 04:40 07.04.2004
1001,4 18,1 47 5,0 86 2,8 --- --- --- 0,5 04:55 07.04.2004
1001,6 18,1 47 5,1 86 2,9 --- --- --- 0,5 05:10 07.04.2004
1001,6 18,0 47 5,1 86 2,9 --- --- --- 0,5 05:25 07.04.2004
1001,6 18,0 48 5,2 86 3,0 --- --- --- 0,5 05:40 07.04.2004
1001,7 17,9 48 5,1 86 2,9 --- --- --- 0,5 05:55 07.04.2004
1001,8 17,9 48 5,1 86 2,9 --- --- --- 0,5 06:10 07.04.2004
1001,9 17,9 48 4,8 86 2,6 --- --- --- 0,5 06:25 07.04.2004
1002,0 17,9 48 4,8 86 2,6 --- --- --- 0,5 06:40 07.04.2004
1002,1 17,8 48 4,7 85 2,4 --- --- --- 0,5 06:55 07.04.2004
1002,3 17,8 48 4,5 85 2,2 --- --- --- 0,5 07:10 07.04.2004
1002,3 17,8 48 4,4 85 2,1 --- --- --- 0,5 07:25 07.04.2004
1002,4 17,8 48 4,5 86 2,3 --- --- --- 0,5 07:40 07.04.2004
1002,7 17,8 48 4,6 87 2,6 --- --- --- 0,5 07:55 07.04.2004
1002,8 18,3 48 4,8 87 2,8 --- --- --- 0,5 08:10 07.04.2004
1002,9 18,9 48 5,1 87 3,1 --- --- --- 0,5 08:25 07.04.2004
1003,1 19,4 46 5,2 87 3,2 --- --- --- 0,5 08:40 07.04.2004
1003,2 19,7 46 5,5 87 3,5 --- --- --- 0,5 08:55 07.04.2004
1003,3 20,0 46 5,8 85 3,4 --- --- --- 0,5 09:10 07.04.2004
1003,5 20,2 47 6,1 85 3,7 --- --- --- 0,5 09:25 07.04.2004
1003,4 20,3 46 6,3 84 3,8 --- --- --- 0,5 09:40 07.04.2004
1003,5 20,4 46 6,5 82 3,6 --- --- --- 0,5 09:55 07.04.2004
1003,6 20,4 46 7,1 83 4,4 --- --- --- 0,5 10:10 07.04.2004
1003,7 20,5 45 7,8 81 4,7 --- --- --- 0,5 10:25 07.04.2004
1003,9 20,5 45 7,6 79 4,2 --- --- --- 0,5 10:40 07.04.2004
1004,0 20,6 45 7,8 78 4,2 --- --- --- 0,5 10:55 07.04.2004
1004,0 20,7 45 8,8 75 4,6 --- --- --- 0,5 11:10 07.04.2004
1004,2 20,7 45 9,1 71 4,1 --- --- --- 0,5 11:25 07.04.2004
1004,2 20,7 46 9,8 69 4,3 --- --- --- 0,5 11:40 07.04.2004
1004,2 20,8 47 10,4 66 4,3 --- --- --- 0,5 11:55 07.04.2004
1004,3 21,0 45 10,6 62 3,6 --- --- --- 0,5 12:10 07.04.2004
1004,2 20,8 45 11,8 62 4,7 --- --- --- 0,5 12:25 07.04.2004
1004,2 20,6 45 14,1 52 4,4 --- --- --- 0,5 12:40 07.04.2004
1004,3 19,8 45 13,4 48 2,6 --- --- --- 0,5 12:55 07.04.2004
1004,0 19,4 45 13,4 50 3,2 --- --- --- 0,5 13:10 07.04.2004
1004,0 19,6 47 14,2 47 3,0 --- --- --- 0,5 13:25 07.04.2004
1004,2 19,8 46 12,7 48 1,9 --- --- --- 0,5 13:40 07.04.2004
1004,2 19,8 47 11,8 51 2,0 --- --- --- 0,5 13:55 07.04.2004
1004,4 20,5 46 10,7 56 2,2 --- --- --- 0,5 14:10 07.04.2004
1004,2 20,9 46 10,4 63 3,6 --- --- --- 0,5 14:25 07.04.2004
1005,0 21,2 45 9,3 66 3,2 --- --- --- 0,5 14:40 07.04.2004
1005,2 20,3 45 7,7 70 2,5 --- --- --- 0,5 14:55 07.04.2004
1004,8 19,7 45 6,4 75 2,3 --- --- --- 0,5 15:10 07.04.2004
1004,5 19,4 45 6,4 79 3,0 --- --- --- 0,5 15:25 07.04.2004
1004,4 19,2 45 7,2 80 3,9 --- --- --- 0,5 15:40 07.04.2004
1004,3 19,3 46 12,0 77 8,1 --- --- --- 0,5 15:55 07.04.2004
1004,2 19,4 46 15,8 57 7,3 --- --- --- 0,5 16:10 07.04.2004
1004,2 19,6 47 16,4 48 5,3 --- --- --- 0,5 16:25 07.04.2004
1004,2 20,3 47 15,1 53 5,6 --- --- --- 0,5 16:40 07.04.2004
1004,7 20,8 44 13,8 49 3,2 --- --- --- 0,5 16:55 07.04.2004
1004,4 21,0 42 11,4 55 2,6 --- --- --- 0,5 17:10 07.04.2004
1004,3 21,4 41 13,6 56 5,0 --- --- --- 0,5 17:25 07.04.2004
1004,4 20,8 38 12,6 54 3,5 --- --- --- 0,5 17:40 07.04.2004
1004,6 19,1 37 11,4 59 3,6 --- --- --- 0,5 17:55 07.04.2004
1004,5 18,2 37 10,3 61 3,1 --- --- --- 0,5 18:10 07.04.2004
1004,6 18,4 40 9,7 63 3,0 --- --- --- 0,5 18:25 07.04.2004
1004,5 19,2 42 9,2 66 3,1 --- --- --- 0,5 18:40 07.04.2004
1004,7 19,3 42 9,1 67 3,3 --- --- --- 0,5 18:55 07.04.2004
1004,9 18,9 43 9,5 69 4,1 --- --- --- 0,5 19:10 07.04.2004
1004,9 19,4 43 9,8 68 4,1 --- --- --- 0,5 19:25 07.04.2004
1004,9 19,9 42 9,6 68 3,9 --- --- --- 0,5 19:40 07.04.2004
1005,1 20,4 44 9,4 70 4,2 --- --- --- 0,5 19:55 07.04.2004
1005,3 20,7 44 9,1 70 3,9 --- --- --- 0,5 20:10 07.04.2004
1005,5 20,4 44 8,4 71 3,4 --- --- --- 0,5 20:25 07.04.2004
1005,4 19,8 43 8,2 71 3,2 --- --- --- 0,5 20:40 07.04.2004
1005,6 19,5 44 7,7 72 2,9 --- --- --- 0,5 20:55 07.04.2004
1005,7 19,3 44 7,1 73 2,5 --- --- --- 0,5 21:10 07.04.2004
1005,8 19,2 45 6,5 74 2,2 --- --- --- 0,5 21:25 07.04.2004
1006,1 19,3 46 6,1 76 2,1 --- --- --- 0,5 21:40 07.04.2004
1006,2 20,0 46 5,6 76 1,7 --- --- --- 0,5 21:55 07.04.2004
1006,3 20,6 46 5,3 78 1,7 --- --- --- 0,5 22:10 07.04.2004
1006,5 21,0 44 5,1 79 1,7 --- --- --- 0,5 22:25 07.04.2004
1006,5 21,3 44 5,1 80 1,9 --- --- --- 0,5 22:40 07.04.2004
1006,6 21,3 44 5,0 80 1,8 --- --- --- 0,5 22:55 07.04.2004
1006,7 20,5 45 4,8 80 1,6 --- --- --- 0,5 23:10 07.04.2004
1006,6 20,2 44 5,0 81 2,0 --- --- --- 0,5 23:25 07.04.2004
1006,8 20,0 45 5,0 81 2,0 --- --- --- 0,5 23:40 07.04.2004
1007,0 19,8 45 4,9 81 1,9 --- --- --- 0,5 23:55 07.04.2004
1007,0 19,7 45 4,8 81 1,8 --- --- --- 0,5 00:10 08.04.2004
1006,9 19,6 45 4,7 81 1,7 --- --- --- 0,5 00:25 08.04.2004
1007,0 19,5 45 4,4 81 1,4 --- --- --- 0,5 00:40 08.04.2004
1007,2 19,4 45 4,5 82 1,7 --- --- --- 0,5 00:55 08.04.2004
1007,4 19,4 46 4,7 83 2,0 --- --- --- 0,5 01:10 08.04.2004
1007,4 19,3 46 4,7 82 1,8 --- --- --- 0,5 01:25 08.04.2004
1007,3 19,2 46 4,5 82 1,7 --- --- --- 0,5 01:40 08.04.2004
1007,5 19,1 46 4,3 82 1,5 --- --- --- 0,5 01:55 08.04.2004
1007,5 19,0 46 4,1 82 1,3 --- --- --- 0,5 02:10 08.04.2004
1007,5 19,0 47 4,1 82 1,3 --- --- --- 0,5 02:25 08.04.2004
1007,4 18,9 48 3,9 83 1,2 --- --- --- 0,5 02:40 08.04.2004
1007,3 18,9 48 3,8 83 1,1 --- --- --- 0,5 02:55 08.04.2004
1007,2 18,8 48 3,8 83 1,1 --- --- --- 0,5 03:10 08.04.2004
1007,2 18,8 48 3,9 84 1,4 --- --- --- 0,5 03:25 08.04.2004
1007,4 18,8 48 4,2 84 1,7 --- --- --- 0,5 03:40 08.04.2004
1007,3 18,7 49 4,4 84 1,9 --- --- --- 0,5 03:55 08.04.2004
1007,3 18,7 49 4,5 84 2,0 --- --- --- 0,5 04:10 08.04.2004
1007,2 18,7 49 4,5 84 2,0 --- --- --- 0,5 04:25 08.04.2004
1007,2 18,7 49 4,4 84 1,9 --- --- --- 0,5 04:40 08.04.2004
1007,3 18,6 48 4,1 84 1,6 --- --- --- 0,5 04:55 08.04.2004
1007,3 18,6 48 4,1 84 1,6 --- --- --- 0,5 05:10 08.04.2004
1007,3 18,5 48 4,1 85 1,8 --- --- --- 0,5 05:25 08.04.2004
1007,5 18,4 48 4,3 85 2,0 --- --- --- 0,5 05:40 08.04.2004
1007,3 18,5 48 4,4 85 2,1 --- --- --- 0,5 05:55 08.04.2004
1007,2 19,1 47 4,4 85 2,1 --- --- --- 0,5 06:10 08.04.2004
1007,1 19,7 46 4,5 85 2,2 --- --- --- 0,5 06:25 08.04.2004
1007,1 19,9 45 4,7 85 2,4 --- --- --- 0,5 06:40 08.04.2004
1007,2 19,1 45 4,7 85 2,4 --- --- --- 0,5 06:55 08.04.2004
1007,2 18,8 46 4,4 85 2,1 --- --- --- 0,5 07:10 08.04.2004
1007,5 18,6 46 4,1 84 1,6 --- --- --- 0,5 07:25 08.04.2004
1007,6 18,4 46 3,7 84 1,2 --- --- --- 0,5 07:40 08.04.2004
1007,7 18,3 46 3,6 85 1,3 --- --- --- 0,5 07:55 08.04.2004
1007,8 18,2 46 3,7 85 1,4 --- --- --- 0,5 08:10 08.04.2004
1007,9 18,0 45 4,1 86 1,9 --- --- --- 0,5 08:25 08.04.2004
1008,2 17,7 44 4,1 86 1,9 --- --- --- 0,5 08:40 08.04.2004
1008,2 17,9 44 4,1 86 1,9 --- --- --- 0,5 08:55 08.04.2004
1008,2 18,5 45 4,8 87 2,8 --- --- --- 0,5 09:10 08.04.2004
1008,3 19,0 45 5,6 86 3,4 --- --- --- 0,5 09:25 08.04.2004
1008,5 19,2 45 6,4 85 4,0 --- --- --- 0,5 09:40 08.04.2004
1008,3 19,3 44 7,0 82 4,1 --- --- --- 0,5 09:55 08.04.2004
1008,4 19,4 44 7,5 80 4,2 --- --- --- 0,5 10:10 08.04.2004
1008,4 19,6 44 8,1 77 4,3 --- --- --- 0,5 10:25 08.04.2004
1008,5 19,7 44 8,7 74 4,3 --- --- --- 0,5 10:40 08.04.2004
1008,6 19,9 43 8,8 72 4,0 --- --- --- 0,5 10:55 08.04.2004
1008,7 20,1 43 9,1 72 4,3 --- --- --- 0,5 11:10 08.04.2004
1008,6 20,3 44 9,4 72 4,6 --- --- --- 0,5 11:25 08.04.2004
1008,7 19,7 45 9,9 70 4,6 --- --- --- 0,5 11:40 08.04.2004
1008,6 19,2 45 10,2 68 4,5 --- --- --- 0,5 11:55 08.04.2004
1008,8 19,0 45 10,3 67 4,4 --- --- --- 0,5 12:10 08.04.2004
1008,4 18,8 46 10,4 66 4,3 --- --- --- 0,5 12:25 08.04.2004
1008,3 18,7 46 13,7 54 4,5 --- --- --- 0,5 12:40 08.04.2004
1008,4 18,6 46 11,9 53 2,6 --- --- --- 0,5 12:55 08.04.2004
1008,3 18,5 45 10,9 59 3,2 --- --- --- 0,5 13:10 08.04.2004
1008,1 18,5 45 16,6 50 6,1 --- --- --- 0,5 13:25 08.04.2004
1008,0 18,5 45 19,8 36 4,3 --- --- --- 0,5 13:40 08.04.2004
1008,1 18,4 45 14,4 41 1,3 --- --- --- 0,5 13:55 08.04.2004
1008,0 18,6 44 12,3 48 1,6 --- --- --- 0,5 14:10 08.04.2004
1007,7 19,4 43 15,5 49 4,8 --- --- --- 0,5 14:25 08.04.2004
1007,7 20,1 43 16,8 41 3,4 --- --- --- 0,5 14:40 08.04.2004
1007,5 20,5 42 19,3 37 4,2 --- --- --- 0,5 14:55 08.04.2004
1007,4 20,8 41 20,2 34 3,8 --- --- --- 0,5 15:10 08.04.2004
1007,3 21,0 40 23,1 31 5,0 --- --- --- 0,5 15:25 08.04.2004
1007,3 21,2 40 23,0 25 1,9 --- --- --- 0,5 15:40 08.04.2004
1007,2 21,5 40 24,3 25 3,0 --- --- --- 0,5 15:55 08.04.2004
1007,0 21,4 40 24,8 21 1,0 --- --- --- 0,5 16:10 08.04.2004
1006,8 20,6 40 24,7 19 -0,4 --- --- --- 0,5 16:25 08.04.2004
1006,8 20,2 40 21,4 26 1,1 --- --- --- 0,5 16:40 08.04.2004
1007,0 20,0 41 21,5 25 0,6 --- --- --- 0,5 16:55 08.04.2004
1007,2 19,8 41 16,2 32 -0,4 --- --- --- 0,5 17:10 08.04.2004
1007,3 19,5 40 13,2 41 0,2 --- --- --- 0,5 17:25 08.04.2004
1007,4 19,2 40 11,3 46 0,1 --- --- --- 0,5 17:40 08.04.2004
1007,1 19,1 40 10,5 50 0,5 --- --- --- 0,5 17:55 08.04.2004
1007,2 19,0 40 10,0 53 0,8 --- --- --- 0,5 18:10 08.04.2004
1007,1 19,0 42 10,2 55 1,5 --- --- --- 0,5 18:25 08.04.2004
1007,3 18,9 42 10,7 53 1,5 --- --- --- 0,5 18:40 08.04.2004
1007,3 18,9 43 10,2 55 1,5 --- --- --- 0,5 18:55 08.04.2004
1007,3 18,8 43 10,0 57 1,8 --- --- --- 0,5 19:10 08.04.2004
1007,3 18,8 43 9,7 57 1,6 --- --- --- 0,5 19:25 08.04.2004
1007,1 18,8 44 9,6 57 1,5 --- --- --- 0,5 19:40 08.04.2004
1007,1 19,4 45 9,4 58 1,5 --- --- --- 0,5 19:55 08.04.2004
1006,9 20,1 44 9,1 59 1,5 --- --- --- 0,5 20:10 08.04.2004
1007,0 20,5 43 9,0 59 1,4 --- --- --- 0,5 20:25 08.04.2004
1007,2 20,8 43 8,7 61 1,6 --- --- --- 0,5 20:40 08.04.2004
1007,3 21,1 41 8,4 63 1,7 --- --- --- 0,5 20:55 08.04.2004
1007,3 20,6 43 8,3 64 1,9 --- --- --- 0,5 21:10 08.04.2004
1007,5 20,0 43 8,0 65 1,8 --- --- --- 0,5 21:25 08.04.2004
1007,5 19,7 43 7,5 65 1,3 --- --- --- 0,5 21:40 08.04.2004
1007,6 19,5 43 7,1 67 1,3 --- --- --- 0,5 21:55 08.04.2004
1007,6 19,4 43 6,7 68 1,2 --- --- --- 0,5 22:10 08.04.2004
1007,8 19,3 43 6,4 69 1,1 --- --- --- 0,5 22:25 08.04.2004
1007,8 19,2 43 6,4 70 1,3 --- --- --- 0,5 22:40 08.04.2004
1007,8 19,5 44 6,3 71 1,4 --- --- --- 0,5 22:55 08.04.2004
1007,5 20,1 43 6,3 71 1,4 --- --- --- 0,5 23:10 08.04.2004
1007,5 20,0 43 6,3 72 1,6 --- --- --- 0,5 23:25 08.04.2004
1007,6 19,4 42 6,4 73 1,9 --- --- --- 0,5 23:40 08.04.2004
1007,5 19,1 43 6,5 73 2,0 --- --- --- 0,5 23:55 08.04.2004
1007,5 18,9 43 6,5 73 2,0 --- --- --- 0,5 00:10 09.04.2004
1007,6 18,8 44 6,4 72 1,7 --- --- --- 0,5 00:25 09.04.2004
1007,7 18,7 44 6,4 74 2,1 --- --- --- 0,5 00:40 09.04.2004
1007,8 18,5 44 6,4 74 2,1 --- --- --- 0,5 00:55 09.04.2004
1007,7 18,4 44 6,5 74 2,2 --- --- --- 0,5 01:10 09.04.2004
1007,6 18,3 44 6,5 73 2,0 --- --- --- 0,5 01:25 09.04.2004
1007,5 18,3 45 6,4 75 2,3 --- --- --- 0,5 01:40 09.04.2004
1007,5 18,3 45 6,3 76 2,3 --- --- --- 0,5 01:55 09.04.2004
1007,5 18,3 46 6,2 76 2,2 --- --- --- 0,5 02:10 09.04.2004
1007,6 18,2 46 6,1 77 2,3 --- --- --- 0,5 02:25 09.04.2004
1007,4 18,2 46 6,1 77 2,3 --- --- --- 0,5 02:40 09.04.2004
1007,6 18,2 46 6,0 78 2,4 --- --- --- 0,5 02:55 09.04.2004
1007,5 18,1 46 5,8 78 2,2 --- --- --- 0,5 03:10 09.04.2004
1007,5 18,0 46 5,8 78 2,2 --- --- --- 0,5 03:25 09.04.2004
1007,3 18,0 46 6,1 78 2,5 --- --- --- 0,5 03:40 09.04.2004
1007,4 17,9 46 6,1 78 2,5 --- --- --- 0,5 03:55 09.04.2004
1007,2 17,9 46 5,8 78 2,2 --- --- --- 0,5 04:10 09.04.2004
1007,1 17,9 47 5,7 78 2,1 --- --- --- 0,5 04:25 09.04.2004
1007,1 17,8 47 5,5 78 1,9 --- --- --- 0,5 04:40 09.04.2004
1007,0 17,7 47 5,7 79 2,3 --- --- --- 0,5 04:55 09.04.2004
1007,2 17,6 47 5,8 79 2,4 --- --- --- 0,5 05:10 09.04.2004
1007,1 17,5 47 5,8 79 2,4 --- --- --- 0,5 05:25 09.04.2004
1007,2 17,5 47 5,8 79 2,4 --- --- --- 0,5 05:40 09.04.2004
1007,2 17,5 47 5,8 80 2,6 --- --- --- 0,5 05:55 09.04.2004
1007,1 17,5 47 5,9 80 2,7 --- --- --- 0,5 06:10 09.04.2004
1007,3 17,4 47 6,0 80 2,8 --- --- --- 0,5 06:25 09.04.2004
1007,2 17,4 47 6,0 80 2,8 --- --- --- 0,5 06:40 09.04.2004
1007,3 17,3 47 5,8 80 2,6 --- --- --- 0,5 06:55 09.04.2004
1007,3 17,3 47 5,8 80 2,6 --- --- --- 0,5 07:10 09.04.2004
1007,5 17,3 47 5,8 81 2,7 --- --- --- 0,5 07:25 09.04.2004
1007,5 17,5 48 5,8 81 2,7 --- --- --- 0,5 07:40 09.04.2004
1007,7 17,7 47 5,8 80 2,6 --- --- --- 0,5 07:55 09.04.2004
1007,7 17,5 47 5,7 80 2,5 --- --- --- 0,5 08:10 09.04.2004
1007,9 17,4 47 5,6 80 2,4 --- --- --- 0,5 08:25 09.04.2004
1007,9 17,3 47 5,5 79 2,1 --- --- --- 0,5 08:40 09.04.2004
1007,9 17,2 47 5,2 80 2,0 --- --- --- 0,5 08:55 09.04.2004
1007,9 17,1 46 5,1 80 1,9 --- --- --- 0,5 09:10 09.04.2004
1007,9 17,0 46 5,2 81 2,2 --- --- --- 0,5 09:25 09.04.2004
1007,8 17,0 46 5,4 80 2,2 --- --- --- 0,5 09:40 09.04.2004
1008,0 16,9 47 5,7 79 2,3 --- --- --- 0,5 09:55 09.04.2004
1008,1 16,9 47 6,4 79 3,0 --- --- --- 0,5 10:10 09.04.2004
1008,3 16,9 47 6,6 76 2,6 --- --- --- 0,5 10:25 09.04.2004
1008,2 16,9 47 6,8 75 2,6 --- --- --- 0,5 10:40 09.04.2004
1008,4 16,9 47 7,3 74 2,9 --- --- --- 0,5 10:55 09.04.2004
1008,3 16,9 47 7,5 73 2,9 --- --- --- 0,5 11:10 09.04.2004
1008,4 16,9 47 7,9 72 3,1 --- --- --- 0,5 11:25 09.04.2004
1008,3 16,8 47 8,5 69 3,1 --- --- --- 0,5 11:40 09.04.2004
1008,2 16,8 47 8,9 68 3,3 --- --- --- 0,5 11:55 09.04.2004
1008,3 16,8 47 9,2 67 3,4 --- --- --- 0,5 12:10 09.04.2004
1008,3 16,9 47 9,8 65 3,5 --- --- --- 0,5 12:25 09.04.2004
1008,4 16,9 46 10,8 60 3,3 --- --- --- 0,5 12:40 09.04.2004
1008,4 16,9 46 11,1 60 3,6 --- --- --- 0,5 12:55 09.04.2004
1008,2 16,9 46 11,7 54 2,7 --- --- --- 0,5 13:10 09.04.2004
1008,2 16,9 46 10,7 56 2,2 --- --- --- 0,5 13:25 09.04.2004
1008,3 16,9 46 10,4 59 2,7 --- --- --- 0,5 13:40 09.04.2004
1008,3 16,9 46 10,1 59 2,4 --- --- --- 0,5 13:55 09.04.2004
1008,3 16,9 46 10,7 60 3,2 --- --- --- 0,5 14:10 09.04.2004
1008,2 16,9 45 11,5 54 2,5 --- --- --- 0,5 14:25 09.04.2004
1008,2 16,9 45 10,5 54 1,5 --- --- --- 0,5 14:40 09.04.2004
1008,2 16,8 45 9,8 56 1,4 --- --- --- 0,5 14:55 09.04.2004
1008,1 16,8 45 10,0 58 2,1 --- --- --- 0,5 15:10 09.04.2004
1007,9 16,9 45 10,8 57 2,6 --- --- --- 0,5 15:25 09.04.2004
1007,7 16,9 45 10,7 54 1,7 --- --- --- 0,5 15:40 09.04.2004
1007,7 16,8 45 10,5 55 1,8 --- --- --- 0,5 15:55 09.04.2004
1007,6 16,8 45 10,7 56 2,2 --- --- --- 0,5 16:10 09.04.2004
1007,5 16,8 45 10,9 55 2,2 --- --- --- 0,5 16:25 09.04.2004
1007,4 16,8 45 10,7 55 2,0 --- --- --- 0,5 16:40 09.04.2004
1007,4 16,8 45 10,2 56 1,8 --- --- --- 0,5 16:55 09.04.2004
1007,3 16,8 45 9,8 57 1,6 --- --- --- 0,5 17:10 09.04.2004
1007,2 16,8 45 10,1 58 2,2 --- --- --- 0,5 17:25 09.04.2004
1007,1 16,8 45 10,0 57 1,8 --- --- --- 0,5 17:40 09.04.2004
1007,1 16,8 45 10,0 57 1,8 --- --- --- 0,5 17:55 09.04.2004
1007,1 16,8 45 9,8 57 1,6 --- --- --- 0,5 18:10 09.04.2004
1007,1 16,8 44 9,9 57 1,7 --- --- --- 0,5 18:25 09.04.2004
1006,9 17,5 44 10,1 57 1,9 --- --- --- 0,5 18:40 09.04.2004
1007,0 18,2 43 10,4 55 1,7 --- --- --- 0,5 18:55 09.04.2004
1006,8 18,8 42 10,7 52 1,2 --- --- --- 0,5 19:10 09.04.2004
1006,9 19,2 41 11,1 49 0,8 --- --- --- 0,5 19:25 09.04.2004
1006,6 19,3 41 10,4 50 0,4 --- --- --- 0,5 19:40 09.04.2004
1006,8 19,6 41 10,5 49 0,2 --- --- --- 0,5 19:55 09.04.2004
1006,8 19,0 42 10,1 51 0,4 --- --- --- 0,5 20:10 09.04.2004
1007,0 18,7 43 9,5 52 0,1 --- --- --- 0,5 20:25 09.04.2004
1007,1 18,8 44 9,1 53 0,0 --- --- --- 0,5 20:40 09.04.2004
1007,1 18,8 45 8,8 54 0,0 --- --- --- 0,5 20:55 09.04.2004
1007,3 18,8 45 8,8 55 0,2 --- --- --- 0,5 21:10 09.04.2004
1007,3 18,8 46 8,6 55 0,0 --- --- --- 0,5 21:25 09.04.2004
1007,3 18,9 46 8,5 56 0,2 --- --- --- 0,5 21:40 09.04.2004
1007,5 18,8 45 8,5 56 0,2 --- --- --- 0,5 21:55 09.04.2004
1007,5 18,7 45 8,5 56 0,2 --- --- --- 0,5 22:10 09.04.2004
1007,4 18,7 44 8,4 58 0,6 --- --- --- 0,5 22:25 09.04.2004
1007,6 18,6 44 8,3 58 0,5 --- --- --- 0,5 22:40 09.04.2004
1007,6 18,6 44 8,2 58 0,4 --- --- --- 0,5 22:55 09.04.2004
1007,6 18,5 44 8,2 59 0,6 --- --- --- 0,5 23:10 09.04.2004
1007,6 18,5 44 8,2 59 0,6 --- --- --- 0,5 23:25 09.04.2004
1007,7 18,5 45 8,1 59 0,5 --- --- --- 0,5 23:40 09.04.2004
1007,6 18,4 44 8,1 60 0,8 --- --- --- 0,5 23:55 09.04.2004
1007,5 18,3 44 8,1 60 0,8 --- --- --- 0,5 00:10 10.04.2004
1007,5 18,3 44 8,1 60 0,8 --- --- --- 0,5 00:25 10.04.2004
1007,4 18,2 45 8,1 61 1,0 --- --- --- 0,5 00:40 10.04.2004
1007,4 18,2 45 8,0 61 0,9 --- --- --- 0,5 00:55 10.04.2004
1007,4 18,2 45 7,8 62 0,9 --- --- --- 0,5 01:10 10.04.2004
1007,3 18,2 45 7,8 62 0,9 --- --- --- 0,5 01:25 10.04.2004
1007,4 18,1 45 7,7 63 1,1 --- --- --- 0,5 01:40 10.04.2004
1007,3 18,1 46 7,6 63 1,0 --- --- --- 0,5 01:55 10.04.2004
1007,4 18,1 46 7,5 63 0,9 --- --- --- 0,5 02:10 10.04.2004
1007,4 18,1 46 7,4 64 1,0 --- --- --- 0,5 02:25 10.04.2004
1007,3 18,0 46 7,4 65 1,2 --- --- --- 0,5 02:40 10.04.2004
1007,2 17,9 46 7,3 65 1,1 --- --- --- 0,5 02:55 10.04.2004
1007,1 17,9 46 7,1 65 0,9 --- --- --- 0,5 03:10 10.04.2004
1007,2 17,9 46 6,8 66 0,9 --- --- --- 0,5 03:25 10.04.2004
1007,0 17,8 46 6,5 67 0,8 --- --- --- 0,5 03:40 10.04.2004
1007,0 17,8 46 6,2 69 0,9 --- --- --- 0,5 03:55 10.04.2004
1007,0 17,7 46 5,9 69 0,6 --- --- --- 0,5 04:10 10.04.2004
1007,0 17,6 46 5,6 70 0,5 --- --- --- 0,5 04:25 10.04.2004
1007,0 17,5 46 5,5 71 0,6 --- --- --- 0,5 04:40 10.04.2004
1007,1 17,5 46 5,3 72 0,6 --- --- --- 0,5 04:55 10.04.2004
1007,0 17,5 46 5,2 72 0,5 --- --- --- 0,5 05:10 10.04.2004
1006,9 17,4 46 5,2 73 0,7 --- --- --- 0,5 05:25 10.04.2004
1006,9 17,4 46 5,2 73 0,7 --- --- --- 0,5 05:40 10.04.2004
1006,8 17,3 46 5,1 73 0,6 --- --- --- 0,5 05:55 10.04.2004
1007,0 17,2 46 5,1 73 0,6 --- --- --- 0,5 06:10 10.04.2004
1006,9 17,2 46 4,9 73 0,4 --- --- --- 0,5 06:25 10.04.2004
1006,9 17,2 46 4,9 73 0,4 --- --- --- 0,5 06:40 10.04.2004
1006,9 17,1 46 4,9 73 0,4 --- --- --- 0,5 06:55 10.04.2004
1007,2 17,0 46 4,8 73 0,3 --- --- --- 0,5 07:10 10.04.2004
1007,2 17,0 46 4,8 73 0,3 --- --- --- 0,5 07:25 10.04.2004
1007,3 17,0 46 4,8 73 0,3 --- --- --- 0,5 07:40 10.04.2004
1007,4 17,0 46 4,8 73 0,3 --- --- --- 0,5 07:55 10.04.2004
1007,5 16,9 46 4,8 73 0,3 --- --- --- 0,5 08:10 10.04.2004
1007,5 17,4 47 4,5 73 0,0 --- --- --- 0,5 08:25 10.04.2004
1007,5 18,0 46 4,5 73 0,0 --- --- --- 0,5 08:40 10.04.2004
1007,6 18,7 46 4,5 73 0,0 --- --- --- 0,5 08:55 10.04.2004
1007,7 19,0 44 4,8 74 0,5 --- --- --- 0,5 09:10 10.04.2004
1007,7 18,8 37 5,3 74 1,0 --- --- --- 0,5 09:25 10.04.2004
1007,8 17,3 37 5,7 72 1,0 --- --- --- 0,5 09:40 10.04.2004
1007,8 16,4 38 6,1 71 1,2 --- --- --- 0,5 09:55 10.04.2004
1007,8 16,0 38 6,5 70 1,4 --- --- --- 0,5 10:10 10.04.2004
1008,1 15,9 39 7,1 69 1,8 --- --- --- 0,5 10:25 10.04.2004
1008,0 16,3 42 7,3 68 1,7 --- --- --- 0,5 10:40 10.04.2004
1008,1 16,7 43 7,8 67 2,0 --- --- --- 0,5 10:55 10.04.2004
1008,2 16,9 44 8,2 65 2,0 --- --- --- 0,5 11:10 10.04.2004
1008,1 17,1 43 8,8 64 2,3 --- --- --- 0,5 11:25 10.04.2004
1008,1 17,2 43 9,4 62 2,4 --- --- --- 0,5 11:40 10.04.2004
1008,1 17,2 43 10,0 61 2,8 --- --- --- 0,5 11:55 10.04.2004
1008,1 17,3 43 10,4 59 2,7 --- --- --- 0,5 12:10 10.04.2004
1008,1 17,5 43 11,8 59 4,0 --- --- --- 0,5 12:25 10.04.2004
1008,0 18,2 42 18,1 42 5,0 --- --- --- 0,5 12:40 10.04.2004
1007,8 18,8 41 20,5 32 3,2 --- --- --- 0,5 12:55 10.04.2004
1007,8 19,2 39 22,2 30 3,8 --- --- --- 0,5 13:10 10.04.2004
1007,7 19,5 38 20,8 28 1,6 --- --- --- 0,5 13:25 10.04.2004
1007,4 19,8 37 19,2 29 0,7 --- --- --- 0,5 13:40 10.04.2004
1007,2 19,9 37 18,3 32 1,3 --- --- --- 0,5 13:55 10.04.2004
1007,3 20,0 36 17,3 34 1,3 --- --- --- 0,5 14:10 10.04.2004
1007,2 19,9 37 17,3 36 2,1 --- --- --- 0,5 14:25 10.04.2004
1007,3 19,8 37 17,3 36 2,1 --- --- --- 0,5 14:40 10.04.2004
1007,4 19,6 37 18,7 35 2,9 --- --- --- 0,5 14:55 10.04.2004
1007,4 19,4 37 18,8 33 2,2 --- --- --- 0,5 15:10 10.04.2004
1007,4 19,4 37 19,9 31 2,2 --- --- --- 0,5 15:25 10.04.2004
1007,2 19,9 36 18,7 32 1,6 --- --- --- 0,5 15:40 10.04.2004
1007,2 20,6 35 19,8 31 2,2 --- --- --- 0,5 15:55 10.04.2004
1007,1 20,9 35 21,4 30 3,1 --- --- --- 0,5 16:10 10.04.2004
1007,2 21,1 33 19,5 28 0,5 --- --- --- 0,5 16:25 10.04.2004
1007,1 21,1 33 16,4 31 -0,7 --- --- --- 0,5 16:40 10.04.2004
1007,1 21,0 33 14,6 36 -0,2 --- --- --- 0,5 16:55 10.04.2004
1007,0 21,1 32 13,9 39 0,1 --- --- --- 0,5 17:10 10.04.2004
1007,1 21,2 32 13,5 40 0,1 --- --- --- 0,5 17:25 10.04.2004
1007,0 21,2 31 13,5 43 1,1 --- --- --- 0,5 17:40 10.04.2004
1007,1 21,1 32 13,4 44 1,4 --- --- --- 0,5 17:55 10.04.2004
1007,2 21,1 32 13,1 44 1,1 --- --- --- 0,5 18:10 10.04.2004
1007,2 21,2 32 12,5 46 1,2 --- --- --- 0,5 18:25 10.04.2004
1007,3 21,1 32 12,3 48 1,6 --- --- --- 0,5 18:40 10.04.2004
1007,3 21,1 34 12,2 49 1,8 --- --- --- 0,5 18:55 10.04.2004
1007,3 21,1 35 11,9 49 1,5 --- --- --- 0,5 19:10 10.04.2004
1007,4 21,1 35 11,7 50 1,6 --- --- --- 0,5 19:25 10.04.2004
1007,6 20,2 36 11,5 52 1,9 --- --- --- 0,5 19:40 10.04.2004
1007,8 19,6 37 11,5 55 2,7 --- --- --- 0,5 19:55 10.04.2004
1007,8 19,3 38 11,3 58 3,3 --- --- --- 0,5 20:10 10.04.2004
1008,0 18,9 39 11,1 59 3,4 --- --- --- 0,5 20:25 10.04.2004
1008,0 18,9 40 11,1 62 4,1 --- --- --- 0,5 20:40 10.04.2004
1008,0 18,8 40 10,8 65 4,4 --- --- --- 0,5 20:55 10.04.2004
1008,1 19,2 41 10,6 68 4,9 --- --- --- 0,5 21:10 10.04.2004
1008,3 19,9 42 10,5 69 5,0 --- --- --- 0,5 21:25 10.04.2004
1008,4 20,0 40 10,4 70 5,1 --- --- --- 0,5 21:40 10.04.2004
1008,6 19,5 40 10,4 72 5,5 --- --- --- 0,5 21:55 10.04.2004
1008,5 19,2 41 10,4 72 5,5 --- --- --- 0,5 22:10 10.04.2004
1008,8 19,1 41 10,4 75 6,1 --- --- --- 0,5 22:25 10.04.2004
1008,8 18,9 42 10,4 75 6,1 --- --- --- 0,5 22:40 10.04.2004
1009,0 18,9 43 10,2 76 6,1 --- --- --- 0,5 22:55 10.04.2004
1009,0 18,8 44 10,0 76 5,9 --- --- --- 0,5 23:10 10.04.2004
1009,0 18,8 44 9,6 76 5,5 --- --- --- 0,5 23:25 10.04.2004
1009,0 18,7 44 9,5 76 5,4 --- --- --- 0,5 23:40 10.04.2004
1009,2 18,6 44 9,5 75 5,3 --- --- --- 0,5 23:55 10.04.2004
1009,3 18,5 44 9,4 76 5,3 --- --- --- 0,5 00:10 11.04.2004
1009,5 18,5 45 9,1 75 4,9 --- --- --- 0,5 00:25 11.04.2004
1009,7 18,5 45 8,8 74 4,4 --- --- --- 0,5 00:40 11.04.2004
1010,1 18,4 45 8,6 73 4,0 --- --- --- 0,5 00:55 11.04.2004
1010,2 18,4 45 8,4 73 3,8 --- --- --- 0,5 01:10 11.04.2004
1010,2 18,4 45 8,1 72 3,3 --- --- --- 0,5 01:25 11.04.2004
1010,3 18,4 46 8,0 72 3,2 --- --- --- 0,5 01:40 11.04.2004
1010,3 18,4 46 7,8 71 2,8 --- --- --- 0,5 01:55 11.04.2004
1010,3 18,3 46 7,5 71 2,5 --- --- --- 0,5 02:10 11.04.2004
1010,3 18,4 46 7,4 69 2,0 --- --- --- 0,5 02:25 11.04.2004
1010,4 18,3 46 7,2 67 1,4 --- --- --- 0,5 02:40 11.04.2004
1010,4 18,3 45 7,0 65 0,8 --- --- --- 0,5 02:55 11.04.2004
1010,4 18,2 46 6,9 65 0,7 --- --- --- 0,5 03:10 11.04.2004
1010,2 18,2 45 6,7 63 0,1 --- --- --- 0,5 03:25 11.04.2004
1010,2 18,2 45 6,5 63 0,0 --- --- --- 0,5 03:40 11.04.2004
1010,1 18,1 45 6,5 62 -0,2 --- --- --- 0,5 03:55 11.04.2004
1010,1 18,0 44 6,4 63 -0,1 --- --- --- 0,5 04:10 11.04.2004
1010,2 17,9 44 6,3 63 -0,2 --- --- --- 0,5 04:25 11.04.2004
1010,3 17,9 44 6,3 63 -0,2 --- --- --- 0,5 04:40 11.04.2004
1010,3 17,9 44 6,2 64 0,0 --- --- --- 0,5 04:55 11.04.2004
1010,3 17,8 45 6,2 65 0,1 --- --- --- 0,5 05:10 11.04.2004
1010,3 17,8 45 6,1 66 0,2 --- --- --- 0,5 05:25 11.04.2004
1010,4 17,8 44 6,1 66 0,2 --- --- --- 0,5 05:40 11.04.2004
1010,6 17,7 44 5,9 67 0,2 --- --- --- 0,5 05:55 11.04.2004
1010,7 17,6 44 5,8 67 0,1 --- --- --- 0,5 06:10 11.04.2004
1010,6 17,6 44 5,8 67 0,1 --- --- --- 0,5 06:25 11.04.2004
1010,6 17,5 44 5,7 68 0,2 --- --- --- 0,5 06:40 11.04.2004
1010,7 17,4 44 5,5 69 0,2 --- --- --- 0,5 06:55 11.04.2004
1010,7 17,4 44 5,5 69 0,2 --- --- --- 0,5 07:10 11.04.2004
1010,9 17,3 44 5,6 69 0,3 --- --- --- 0,5 07:25 11.04.2004
1011,0 17,3 44 5,6 69 0,3 --- --- --- 0,5 07:40 11.04.2004
1011,1 17,3 44 5,7 69 0,4 --- --- --- 0,5 07:55 11.04.2004
1011,3 17,2 44 5,7 69 0,4 --- --- --- 0,5 08:10 11.04.2004
1011,5 17,6 45 5,8 68 0,3 --- --- --- 0,5 08:25 11.04.2004
1011,4 18,4 45 6,1 67 0,4 --- --- --- 0,5 08:40 11.04.2004
1011,6 18,9 44 6,2 66 0,3 --- --- --- 0,5 08:55 11.04.2004
1011,8 19,3 41 6,5 64 0,1 --- --- --- 0,5 09:10 11.04.2004
1011,8 19,5 41 6,3 64 0,0 --- --- --- 0,5 09:25 11.04.2004
1011,8 19,7 40 6,4 63 -0,1 --- --- --- 0,5 09:40 11.04.2004
1011,9 19,8 40 7,1 62 0,3 --- --- --- 0,5 09:55 11.04.2004
1012,0 20,0 40 7,8 59 0,2 --- --- --- 0,5 10:10 11.04.2004
1012,1 20,1 39 8,5 57 0,4 --- --- --- 0,5 10:25 11.04.2004
1012,1 20,2 39 8,9 56 0,6 --- --- --- 0,5 10:40 11.04.2004
1012,2 20,3 39 9,1 55 0,5 --- --- --- 0,5 10:55 11.04.2004
1012,5 20,4 38 9,2 54 0,3 --- --- --- 0,5 11:10 11.04.2004
1012,4 20,5 38 9,9 51 0,2 --- --- --- 0,5 11:25 11.04.2004
1012,5 20,5 38 10,2 50 0,2 --- --- --- 0,5 11:40 11.04.2004
1012,5 20,6 38 10,5 50 0,5 --- --- --- 0,5 11:55 11.04.2004
1012,7 20,7 37 10,7 49 0,4 --- --- --- 0,5 12:10 11.04.2004
1012,5 20,7 37 11,2 49 0,8 --- --- --- 0,5 12:25 11.04.2004
1012,3 20,7 37 15,7 41 2,5 --- --- --- 0,5 12:40 11.04.2004
1012,6 20,8 37 20,5 30 2,3 --- --- --- 0,5 12:55 11.04.2004
1012,3 20,7 37 22,2 25 1,2 --- --- --- 0,5 13:10 11.04.2004
1012,4 20,8 37 23,1 21 -0,3 --- --- --- 0,5 13:25 11.04.2004
1012,2 20,9 38 23,2 19 -1,6 --- --- --- 0,5 13:40 11.04.2004
1012,3 21,1 37 21,8 19 -2,8 --- --- --- 0,5 13:55 11.04.2004
1012,4 21,2 37 21,2 23 -0,7 --- --- --- 0,5 14:10 11.04.2004
1012,3 21,3 38 20,8 24 -0,4 --- --- --- 0,5 14:25 11.04.2004
1012,3 21,4 38 21,1 25 0,3 --- --- --- 0,5 14:40 11.04.2004
1012,2 21,5 37 22,5 23 0,3 --- --- --- 0,5 14:55 11.04.2004
1012,2 21,7 36 22,8 19 -2,0 --- --- --- 0,5 15:10 11.04.2004
1012,3 21,8 38 22,9 19 -1,9 --- --- --- 0,5 15:25 11.04.2004
1012,1 22,0 37 22,5 19 -2,2 --- --- --- 0,5 15:40 11.04.2004
1012,2 22,1 36 23,6 21 0,0 --- --- --- 0,5 15:55 11.04.2004
1012,2 22,1 36 22,8 19 -2,0 --- --- --- 0,5 16:10 11.04.2004
1012,1 22,2 36 21,9 19 -2,7 --- --- --- 0,5 16:25 11.04.2004
1012,1 22,3 36 23,1 21 -0,3 --- --- --- 0,5 16:40 11.04.2004
1012,1 22,3 36 24,4 19 -0,6 --- --- --- 0,5 16:55 11.04.2004
1012,0 22,4 36 22,4 19 -2,3 --- --- --- 0,5 17:10 11.04.2004
1011,9 22,5 36 22,0 19 -2,6 --- --- --- 0,5 17:25 11.04.2004
1012,0 22,6 35 21,9 19 -2,7 --- --- --- 0,5 17:40 11.04.2004
1012,0 22,7 36 22,2 21 -1,1 --- --- --- 0,5 17:55 11.04.2004
1012,1 22,8 36 20,7 19 -3,7 --- --- --- 0,5 18:10 11.04.2004
1012,1 22,8 30 19,7 24 -1,4 --- --- --- 0,5 18:25 11.04.2004
1012,1 22,7 28 18,4 27 -0,9 --- --- --- 0,5 18:40 11.04.2004
1012,2 22,5 25 16,8 28 -1,7 --- --- --- 0,5 18:55 11.04.2004
1012,4 22,3 25 16,5 30 -1,1 --- --- --- 0,5 19:10 11.04.2004
1012,4 22,0 25 15,8 30 -1,7 --- --- --- 0,5 19:25 11.04.2004
1012,3 22,0 31 15,8 31 -1,2 --- --- --- 0,5 19:40 11.04.2004
1012,4 22,2 34 14,4 33 -1,6 --- --- --- 0,5 19:55 11.04.2004
1012,5 22,3 34 13,0 35 -2,0 --- --- --- 0,5 20:10 11.04.2004
1012,7 22,4 35 12,1 38 -1,7 --- --- --- 0,5 20:25 11.04.2004
1012,8 22,5 35 11,4 40 -1,7 --- --- --- 0,5 20:40 11.04.2004
1012,9 22,5 35 10,9 41 -1,8 --- --- --- 0,5 20:55 11.04.2004
1013,0 22,5 35 10,5 42 -1,8 --- --- --- 0,5 21:10 11.04.2004
1013,1 22,5 36 10,3 44 -1,4 --- --- --- 0,5 21:25 11.04.2004
1013,4 22,4 36 10,1 45 -1,2 --- --- --- 0,5 21:40 11.04.2004
1013,6 21,7 37 9,7 46 -1,3 --- --- --- 0,5 21:55 11.04.2004
1013,6 22,0 36 9,4 47 -1,3 --- --- --- 0,5 22:10 11.04.2004
1013,8 21,4 36 9,2 48 -1,2 --- --- --- 0,5 22:25 11.04.2004
1013,9 20,7 37 9,0 49 -1,1 --- --- --- 0,5 22:40 11.04.2004
1014,0 20,2 37 8,8 49 -1,3 --- --- --- 0,5 22:55 11.04.2004
1013,9 20,0 38 8,5 50 -1,3 --- --- --- 0,5 23:10 11.04.2004
1013,9 19,9 38 8,3 52 -0,9 --- --- --- 0,5 23:25 11.04.2004
1013,9 19,9 39 8,1 52 -1,1 --- --- --- 0,5 23:40 11.04.2004
1013,9 19,8 39 7,9 53 -1,0 --- --- --- 0,5 23:55 11.04.2004
1014,0 19,6 39 7,5 53 -1,4 --- --- --- 0,5 00:10 12.04.2004
1013,9 19,5 40 7,3 54 -1,3 --- --- --- 0,5 00:25 12.04.2004
1014,1 19,4 40 7,1 56 -1,0 --- --- --- 0,5 00:40 12.04.2004
1014,1 19,4 40 7,1 56 -1,0 --- --- --- 0,5 00:55 12.04.2004
1014,2 19,8 40 7,0 57 -0,9 --- --- --- 0,5 01:10 12.04.2004
1014,1 19,5 39 6,7 58 -0,9 --- --- --- 0,5 01:25 12.04.2004
1014,1 19,2 39 6,7 58 -0,9 --- --- --- 0,5 01:40 12.04.2004
1014,0 19,0 39 6,4 59 -1,0 --- --- --- 0,5 01:55 12.04.2004
1014,1 18,9 40 6,1 60 -1,0 --- --- --- 0,5 02:10 12.04.2004
1014,1 18,8 40 5,5 60 -1,6 --- --- --- 0,5 02:25 12.04.2004
1014,0 18,7 40 5,1 62 -1,5 --- --- --- 0,5 02:40 12.04.2004
1014,0 18,6 40 4,7 63 -1,7 --- --- --- 0,5 02:55 12.04.2004
1014,1 18,6 40 4,3 64 -1,9 --- --- --- 0,5 03:10 12.04.2004
1014,0 18,5 40 4,0 65 -1,9 --- --- --- 0,5 03:25 12.04.2004
1014,1 18,5 40 3,7 66 -2,0 --- --- --- 0,5 03:40 12.04.2004
1014,0 18,4 41 3,5 67 -2,0 --- --- --- 0,5 03:55 12.04.2004
1014,0 18,4 41 3,5 67 -2,0 --- --- --- 0,5 04:10 12.04.2004
1014,0 18,2 41 3,4 69 -1,7 --- --- --- 0,5 04:25 12.04.2004
1014,1 18,2 41 3,4 70 -1,5 --- --- --- 0,5 04:40 12.04.2004
1014,2 18,1 41 3,2 70 -1,7 --- --- --- 0,5 04:55 12.04.2004
1014,1 18,0 41 3,1 70 -1,8 --- --- --- 0,5 05:10 12.04.2004
1014,2 17,9 42 2,8 70 -2,1 --- --- --- 0,5 05:25 12.04.2004
1014,2 17,9 42 2,6 70 -2,3 --- --- --- 0,5 05:40 12.04.2004
1014,2 17,9 42 2,4 71 -2,3 --- --- --- 0,5 05:55 12.04.2004
1014,2 17,8 42 2,3 71 -2,4 --- --- --- 0,5 06:10 12.04.2004
1014,2 17,8 42 2,1 72 -2,4 --- --- --- 0,5 06:25 12.04.2004
1014,3 17,8 42 2,1 72 -2,4 --- --- --- 0,5 06:40 12.04.2004
1014,4 17,7 42 1,8 72 -2,7 --- --- --- 0,5 06:55 12.04.2004
1014,4 17,6 42 1,7 73 -2,6 --- --- --- 0,5 07:10 12.04.2004
1014,5 17,5 41 1,7 73 -2,6 --- --- --- 0,5 07:25 12.04.2004
1014,5 17,4 41 1,7 74 -2,4 --- --- --- 0,5 07:40 12.04.2004
1014,8 17,4 41 1,7 75 -2,2 --- --- --- 0,5 07:55 12.04.2004
1014,8 17,3 41 2,0 75 -1,9 --- --- --- 0,5 08:10 12.04.2004
1015,0 17,2 41 2,4 76 -1,3 --- --- --- 0,5 08:25 12.04.2004
1015,2 17,2 42 3,1 77 -0,5 --- --- --- 0,5 08:40 12.04.2004
1015,2 17,2 42 3,7 76 -0,1 --- --- --- 0,5 08:55 12.04.2004
1015,4 17,5 43 4,3 75 0,2 --- --- --- 0,5 09:10 12.04.2004
1015,2 18,2 42 4,8 74 0,5 --- --- --- 0,5 09:25 12.04.2004
1015,3 18,8 42 5,2 72 0,5 --- --- --- 0,5 09:40 12.04.2004
1015,5 19,2 40 5,7 70 0,6 --- --- --- 0,5 09:55 12.04.2004
1015,4 19,3 40 6,2 69 0,9 --- --- --- 0,5 10:10 12.04.2004
1015,4 19,6 41 6,8 66 0,9 --- --- --- 0,5 10:25 12.04.2004
1015,4 19,8 41 7,3 65 1,1 --- --- --- 0,5 10:40 12.04.2004
1015,5 19,9 41 7,8 64 1,4 --- --- --- 0,5 10:55 12.04.2004
1015,4 20,0 41 8,4 63 1,7 --- --- --- 0,5 11:10 12.04.2004
1015,3 20,2 40 9,2 61 2,0 --- --- --- 0,5 11:25 12.04.2004
1015,3 20,4 41 10,0 59 2,3 --- --- --- 0,5 11:40 12.04.2004
1015,2 20,5 41 10,5 57 2,3 --- --- --- 0,5 11:55 12.04.2004
1015,3 20,6 42 10,9 56 2,4 --- --- --- 0,5 12:10 12.04.2004
1015,2 20,7 41 12,1 54 3,0 --- --- --- 0,5 12:25 12.04.2004
1015,3 20,8 40 18,1 41 4,6 --- --- --- 0,5 12:40 12.04.2004
1015,1 20,8 40 21,5 31 3,6 --- --- --- 0,5 12:55 12.04.2004
1015,0 20,9 40 23,2 26 2,6 --- --- --- 0,5 13:10 12.04.2004
1014,8 21,0 40 22,5 23 0,3 --- --- --- 0,5 13:25 12.04.2004
1014,8 21,2 40 22,7 23 0,5 --- --- --- 0,5 13:40 12.04.2004
1014,5 21,2 40 22,3 22 -0,4 --- --- --- 0,5 13:55 12.04.2004
1014,5 21,4 40 21,7 23 -0,3 --- --- --- 0,5 14:10 12.04.2004
1014,5 21,4 39 21,4 24 0,0 --- --- --- 0,5 14:25 12.04.2004
1014,4 21,5 39 22,2 24 0,6 --- --- --- 0,5 14:40 12.04.2004
1014,4 21,7 39 22,4 23 0,2 --- --- --- 0,5 14:55 12.04.2004
1014,3 20,9 40 22,7 23 0,5 --- --- --- 0,5 15:10 12.04.2004
1014,2 20,4 40 25,7 19 0,3 --- --- --- 0,5 15:25 12.04.2004
1014,0 20,7 40 25,2 19 0,0 --- --- --- 0,5 15:40 12.04.2004
1013,7 21,2 39 25,1 19 -0,1 --- --- --- 0,5 15:55 12.04.2004
1013,6 21,5 39 25,5 19 0,2 --- --- --- 0,5 16:10 12.04.2004
1013,6 21,6 39 27,6 19 1,9 --- --- --- 0,5 16:25 12.04.2004
1013,4 21,8 38 28,4 19 2,5 --- --- --- 0,5 16:40 12.04.2004
1013,1 21,9 37 27,7 19 2,0 --- --- --- 0,5 16:55 12.04.2004
1013,0 22,1 36 27,5 19 1,8 --- --- --- 0,5 17:10 12.04.2004
1013,1 22,2 36 27,2 19 1,6 --- --- --- 0,5 17:25 12.04.2004
1013,1 22,2 36 26,8 19 1,2 --- --- --- 0,5 17:40 12.04.2004
1013,2 22,3 35 26,1 19 0,7 --- --- --- 0,5 17:55 12.04.2004
1012,9 22,4 35 25,4 19 0,1 --- --- --- 0,5 18:10 12.04.2004
1012,8 22,5 36 24,7 19 -0,4 --- --- --- 0,5 18:25 12.04.2004
1013,0 22,5 35 23,5 19 -1,4 --- --- --- 0,5 18:40 12.04.2004
1013,1 22,5 34 22,4 19 -2,3 --- --- --- 0,5 18:55 12.04.2004
1013,1 21,6 35 21,5 19 -3,0 --- --- --- 0,5 19:10 12.04.2004
1013,2 20,9 36 20,5 19 -3,8 --- --- --- 0,5 19:25 12.04.2004
1013,3 20,5 37 19,2 21 -3,6 --- --- --- 0,5 19:40 12.04.2004
1013,4 20,3 39 17,5 23 -3,8 --- --- --- 0,5 19:55 12.04.2004
1013,3 20,2 39 15,6 27 -3,3 --- --- --- 0,5 20:10 12.04.2004
1013,5 20,1 38 14,4 31 -2,5 --- --- --- 0,5 20:25 12.04.2004
1013,4 20,0 38 13,5 33 -2,4 --- --- --- 0,5 20:40 12.04.2004
1013,6 19,7 36 13,1 34 -2,3 --- --- --- 0,5 20:55 12.04.2004
1013,7 19,4 33 12,7 35 -2,3 --- --- --- 0,5 21:10 12.04.2004
1013,9 19,6 30 12,2 37 -2,0 --- --- --- 0,5 21:25 12.04.2004
1014,0 19,8 30 11,8 38 -2,0 --- --- --- 0,5 21:40 12.04.2004
1014,1 19,2 31 11,2 41 -1,5 --- --- --- 0,5 21:55 12.04.2004
1014,2 19,0 33 10,5 42 -1,8 --- --- --- 0,5 22:10 12.04.2004
1014,3 19,0 35 9,8 45 -1,5 --- --- --- 0,5 22:25 12.04.2004
1014,2 18,9 37 9,2 47 -1,5 --- --- --- 0,5 22:40 12.04.2004
1014,2 18,9 38 8,7 49 -1,4 --- --- --- 0,5 22:55 12.04.2004
1014,2 18,9 39 8,3 51 -1,2 --- --- --- 0,5 23:10 12.04.2004
1014,3 18,9 39 7,8 53 -1,1 --- --- --- 0,5 23:25 12.04.2004
1014,4 18,9 39 7,5 54 -1,1 --- --- --- 0,5 23:40 12.04.2004
1014,6 18,8 39 7,2 56 -0,9 --- --- --- 0,5 23:55 12.04.2004
1014,7 18,8 39 7,1 58 -0,5 --- --- --- 0,5 00:10 13.04.2004
1014,6 18,7 40 6,9 59 -0,5 --- --- --- 0,5 00:25 13.04.2004
1014,6 18,7 40 6,9 60 -0,3 --- --- --- 0,5 00:40 13.04.2004
1014,5 18,7 40 6,8 60 -0,4 --- --- --- 0,5 00:55 13.04.2004
1014,5 18,7 40 6,5 61 -0,4 --- --- --- 0,5 01:10 13.04.2004
1014,4 18,7 41 6,2 63 -0,3 --- --- --- 0,5 01:25 13.04.2004
1014,4 18,7 41 6,0 64 -0,2 --- --- --- 0,5 01:40 13.04.2004
1014,4 18,7 41 5,7 65 -0,3 --- --- --- 0,5 01:55 13.04.2004
1014,3 18,7 41 5,5 65 -0,5 --- --- --- 0,5 02:10 13.04.2004
1014,5 18,7 41 5,4 68 0,0 --- --- --- 0,5 02:25 13.04.2004
1014,4 18,6 41 5,3 69 0,0 --- --- --- 0,5 02:40 13.04.2004
1014,3 18,6 41 5,1 69 -0,1 --- --- --- 0,5 02:55 13.04.2004
1014,2 18,5 41 4,8 70 -0,2 --- --- --- 0,5 03:10 13.04.2004
1014,2 18,5 41 4,7 71 -0,1 --- --- --- 0,5 03:25 13.04.2004
1014,1 18,4 41 4,5 72 -0,1 --- --- --- 0,5 03:40 13.04.2004
1014,2 18,3 41 4,3 72 -0,2 --- --- --- 0,5 03:55 13.04.2004
1014,1 18,3 42 4,2 73 -0,2 --- --- --- 0,5 04:10 13.04.2004
1014,2 18,3 42 4,2 74 0,0 --- --- --- 0,5 04:25 13.04.2004
1014,2 18,2 41 4,1 75 0,0 --- --- --- 0,5 04:40 13.04.2004
1014,1 18,1 41 4,1 75 0,0 --- --- --- 0,5 04:55 13.04.2004
1014,0 18,1 42 3,8 76 0,0 --- --- --- 0,5 05:10 13.04.2004
1014,0 18,0 41 3,8 76 0,0 --- --- --- 0,5 05:25 13.04.2004
1014,0 17,9 42 3,7 76 -0,1 --- --- --- 0,5 05:40 13.04.2004
1013,9 17,9 42 3,5 76 -0,3 --- --- --- 0,5 05:55 13.04.2004
1014,0 17,9 42 3,5 76 -0,3 --- --- --- 0,5 06:10 13.04.2004
1013,9 17,8 42 3,2 76 -0,6 --- --- --- 0,5 06:25 13.04.2004
1013,8 17,7 41 3,2 77 -0,4 --- --- --- 0,5 06:40 13.04.2004
1014,0 17,6 42 3,3 78 -0,1 --- --- --- 0,5 06:55 13.04.2004
1014,0 17,5 41 3,5 78 0,0 --- --- --- 0,5 07:10 13.04.2004
1014,0 17,4 42 3,8 78 0,3 --- --- --- 0,5 07:25 13.04.2004
1014,1 17,4 43 4,1 78 0,6 --- --- --- 0,5 07:40 13.04.2004
1014,1 17,3 43 4,4 79 1,0 --- --- --- 0,5 07:55 13.04.2004
1014,1 17,2 43 5,1 80 1,9 --- --- --- 0,5 08:10 13.04.2004
1014,2 17,2 43 5,9 80 2,7 --- --- --- 0,5 08:25 13.04.2004
1014,2 17,1 43 6,7 78 3,1 --- --- --- 0,5 08:40 13.04.2004
1014,2 17,0 43 7,4 77 3,6 --- --- --- 0,5 08:55 13.04.2004
1014,1 17,0 43 7,8 75 3,6 --- --- --- 0,5 09:10 13.04.2004
1014,3 17,0 43 8,1 74 3,7 --- --- --- 0,5 09:25 13.04.2004
1014,3 17,0 43 8,4 73 3,8 --- --- --- 0,5 09:40 13.04.2004
1014,2 17,4 44 8,8 72 4,0 --- --- --- 0,5 09:55 13.04.2004
1014,2 18,1 44 8,9 71 3,9 --- --- --- 0,5 10:10 13.04.2004
1014,0 18,6 43 9,4 70 4,2 --- --- --- 0,5 10:25 13.04.2004
1014,0 19,0 43 9,8 69 4,3 --- --- --- 0,5 10:40 13.04.2004
1014,2 19,2 41 10,6 66 4,5 --- --- --- 0,5 10:55 13.04.2004
1014,1 19,5 41 11,4 65 5,0 --- --- --- 0,5 11:10 13.04.2004
1013,9 19,6 41 12,2 62 5,1 --- --- --- 0,5 11:25 13.04.2004
1014,0 19,7 40 12,8 59 5,0 --- --- --- 0,5 11:40 13.04.2004
1013,9 19,9 40 13,5 56 4,9 --- --- --- 0,5 11:55 13.04.2004
1013,9 19,9 40 14,0 55 5,1 --- --- --- 0,5 12:10 13.04.2004
1013,9 20,0 40 14,2 53 4,7 --- --- --- 0,5 12:25 13.04.2004
1013,9 20,0 40 14,5 51 4,5 --- --- --- 0,5 12:40 13.04.2004
1013,8 20,0 40 15,1 50 4,7 --- --- --- 0,5 12:55 13.04.2004
1013,6 19,9 40 14,5 50 4,2 --- --- --- 0,5 13:10 13.04.2004
1013,4 19,3 40 14,3 51 4,3 --- --- --- 0,5 13:25 13.04.2004
1013,5 19,1 40 14,1 51 4,1 --- --- --- 0,5 13:40 13.04.2004
1013,5 19,1 40 13,7 51 3,7 --- --- --- 0,5 13:55 13.04.2004
1013,4 19,7 40 13,5 52 3,8 --- --- --- 0,5 14:10 13.04.2004
1013,4 20,0 40 14,8 51 4,7 --- --- --- 0,5 14:25 13.04.2004
1013,2 20,3 40 14,8 49 4,2 --- --- --- 0,5 14:40 13.04.2004
1013,2 20,4 40 14,2 51 4,2 --- --- --- 0,5 14:55 13.04.2004
1012,9 20,5 40 13,8 52 4,1 --- --- --- 0,5 15:10 13.04.2004
1013,0 20,7 40 14,1 52 4,4 --- --- --- 0,5 15:25 13.04.2004
1013,0 20,7 40 15,1 51 5,0 --- --- --- 0,5 15:40 13.04.2004
1012,9 20,8 40 15,3 51 5,2 --- --- --- 0,5 15:55 13.04.2004
1012,9 20,8 40 14,4 51 4,4 --- --- --- 0,5 16:10 13.04.2004
1012,9 20,7 39 13,5 53 4,1 --- --- --- 0,5 16:25 13.04.2004
1012,9 20,7 40 12,8 56 4,2 --- --- --- 0,5 16:40 13.04.2004
1012,9 20,8 40 12,4 59 4,6 --- --- --- 0,5 16:55 13.04.2004
1013,0 20,8 40 12,2 60 4,6 --- --- --- 0,5 17:10 13.04.2004
1012,9 20,7 39 12,4 61 5,1 --- --- --- 0,5 17:25 13.04.2004
1012,9 20,7 39 12,4 60 4,8 --- --- --- 0,5 17:40 13.04.2004
1012,8 20,8 40 12,4 60 4,8 --- --- --- 0,5 17:55 13.04.2004
1013,0 19,7 39 12,4 60 4,8 --- --- --- 0,5 18:10 13.04.2004
1012,8 19,6 39 12,4 60 4,8 --- --- --- 0,5 18:25 13.04.2004
1013,1 19,9 39 12,6 60 5,0 --- --- --- 0,5 18:40 13.04.2004
1013,0 19,9 39 12,5 59 4,7 --- --- --- 0,5 18:55 13.04.2004
1013,2 19,8 39 12,4 59 4,6 --- --- --- 0,5 19:10 13.04.2004
1013,3 19,9 38 12,2 60 4,6 --- --- --- 0,5 19:25 13.04.2004
1013,3 19,8 39 11,9 60 4,3 --- --- --- 0,5 19:40 13.04.2004
1013,1 19,9 39 11,8 61 4,5 --- --- --- 0,5 19:55 13.04.2004
1013,2 20,0 38 11,7 60 4,2 --- --- --- 0,5 20:10 13.04.2004
1013,3 20,0 38 11,6 60 4,1 --- --- --- 0,5 20:25 13.04.2004
1013,3 19,8 37 11,6 60 4,1 --- --- --- 0,5 20:40 13.04.2004
1013,3 19,8 39 11,5 60 4,0 --- --- --- 0,5 20:55 13.04.2004
1013,5 20,2 40 11,4 62 4,3 --- --- --- 0,5 21:10 13.04.2004
1013,6 20,6 41 11,3 62 4,2 --- --- --- 0,5 21:25 13.04.2004
1013,6 20,9 41 11,3 62 4,2 --- --- --- 0,5 21:40 13.04.2004
1013,8 21,2 40 11,3 63 4,5 --- --- --- 0,5 21:55 13.04.2004
1013,9 21,5 40 11,2 63 4,4 --- --- --- 0,5 22:10 13.04.2004
1013,9 21,7 39 11,2 63 4,4 --- --- --- 0,5 22:25 13.04.2004
1013,9 21,8 39 11,2 63 4,4 --- --- --- 0,5 22:40 13.04.2004
1013,8 21,9 39 11,2 63 4,4 --- --- --- 0,5 22:55 13.04.2004
1013,8 21,9 39 11,1 63 4,3 --- --- --- 0,5 23:10 13.04.2004
1013,9 21,7 39 11,2 63 4,4 --- --- --- 0,5 23:25 13.04.2004
1013,8 22,0 38 11,1 63 4,3 --- --- --- 0,5 23:40 13.04.2004
1013,8 22,0 37 11,1 63 4,3 --- --- --- 0,5 23:55 13.04.2004
1013,8 22,0 37 11,1 63 4,3 --- --- --- 0,5 00:10 14.04.2004
1013,8 22,0 37 11,0 64 4,4 --- --- --- 0,5 00:25 14.04.2004
1013,8 22,0 38 11,0 64 4,4 --- --- --- 0,5 00:40 14.04.2004
1013,7 21,9 38 10,9 64 4,3 --- --- --- 0,5 00:55 14.04.2004
1013,9 21,8 38 10,9 64 4,3 --- --- --- 0,5 01:10 14.04.2004
1013,8 21,8 38 10,8 65 4,4 --- --- --- 0,5 01:25 14.04.2004
1013,8 21,7 38 10,8 65 4,4 --- --- --- 0,5 01:40 14.04.2004
1013,6 20,5 39 10,7 65 4,4 --- --- --- 0,5 01:55 14.04.2004
1013,6 19,8 40 10,7 66 4,6 --- --- --- 0,5 02:10 14.04.2004
1013,5 19,3 40 10,5 66 4,4 --- --- --- 0,5 02:25 14.04.2004
1013,5 19,0 41 10,5 66 4,4 --- --- --- 0,5 02:40 14.04.2004
1013,4 18,8 42 10,5 66 4,4 --- --- --- 0,5 02:55 14.04.2004
1013,1 18,7 43 10,4 68 4,7 --- --- --- 0,5 03:10 14.04.2004
1013,0 18,5 43 10,2 68 4,5 --- --- --- 0,5 03:25 14.04.2004
1013,2 18,4 44 10,1 68 4,4 --- --- --- 0,5 03:40 14.04.2004
1013,1 18,2 44 9,7 69 4,3 --- --- --- 0,5 03:55 14.04.2004
1013,1 18,1 44 9,5 70 4,3 --- --- --- 0,5 04:10 14.04.2004
1013,1 18,0 44 9,3 71 4,3 --- --- --- 0,5 04:25 14.04.2004
1012,9 17,9 45 9,2 72 4,4 --- --- --- 0,5 04:40 14.04.2004
1013,0 17,8 45 9,1 72 4,3 --- --- --- 0,5 04:55 14.04.2004
1013,0 17,7 45 9,1 73 4,5 --- --- --- 0,5 05:10 14.04.2004
1012,9 17,8 45 9,1 73 4,5 --- --- --- 0,5 05:25 14.04.2004
1013,0 17,9 46 9,1 73 4,5 --- --- --- 0,5 05:40 14.04.2004
1012,9 18,0 46 9,1 74 4,7 --- --- --- 0,5 05:55 14.04.2004
1012,8 18,0 46 8,8 74 4,4 --- --- --- 0,5 06:10 14.04.2004
1012,8 18,1 46 8,4 75 4,2 --- --- --- 0,5 06:25 14.04.2004
1012,9 18,1 46 8,2 75 4,0 --- --- --- 0,5 06:40 14.04.2004
1012,9 18,0 46 8,1 75 3,9 --- --- --- 0,5 06:55 14.04.2004
1012,9 18,1 46 8,1 76 4,1 --- --- --- 0,5 07:10 14.04.2004
1012,9 18,0 46 8,1 77 4,3 --- --- --- 0,5 07:25 14.04.2004
1013,1 18,0 47 8,1 77 4,3 --- --- --- 0,5 07:40 14.04.2004
1013,0 18,4 47 8,4 78 4,7 --- --- --- 0,5 07:55 14.04.2004
1012,9 18,9 47 8,8 77 5,0 --- --- --- 0,5 08:10 14.04.2004
1012,9 19,4 45 9,3 77 5,4 --- --- --- 0,5 08:25 14.04.2004
1012,9 19,5 45 9,8 76 5,7 --- --- --- 0,5 08:40 14.04.2004
1013,1 19,8 45 10,2 76 6,1 --- --- --- 0,5 08:55 14.04.2004
1012,9 20,0 45 10,5 74 6,0 --- --- --- 0,5 09:10 14.04.2004
1012,8 20,3 46 10,7 73 6,0 --- --- --- 0,5 09:25 14.04.2004
1012,8 20,2 46 11,1 73 6,4 --- --- --- 0,5 09:40 14.04.2004
1012,8 19,3 45 11,4 72 6,5 --- --- --- 0,5 09:55 14.04.2004
1012,8 18,8 46 11,7 70 6,4 --- --- --- 0,5 10:10 14.04.2004
1012,8 18,5 46 12,1 69 6,6 --- --- --- 0,5 10:25 14.04.2004
1012,8 18,4 47 12,5 68 6,7 --- --- --- 0,5 10:40 14.04.2004
1012,8 18,8 47 13,1 66 6,9 --- --- --- 0,5 10:55 14.04.2004
1012,6 19,4 46 13,8 64 7,1 --- --- --- 0,5 11:10 14.04.2004
1012,5 19,8 47 14,2 61 6,8 --- --- --- 0,5 11:25 14.04.2004
1012,3 20,4 48 14,6 59 6,6 --- --- --- 0,5 11:40 14.04.2004
1012,2 20,3 46 14,8 56 6,1 --- --- --- 0,5 11:55 14.04.2004
1012,1 20,2 46 14,8 53 5,3 --- --- --- 0,5 12:10 14.04.2004
1012,1 19,9 45 14,7 52 4,9 --- --- --- 0,5 12:25 14.04.2004
1012,2 19,8 45 15,0 49 4,3 --- --- --- 0,5 12:40 14.04.2004
1012,0 19,6 45 14,9 47 3,7 --- --- --- 0,5 12:55 14.04.2004
1011,8 19,6 45 14,7 46 3,2 --- --- --- 0,5 13:10 14.04.2004
1011,7 19,8 45 14,8 46 3,3 --- --- --- 0,5 13:25 14.04.2004
1011,5 20,2 45 15,1 45 3,2 --- --- --- 0,5 13:40 14.04.2004
1011,4 20,4 45 15,4 45 3,5 --- --- --- 0,5 13:55 14.04.2004
1011,3 20,5 45 16,7 43 4,0 --- --- --- 0,5 14:10 14.04.2004
1011,2 20,6 45 17,4 42 4,3 --- --- --- 0,5 14:25 14.04.2004
1011,2 21,0 44 16,7 40 3,0 --- --- --- 0,5 14:40 14.04.2004
1010,9 21,6 43 16,7 40 3,0 --- --- --- 0,5 14:55 14.04.2004
1010,9 21,8 43 16,8 39 2,7 --- --- --- 0,5 15:10 14.04.2004
1010,7 22,1 41 17,4 38 2,9 --- --- --- 0,5 15:25 14.04.2004
1010,5 22,3 41 17,3 38 2,8 --- --- --- 0,5 15:40 14.04.2004
1010,4 22,5 40 18,0 36 2,7 --- --- --- 0,5 15:55 14.04.2004
1010,2 22,2 39 18,2 36 2,9 --- --- --- 0,5 16:10 14.04.2004
1010,1 22,2 38 19,7 33 3,0 --- --- --- 0,5 16:25 14.04.2004
1009,9 22,3 38 21,0 30 2,7 --- --- --- 0,5 16:40 14.04.2004
1009,7 22,4 37 20,7 29 2,0 --- --- --- 0,5 16:55 14.04.2004
1009,6 22,1 37 19,4 32 2,3 --- --- --- 0,5 17:10 14.04.2004
1009,4 21,4 38 18,3 33 1,7 --- --- --- 0,5 17:25 14.04.2004
1009,3 21,4 39 17,5 33 1,0 --- --- --- 0,5 17:40 14.04.2004
1009,3 21,0 38 16,7 35 1,1 --- --- --- 0,5 17:55 14.04.2004
1009,1 21,6 39 16,7 36 1,5 --- --- --- 0,5 18:10 14.04.2004
1009,0 21,9 39 17,2 35 1,6 --- --- --- 0,5 18:25 14.04.2004
1009,1 22,1 37 16,4 36 1,3 --- --- --- 0,5 18:40 14.04.2004
1009,3 22,3 38 15,8 37 1,1 --- --- --- 0,5 18:55 14.04.2004
1009,2 22,3 37 15,3 38 1,0 --- --- --- 0,5 19:10 14.04.2004
1009,2 22,3 37 14,9 39 1,0 --- --- --- 0,5 19:25 14.04.2004
1009,2 22,3 36 14,7 40 1,2 --- --- --- 0,5 19:40 14.04.2004
1009,1 22,3 36 14,5 41 1,4 --- --- --- 0,5 19:55 14.04.2004
1009,1 22,3 36 14,3 41 1,2 --- --- --- 0,5 20:10 14.04.2004
1009,1 22,3 36 14,1 42 1,3 --- --- --- 0,5 20:25 14.04.2004
1009,2 22,3 36 13,8 42 1,1 --- --- --- 0,5 20:40 14.04.2004
1009,1 22,1 37 13,6 42 0,9 --- --- --- 0,5 20:55 14.04.2004
1009,2 21,2 38 13,4 44 1,4 --- --- --- 0,5 21:10 14.04.2004
1009,1 20,8 40 13,2 46 1,8 --- --- --- 0,5 21:25 14.04.2004
1009,2 21,4 39 12,8 47 1,7 --- --- --- 0,5 21:40 14.04.2004
1009,2 21,6 39 12,5 48 1,8 --- --- --- 0,5 21:55 14.04.2004
1009,3 20,9 40 12,4 49 1,9 --- --- --- 0,5 22:10 14.04.2004
1009,2 20,5 41 12,1 50 2,0 --- --- --- 0,5 22:25 14.04.2004
1009,4 20,3 41 11,6 51 1,8 --- --- --- 0,5 22:40 14.04.2004
1009,1 20,1 41 11,1 53 1,8 --- --- --- 0,5 22:55 14.04.2004
1009,1 20,0 41 10,5 54 1,5 --- --- --- 0,5 23:10 14.04.2004
1009,1 19,9 41 10,1 56 1,7 --- --- --- 0,5 23:25 14.04.2004
1009,2 19,8 41 9,5 56 1,1 --- --- --- 0,5 23:40 14.04.2004
1009,1 19,7 41 8,8 58 1,0 --- --- --- 0,5 23:55 14.04.2004
1009,1 19,6 41 8,4 60 1,0 --- --- --- 0,5 00:10 15.04.2004
1009,2 19,5 41 8,1 60 0,8 --- --- --- 0,5 00:25 15.04.2004
1009,2 19,4 42 7,6 61 0,5 --- --- --- 0,5 00:40 15.04.2004
1009,2 19,4 42 7,2 62 0,4 --- --- --- 0,5 00:55 15.04.2004
1009,1 19,2 42 6,8 63 0,2 --- --- --- 0,5 01:10 15.04.2004
1009,1 19,2 43 6,5 63 0,0 --- --- --- 0,5 01:25 15.04.2004
1009,1 19,1 43 6,3 65 0,2 --- --- --- 0,5 01:40 15.04.2004
1009,1 19,1 44 6,1 65 0,0 --- --- --- 0,5 01:55 15.04.2004
1009,0 19,1 44 5,8 66 0,0 --- --- --- 0,5 02:10 15.04.2004
1008,9 19,0 44 5,5 66 -0,3 --- --- --- 0,5 02:25 15.04.2004
1008,8 19,0 44 5,3 68 -0,1 --- --- --- 0,5 02:40 15.04.2004
1008,7 18,9 44 5,2 69 0,0 --- --- --- 0,5 02:55 15.04.2004
1008,6 18,8 44 5,1 69 -0,1 --- --- --- 0,5 03:10 15.04.2004
1008,5 18,8 44 4,9 70 -0,1 --- --- --- 0,5 03:25 15.04.2004
1008,3 18,7 44 4,7 70 -0,2 --- --- --- 0,5 03:40 15.04.2004
1008,5 18,6 44 4,5 70 -0,4 --- --- --- 0,5 03:55 15.04.2004
1008,4 18,5 44 4,4 71 -0,3 --- --- --- 0,5 04:10 15.04.2004
1008,3 18,4 44 4,3 71 -0,4 --- --- --- 0,5 04:25 15.04.2004
1008,2 18,3 44 4,2 72 -0,3 --- --- --- 0,5 04:40 15.04.2004
1008,3 18,2 44 4,1 72 -0,4 --- --- --- 0,5 04:55 15.04.2004
1008,2 18,2 44 3,8 73 -0,5 --- --- --- 0,5 05:10 15.04.2004
1008,3 18,1 44 3,8 73 -0,5 --- --- --- 0,5 05:25 15.04.2004
1008,3 18,0 44 3,8 74 -0,4 --- --- --- 0,5 05:40 15.04.2004
1008,2 18,0 44 3,7 74 -0,4 --- --- --- 0,5 05:55 15.04.2004
1008,3 18,0 44 3,6 74 -0,5 --- --- --- 0,5 06:10 15.04.2004
1008,4 18,0 44 3,5 74 -0,6 --- --- --- 0,5 06:25 15.04.2004
1008,4 17,9 44 3,3 75 -0,7 --- --- --- 0,5 06:40 15.04.2004
1008,4 17,9 44 3,2 75 -0,7 --- --- --- 0,5 06:55 15.04.2004
1008,4 17,9 44 3,2 76 -0,6 --- --- --- 0,5 07:10 15.04.2004
1008,3 18,5 44 3,2 76 -0,6 --- --- --- 0,5 07:25 15.04.2004
1008,4 19,1 42 3,2 76 -0,6 --- --- --- 0,5 07:40 15.04.2004
COUPURE
999,1 21,9 45 17,4 39 3,3 --- --- --- 0,5 21:10 16.04.2004
999,1 22,6 45 16,6 41 3,3 --- --- --- 0,5 21:25 16.04.2004
999,0 23,1 43 15,9 43 3,3 --- --- --- 0,5 21:40 16.04.2004
999,2 22,4 43 15,4 45 3,5 --- --- --- 0,5 21:55 16.04.2004
999,2 22,0 43 15,0 46 3,4 --- --- --- 0,5 22:10 16.04.2004
999,3 21,8 44 14,5 47 3,3 --- --- --- 0,5 22:25 16.04.2004
999,2 21,7 44 14,2 49 3,6 --- --- --- 0,5 22:40 16.04.2004
999,1 21,6 45 13,8 50 3,5 --- --- --- 0,5 22:55 16.04.2004
999,1 21,5 45 13,6 51 3,6 --- --- --- 0,5 23:10 16.04.2004
999,1 21,4 45 13,2 53 3,8 --- --- --- 0,5 23:25 16.04.2004
999,1 21,2 45 13,1 53 3,7 --- --- --- 0,5 23:40 16.04.2004
999,0 21,1 46 12,7 54 3,6 --- --- --- 0,5 23:55 16.04.2004
998,9 21,0 46 12,5 54 3,4 --- --- --- 0,5 00:10 17.04.2004
998,8 21,0 46 12,2 56 3,6 --- --- --- 0,5 00:25 17.04.2004
998,7 20,9 47 12,0 57 3,7 --- --- --- 0,5 00:40 17.04.2004
998,6 20,8 47 11,7 57 3,4 --- --- --- 0,5 00:55 17.04.2004
998,6 20,8 47 11,4 58 3,4 --- --- --- 0,5 01:10 17.04.2004
998,5 20,8 47 11,3 59 3,5 --- --- --- 0,5 01:25 17.04.2004
998,3 20,7 48 11,1 60 3,6 --- --- --- 0,5 01:40 17.04.2004
998,3 20,7 48 10,9 60 3,4 --- --- --- 0,5 01:55 17.04.2004
998,4 20,6 47 10,9 61 3,6 --- --- --- 0,5 02:10 17.04.2004
998,2 20,6 48 11,1 62 4,1 --- --- --- 0,5 02:25 17.04.2004
998,0 20,5 48 11,1 62 4,1 --- --- --- 0,5 02:40 17.04.2004
997,9 20,5 48 10,8 63 4,0 --- --- --- 0,5 02:55 17.04.2004
997,8 20,5 48 10,7 64 4,1 --- --- --- 0,5 03:10 17.04.2004
997,9 20,4 47 10,6 64 4,0 --- --- --- 0,5 03:25 17.04.2004
997,8 20,3 47 10,5 65 4,2 --- --- --- 0,5 03:40 17.04.2004
997,8 20,3 48 10,4 66 4,3 --- --- --- 0,5 03:55 17.04.2004
997,8 20,2 48 10,4 66 4,3 --- --- --- 0,5 04:10 17.04.2004
997,7 20,1 47 10,1 67 4,2 --- --- --- 0,5 04:25 17.04.2004
997,9 20,0 47 9,9 67 4,0 --- --- --- 0,5 04:40 17.04.2004
997,7 20,0 47 9,9 68 4,2 --- --- --- 0,5 04:55 17.04.2004
997,8 19,9 47 10,0 68 4,3 --- --- --- 0,5 05:10 17.04.2004
997,9 19,8 47 10,4 68 4,7 --- --- --- 0,5 05:25 17.04.2004
997,9 19,8 47 10,5 66 4,4 --- --- --- 0,5 05:40 17.04.2004
997,9 19,7 46 10,8 67 4,9 --- --- --- 0,5 05:55 17.04.2004
998,0 19,7 46 10,9 68 5,2 --- --- --- 0,5 06:10 17.04.2004
997,7 19,6 47 11,3 72 6,4 --- --- --- 0,5 06:25 17.04.2004
997,6 20,2 48 11,4 74 6,9 --- --- --- 0,5 06:40 17.04.2004
997,7 20,9 48 11,5 74 7,0 --- --- --- 0,5 06:55 17.04.2004
997,8 21,2 46 11,5 75 7,2 --- --- --- 0,5 07:10 17.04.2004
997,8 21,5 46 11,5 76 7,4 --- --- --- 0,5 07:25 17.04.2004
997,7 21,5 45 11,5 77 7,6 --- --- --- 0,5 07:40 17.04.2004
997,8 20,8 46 11,7 77 7,8 --- --- --- 0,5 07:55 17.04.2004
997,7 20,4 47 12,0 76 7,9 --- --- --- 0,5 08:10 17.04.2004
997,8 20,2 47 12,1 76 8,0 --- --- --- 0,5 08:25 17.04.2004
997,7 20,0 47 12,1 77 8,2 --- --- --- 0,5 08:40 17.04.2004
997,6 19,9 47 12,1 78 8,3 --- --- --- 0,5 08:55 17.04.2004
997,6 19,8 47 12,3 78 8,5 --- --- --- 0,5 09:10 17.04.2004
997,6 19,7 48 12,5 77 8,5 --- --- --- 0,5 09:25 17.04.2004
997,6 19,6 48 12,5 77 8,5 --- --- --- 0,5 09:40 17.04.2004
997,7 19,5 48 12,7 77 8,7 --- --- --- 0,5 09:55 17.04.2004
997,7 19,5 48 12,7 78 8,9 --- --- --- 0,5 10:10 17.04.2004
997,5 19,8 50 12,7 78 8,9 --- --- --- 0,5 10:25 17.04.2004
997,5 19,7 49 12,8 78 9,0 --- --- --- 0,5 10:40 17.04.2004
997,5 19,5 50 13,1 78 9,3 --- --- --- 0,5 10:55 17.04.2004
997,5 19,5 50 13,2 78 9,4 --- --- --- 0,5 11:10 17.04.2004
997,3 19,8 52 13,4 78 9,6 --- --- --- 0,5 11:25 17.04.2004
997,3 20,6 53 13,5 77 9,5 --- --- --- 0,5 11:40 17.04.2004
997,3 21,3 53 13,5 77 9,5 --- --- --- 0,5 11:55 17.04.2004
997,4 21,8 53 13,3 78 9,5 --- --- --- 0,5 12:10 17.04.2004
997,1 22,2 50 13,0 79 9,4 --- --- --- 0,5 12:25 17.04.2004
997,3 22,4 50 12,7 78 8,9 --- --- --- 0,5 12:40 17.04.2004
997,3 22,6 49 12,5 79 8,9 --- --- --- 0,5 12:55 17.04.2004
997,3 22,7 48 12,1 79 8,5 --- --- --- 0,5 13:10 17.04.2004
997,3 22,7 48 12,2 79 8,6 --- --- --- 0,5 13:25 17.04.2004
997,2 22,8 48 12,3 77 8,3 --- --- --- 0,5 13:40 17.04.2004
997,1 23,0 46 12,1 76 8,0 --- --- --- 0,5 13:55 17.04.2004
997,2 23,1 45 12,1 76 8,0 --- --- --- 0,5 14:10 17.04.2004
997,0 23,2 44 12,2 75 7,9 --- --- --- 0,5 14:25 17.04.2004
997,1 23,1 44 12,3 74 7,8 --- --- --- 0,5 14:40 17.04.2004
997,0 23,1 44 12,4 74 7,9 --- --- --- 0,5 14:55 17.04.2004
996,8 23,2 44 12,2 73 7,5 --- --- --- 0,5 15:10 17.04.2004
996,8 23,1 44 12,9 72 7,9 --- --- --- 0,5 15:25 17.04.2004
997,1 23,1 43 12,4 70 7,0 --- --- --- 0,5 15:40 17.04.2004
997,2 23,1 43 11,3 72 6,4 --- --- --- 0,5 15:55 17.04.2004
997,1 23,1 43 10,8 75 6,5 --- --- --- 0,5 16:10 17.04.2004
997,1 23,0 43 10,8 76 6,7 --- --- --- 0,5 16:25 17.04.2004
996,7 23,1 43 12,2 76 8,1 --- --- --- 0,5 16:40 17.04.2004
996,4 23,4 42 15,6 58 7,3 --- --- --- 0,5 16:55 17.04.2004
996,3 23,7 42 19,5 51 9,1 --- --- --- 0,5 17:10 17.04.2004
996,2 23,9 42 20,4 43 7,4 --- --- --- 0,5 17:25 17.04.2004
995,9 23,8 41 18,2 47 6,7 --- --- --- 0,5 17:40 17.04.2004
995,7 23,9 41 16,8 45 4,8 --- --- --- 0,5 17:55 17.04.2004
995,6 23,9 41 16,2 49 5,4 --- --- --- 0,5 18:10 17.04.2004
995,4 23,9 41 15,6 49 4,9 --- --- --- 0,5 18:25 17.04.2004
995,1 24,0 39 16,1 45 4,1 --- --- --- 0,5 18:40 17.04.2004
995,0 23,9 40 16,5 40 2,8 --- --- --- 0,5 18:55 17.04.2004
994,8 23,9 40 17,4 36 2,1 --- --- --- 0,5 19:10 17.04.2004
994,9 24,0 38 16,2 33 0,0 --- --- --- 0,5 19:25 17.04.2004
994,6 24,1 38 16,2 35 0,7 --- --- --- 0,5 19:40 17.04.2004
994,5 24,0 38 15,9 34 0,0 --- --- --- 0,5 19:55 17.04.2004
994,5 24,0 37 14,6 36 -0,2 --- --- --- 0,5 20:10 17.04.2004
994,5 23,9 38 13,5 39 -0,1 --- --- --- 0,5 20:25 17.04.2004
994,6 23,8 38 12,8 43 0,5 --- --- --- 0,5 20:40 17.04.2004
994,5 23,7 38 12,2 45 0,6 --- --- --- 0,5 20:55 17.04.2004
994,4 23,7 37 11,8 46 0,5 --- --- --- 0,5 21:10 17.04.2004
994,4 23,6 37 11,5 47 0,5 --- --- --- 0,5 21:25 17.04.2004
994,4 23,6 37 11,2 49 0,8 --- --- --- 0,5 21:40 17.04.2004
994,4 23,6 37 10,9 50 0,8 --- --- --- 0,5 21:55 17.04.2004
994,6 23,6 37 10,7 51 0,9 --- --- --- 0,5 22:10 17.04.2004
994,5 23,5 37 10,4 53 1,2 --- --- --- 0,5 22:25 17.04.2004
994,4 23,5 37 10,1 54 1,2 --- --- --- 0,5 22:40 17.04.2004
994,1 23,4 37 9,8 55 1,1 --- --- --- 0,5 22:55 17.04.2004
993,9 23,4 37 9,5 56 1,1 --- --- --- 0,5 23:10 17.04.2004
993,9 23,4 36 9,3 59 1,7 --- --- --- 0,5 23:25 17.04.2004
993,4 23,4 36 9,1 60 1,7 --- --- --- 0,5 23:40 17.04.2004
993,1 23,4 36 8,8 60 1,4 --- --- --- 0,5 23:55 17.04.2004
992,8 23,4 36 8,7 60 1,3 --- --- --- 0,5 00:10 18.04.2004
992,3 23,4 35 8,7 61 1,6 --- --- --- 0,5 00:25 18.04.2004
992,4 23,3 35 8,8 61 1,7 --- --- --- 0,5 00:40 18.04.2004
991,9 23,3 36 8,8 61 1,7 --- --- --- 0,5 00:55 18.04.2004
992,0 23,3 36 8,7 62 1,8 --- --- --- 0,5 01:10 18.04.2004
991,7 23,2 36 8,4 63 1,7 --- --- --- 0,5 01:25 18.04.2004
991,4 23,2 36 8,1 64 1,7 --- --- --- 0,5 01:40 18.04.2004
991,1 22,8 37 7,7 65 1,5 --- --- --- 0,5 01:55 18.04.2004
990,9 22,2 37 7,5 66 1,5 --- --- --- 0,5 02:10 18.04.2004
990,7 21,4 38 7,5 67 1,7 --- --- --- 0,5 02:25 18.04.2004
990,6 21,0 39 7,5 67 1,7 --- --- --- 0,5 02:40 18.04.2004
990,2 20,7 40 7,5 67 1,7 --- --- --- 0,5 02:55 18.04.2004
990,1 20,7 40 7,5 68 1,9 --- --- --- 0,5 03:10 18.04.2004
989,7 20,3 41 7,5 69 2,1 --- --- --- 0,5 03:25 18.04.2004
989,5 20,1 40 7,5 69 2,1 --- --- --- 0,5 03:40 18.04.2004
989,3 20,0 40 7,5 70 2,3 --- --- --- 0,5 03:55 18.04.2004
989,0 19,8 41 7,3 72 2,5 --- --- --- 0,5 04:10 18.04.2004
988,4 19,7 41 7,3 73 2,7 --- --- --- 0,5 04:25 18.04.2004
988,1 19,5 41 7,2 74 2,8 --- --- --- 0,5 04:40 18.04.2004
987,7 19,4 41 7,2 76 3,2 --- --- --- 0,5 04:55 18.04.2004
987,2 19,3 42 7,1 77 3,3 --- --- --- 0,5 05:10 18.04.2004
986,9 19,2 42 6,8 79 3,4 --- --- --- 0,5 05:25 18.04.2004
986,6 19,2 42 6,8 80 3,6 --- --- --- 0,5 05:40 18.04.2004
986,1 19,0 42 6,7 81 3,6 --- --- --- 0,5 05:55 18.04.2004
985,7 19,0 43 6,7 82 3,8 --- --- --- 0,5 06:10 18.04.2004
985,4 18,9 44 6,8 83 4,1 --- --- --- 0,5 06:25 18.04.2004
984,8 18,8 44 6,7 83 4,0 --- --- --- 0,5 06:40 18.04.2004
984,5 18,8 44 6,7 84 4,1 --- --- --- 0,5 06:55 18.04.2004
984,3 18,8 44 6,6 85 4,2 --- --- --- 0,5 07:10 18.04.2004
984,0 18,8 44 6,7 86 4,5 --- --- --- 0,5 07:25 18.04.2004
983,5 18,7 44 6,7 86 4,5 --- --- --- 0,5 07:40 18.04.2004
983,3 18,7 44 6,8 86 4,6 --- --- --- 0,5 07:55 18.04.2004
983,0 18,6 44 7,0 86 4,8 --- --- --- 0,5 08:10 18.04.2004
982,6 18,5 44 7,1 86 4,9 --- --- --- 0,5 08:25 18.04.2004
982,4 18,5 45 7,1 86 4,9 --- --- --- 0,5 08:40 18.04.2004
982,3 18,4 45 7,1 86 4,9 --- --- --- 0,5 08:55 18.04.2004
981,9 18,5 45 7,2 86 5,0 --- --- --- 0,5 09:10 18.04.2004
981,4 18,8 47 7,2 87 5,1 --- --- --- 0,5 09:25 18.04.2004
981,2 19,5 45 7,2 87 5,1 --- --- --- 0,5 09:40 18.04.2004
980,8 20,0 45 7,2 87 5,1 --- --- --- 0,5 09:55 18.04.2004
980,3 20,3 45 7,2 88 5,3 --- --- --- 0,5 10:10 18.04.2004
980,3 20,5 45 7,3 88 5,4 --- --- --- 0,5 10:25 18.04.2004
980,1 21,0 44 7,3 89 5,6 --- --- --- 0,5 10:40 18.04.2004
979,6 21,4 43 7,5 89 5,8 --- --- --- 0,5 10:55 18.04.2004
979,5 21,7 43 7,6 89 5,9 --- --- --- 0,5 11:10 18.04.2004
979,4 21,8 42 7,8 88 5,9 --- --- --- 0,5 11:25 18.04.2004
979,2 21,8 41 7,8 88 5,9 --- --- --- 0,5 11:40 18.04.2004
979,0 21,8 42 8,1 88 6,2 --- --- --- 0,5 11:55 18.04.2004
978,5 21,9 42 7,9 88 6,0 --- --- --- 0,5 12:10 18.04.2004
978,3 21,7 44 8,1 88 6,2 --- --- --- 0,5 12:25 18.04.2004
978,0 21,7 44 8,1 88 6,2 --- --- --- 0,5 12:40 18.04.2004
977,6 21,7 45 8,3 89 6,6 --- --- --- 0,5 12:55 18.04.2004
977,3 21,7 45 8,4 89 6,7 --- --- --- 0,5 13:10 18.04.2004
977,0 21,7 45 9,1 91 7,7 --- --- --- 0,5 13:25 18.04.2004
976,9 21,8 45 8,6 89 6,9 --- --- --- 0,5 13:40 18.04.2004
976,7 21,9 45 8,8 90 7,2 --- --- --- 0,5 13:55 18.04.2004
976,4 22,0 43 9,1 90 7,5 --- --- --- 0,5 14:10 18.04.2004
976,4 22,2 43 9,3 90 7,7 --- --- --- 0,5 14:25 18.04.2004
976,1 22,2 43 9,7 89 7,9 --- --- --- 0,5 14:40 18.04.2004
975,8 22,2 43 10,9 89 9,1 --- --- --- 0,5 14:55 18.04.2004
976,0 22,3 43 11,2 84 8,6 --- --- --- 0,5 15:10 18.04.2004
976,3 22,3 43 11,2 83 8,4 --- --- --- 0,5 15:25 18.04.2004
975,8 22,5 43 13,5 76 9,3 --- --- --- 0,5 15:40 18.04.2004
976,2 22,7 42 16,7 57 8,1 --- --- --- 0,5 15:55 18.04.2004
976,2 22,9 42 17,4 50 6,8 --- --- --- 0,5 16:10 18.04.2004
976,1 23,0 41 15,7 48 4,7 --- --- --- 0,5 16:25 18.04.2004
976,5 23,0 40 13,2 61 5,8 --- --- --- 0,5 16:40 18.04.2004
976,6 23,1 40 12,2 61 4,9 --- --- --- 0,5 16:55 18.04.2004
977,1 23,0 40 11,5 64 4,9 --- --- --- 0,5 17:10 18.04.2004
977,4 23,0 39 10,7 66 4,6 --- --- --- 0,5 17:25 18.04.2004
977,5 22,9 40 10,8 67 4,9 --- --- --- 0,5 17:40 18.04.2004
977,7 22,8 40 10,8 67 4,9 --- --- --- 0,5 17:55 18.04.2004
978,4 22,8 40 10,5 64 3,9 --- --- --- 0,5 18:10 18.04.2004
978,4 22,9 39 10,5 61 3,3 --- --- --- 0,5 18:25 18.04.2004
978,4 22,9 39 11,1 61 3,8 --- --- --- 0,5 18:40 18.04.2004
978,6 23,1 38 12,8 54 3,7 --- --- --- 0,5 18:55 18.04.2004
978,8 23,3 38 13,0 50 2,8 --- --- --- 0,5 19:10 18.04.2004
979,1 23,4 38 12,6 51 2,7 --- --- --- 0,5 19:25 18.04.2004
979,2 23,5 38 12,2 51 2,3 --- --- --- 0,5 19:40 18.04.2004
979,2 23,1 37 11,2 55 2,5 --- --- --- 0,5 19:55 18.04.2004
979,4 22,3 39 10,5 58 2,5 --- --- --- 0,5 20:10 18.04.2004
979,6 22,3 39 9,8 60 2,4 --- --- --- 0,5 20:25 18.04.2004
979,8 22,1 38 9,8 60 2,4 --- --- --- 0,5 20:40 18.04.2004
979,9 22,0 39 9,2 62 2,3 --- --- --- 0,5 20:55 18.04.2004
979,8 22,0 38 8,8 63 2,1 --- --- --- 0,5 21:10 18.04.2004
979,9 22,0 38 8,5 62 1,6 --- --- --- 0,5 21:25 18.04.2004
980,2 21,6 39 8,4 62 1,5 --- --- --- 0,5 21:40 18.04.2004
980,6 21,6 39 8,4 63 1,7 --- --- --- 0,5 21:55 18.04.2004
980,9 21,6 39 8,0 63 1,3 --- --- --- 0,5 22:10 18.04.2004
981,4 21,4 38 6,8 62 0,0 --- --- --- 0,5 22:55 18.04.2004
981,4 21,3 38 6,7 63 0,1 --- --- --- 0,5 23:10 18.04.2004
981,4 21,3 38 6,7 64 0,3 --- --- --- 0,5 23:25 18.04.2004
981,4 21,2 38 6,5 64 0,1 --- --- --- 0,5 23:40 18.04.2004
981,3 21,2 38 6,5 66 0,6 --- --- --- 0,5 23:55 18.04.2004
981,6 21,1 38 6,4 67 0,7 --- --- --- 0,5 00:10 19.04.2004
981,5 21,1 38 6,4 68 0,9 --- --- --- 0,5 00:25 19.04.2004
981,7 21,0 38 6,4 70 1,3 --- --- --- 0,5 00:40 19.04.2004
981,8 20,7 39 6,3 71 1,4 --- --- --- 0,5 00:55 19.04.2004
982,1 20,1 39 6,2 72 1,5 --- --- --- 0,5 01:10 19.04.2004
982,4 19,7 40 6,2 73 1,7 --- --- --- 0,5 01:25 19.04.2004
982,7 19,6 40 6,1 73 1,6 --- --- --- 0,5 01:40 19.04.2004
982,8 19,6 41 5,8 73 1,3 --- --- --- 0,5 01:55 19.04.2004
982,9 19,5 41 5,8 73 1,3 --- --- --- 0,5 02:10 19.04.2004
982,7 19,4 41 5,7 73 1,2 --- --- --- 0,5 02:25 19.04.2004
983,1 19,3 41 5,5 73 1,0 --- --- --- 0,5 02:40 19.04.2004
983,2 19,2 41 5,5 74 1,2 --- --- --- 0,5 02:55 19.04.2004
983,1 19,1 41 5,4 75 1,3 --- --- --- 0,5 03:10 19.04.2004
983,2 19,0 41 5,2 75 1,1 --- --- --- 0,5 03:25 19.04.2004
983,2 18,9 42 5,1 75 1,0 --- --- --- 0,5 03:40 19.04.2004
982,9 18,8 42 5,2 76 1,3 --- --- --- 0,5 03:55 19.04.2004
982,9 18,6 42 5,2 76 1,3 --- --- --- 0,5 04:10 19.04.2004
983,2 18,5 42 5,0 76 1,1 --- --- --- 0,5 04:25 19.04.2004
983,4 18,4 42 4,9 76 1,0 --- --- --- 0,5 04:40 19.04.2004
983,6 18,3 42 4,9 76 1,0 --- --- --- 0,5 04:55 19.04.2004
983,7 18,2 42 4,8 76 0,9 --- --- --- 0,5 05:10 19.04.2004
984,1 18,2 42 4,9 76 1,0 --- --- --- 0,5 05:25 19.04.2004
984,3 18,1 42 5,1 75 1,0 --- --- --- 0,5 05:40 19.04.2004
984,4 17,9 42 5,1 75 1,0 --- --- --- 0,5 05:55 19.04.2004
984,5 17,8 43 4,8 75 0,7 --- --- --- 0,5 06:10 19.04.2004
984,6 17,7 43 4,6 76 0,7 --- --- --- 0,5 06:25 19.04.2004
984,9 17,7 43 4,3 77 0,6 --- --- --- 0,5 06:40 19.04.2004
985,0 17,6 43 4,1 77 0,4 --- --- --- 0,5 06:55 19.04.2004
985,1 17,6 43 3,8 78 0,3 --- --- --- 0,5 07:10 19.04.2004
985,2 17,5 43 3,8 79 0,4 --- --- --- 0,5 07:25 19.04.2004
985,4 17,5 43 3,7 79 0,4 --- --- --- 0,5 07:40 19.04.2004
985,8 18,0 43 3,7 80 0,5 --- --- --- 0,5 07:55 19.04.2004
985,9 18,4 43 4,0 80 0,8 --- --- --- 0,5 08:10 19.04.2004
986,1 18,8 43 4,6 80 1,4 --- --- --- 0,5 08:25 19.04.2004
986,1 19,0 42 5,3 79 1,9 --- --- --- 0,5 08:40 19.04.2004
986,1 19,1 41 5,7 77 1,9 --- --- --- 0,5 08:55 19.04.2004
986,4 19,3 41 5,7 76 1,8 --- --- --- 0,5 09:10 19.04.2004
986,5 19,4 41 5,9 76 2,0 --- --- --- 0,5 09:25 19.04.2004
986,4 19,4 42 6,2 76 2,2 --- --- --- 0,5 09:40 19.04.2004
986,5 19,4 42 6,5 74 2,2 --- --- --- 0,5 09:55 19.04.2004
986,5 18,9 38 6,8 74 2,4 --- --- --- 0,5 10:10 19.04.2004
986,7 18,5 37 7,3 73 2,7 --- --- --- 0,5 10:25 19.04.2004
986,8 18,2 36 7,7 71 2,7 --- --- --- 0,5 10:40 19.04.2004
987,0 17,9 37 7,7 70 2,5 --- --- --- 0,5 10:55 19.04.2004
987,3 17,7 36 7,7 69 2,3 --- --- --- 0,5 11:10 19.04.2004
987,1 17,4 38 9,1 69 3,7 --- --- --- 0,5 11:25 19.04.2004
987,2 17,2 38 9,1 64 2,6 --- --- --- 0,5 11:40 19.04.2004
987,1 17,2 38 9,7 63 3,0 --- --- --- 0,5 11:55 19.04.2004
987,0 17,1 38 9,9 62 2,9 --- --- --- 0,5 12:10 19.04.2004
987,0 17,0 38 10,5 61 3,3 --- --- --- 0,5 12:25 19.04.2004
987,3 16,9 39 10,9 60 3,4 --- --- --- 0,5 12:40 19.04.2004
987,1 17,0 39 9,8 64 3,3 --- --- --- 0,5 12:55 19.04.2004
986,9 17,3 40 9,2 67 3,4 --- --- --- 0,5 13:10 19.04.2004
987,1 17,6 41 10,5 70 5,2 --- --- --- 0,5 13:25 19.04.2004
986,8 18,0 41 12,8 57 4,5 --- --- --- 0,5 13:40 19.04.2004
986,9 18,5 42 12,7 56 4,1 --- --- --- 0,5 13:55 19.04.2004
987,1 18,9 42 12,1 54 3,0 --- --- --- 0,5 14:10 19.04.2004
986,9 19,1 42 13,1 54 4,0 --- --- --- 0,5 14:25 19.04.2004
986,9 18,7 42 15,2 43 2,7 --- --- --- 0,5 14:40 19.04.2004
986,7 18,5 42 16,9 41 3,5 --- --- --- 0,5 14:55 19.04.2004
986,5 18,5 42 19,9 36 4,4 --- --- --- 0,5 15:10 19.04.2004
986,5 18,4 42 17,1 36 1,9 --- --- --- 0,5 15:25 19.04.2004
986,5 18,4 42 17,1 35 1,5 --- --- --- 0,5 15:40 19.04.2004
986,6 18,3 42 15,1 40 1,6 --- --- --- 0,5 15:55 19.04.2004
986,6 18,3 42 14,4 47 3,2 --- --- --- 0,5 16:10 19.04.2004
986,7 18,6 43 18,8 40 4,9 --- --- --- 0,5 16:25 19.04.2004
986,8 19,0 44 20,9 33 4,0 --- --- --- 0,5 16:40 19.04.2004
986,9 19,2 44 20,7 31 2,9 --- --- --- 0,5 16:55 19.04.2004
986,8 19,1 44 17,1 35 1,5 --- --- --- 0,5 17:10 19.04.2004
986,8 19,0 44 15,1 40 1,6 --- --- --- 0,5 17:25 19.04.2004
986,8 19,0 45 13,4 45 1,7 --- --- --- 0,5 17:40 19.04.2004
987,5 18,8 46 12,1 49 1,7 --- --- --- 0,5 17:55 19.04.2004
987,4 18,7 47 10,1 60 2,6 --- --- --- 0,5 18:10 19.04.2004
986,9 18,7 48 11,9 67 5,9 --- --- --- 0,5 18:25 19.04.2004
987,1 18,9 48 15,1 55 6,1 --- --- --- 0,5 18:40 19.04.2004
987,0 19,0 47 17,0 50 6,5 --- --- --- 0,5 18:55 19.04.2004
987,1 19,1 47 18,0 46 6,2 --- --- --- 0,5 19:10 19.04.2004
987,3 19,1 48 17,4 42 4,3 --- --- --- 0,5 19:25 19.04.2004
987,4 19,1 47 14,3 45 2,5 --- --- --- 0,5 19:40 19.04.2004
987,6 19,0 47 12,5 48 1,8 --- --- --- 0,5 19:55 19.04.2004
987,9 18,9 48 11,7 51 1,9 --- --- --- 0,5 20:10 19.04.2004
988,0 19,0 47 11,2 56 2,7 --- --- --- 0,5 20:25 19.04.2004
988,1 19,1 46 10,8 58 2,8 --- --- --- 0,5 20:40 19.04.2004
988,2 19,2 46 10,4 60 2,9 --- --- --- 0,5 20:55 19.04.2004
988,3 19,2 47 10,1 62 3,1 --- --- --- 0,5 21:10 19.04.2004
988,4 19,2 47 9,8 65 3,5 --- --- --- 0,5 21:25 19.04.2004
988,3 19,1 47 9,8 66 3,7 --- --- --- 0,5 21:40 19.04.2004
988,5 19,1 47 9,5 67 3,6 --- --- --- 0,5 21:55 19.04.2004
988,6 19,1 47 9,3 69 3,9 --- --- --- 0,5 22:10 19.04.2004
988,7 19,0 47 8,8 70 3,6 --- --- --- 0,5 22:25 19.04.2004
988,8 18,9 48 8,4 72 3,6 --- --- --- 0,5 22:40 19.04.2004
988,8 18,9 48 8,0 72 3,2 --- --- --- 0,5 22:55 19.04.2004
989,2 18,8 48 7,6 73 3,0 --- --- --- 0,5 23:10 19.04.2004
989,2 18,7 47 7,3 74 2,9 --- --- --- 0,5 23:25 19.04.2004
989,4 18,7 47 7,2 75 3,0 --- --- --- 0,5 23:40 19.04.2004
989,4 18,6 47 6,9 75 2,7 --- --- --- 0,5 23:55 19.04.2004
989,4 18,6 47 6,8 75 2,6 --- --- --- 0,5 00:10 20.04.2004
989,6 18,5 47 6,7 76 2,7 --- --- --- 0,5 00:25 20.04.2004
989,6 18,5 47 6,5 77 2,7 --- --- --- 0,5 00:40 20.04.2004
989,9 18,4 47 6,3 78 2,7 --- --- --- 0,5 00:55 20.04.2004
989,9 18,3 47 6,2 79 2,8 --- --- --- 0,5 01:10 20.04.2004
990,1 18,6 48 6,5 79 3,1 --- --- --- 0,5 01:25 20.04.2004
990,2 18,6 48 6,7 79 3,3 --- --- --- 0,5 01:40 20.04.2004
990,4 18,5 48 7,1 79 3,7 --- --- --- 0,5 01:55 20.04.2004
990,5 18,4 48 7,4 80 4,1 --- --- --- 0,5 02:10 20.04.2004
990,5 18,4 48 7,5 80 4,2 --- --- --- 0,5 02:25 20.04.2004
990,7 18,3 48 7,8 80 4,5 --- --- --- 0,5 02:40 20.04.2004
990,7 18,2 49 8,1 81 5,0 --- --- --- 0,5 02:55 20.04.2004
990,7 18,1 49 8,1 81 5,0 --- --- --- 0,5 03:10 20.04.2004
990,8 18,1 49 8,1 81 5,0 --- --- --- 0,5 03:25 20.04.2004
990,9 18,1 49 8,1 81 5,0 --- --- --- 0,5 03:40 20.04.2004
990,9 18,0 49 8,2 80 4,9 --- --- --- 0,5 03:55 20.04.2004
990,9 18,0 49 8,2 79 4,7 --- --- --- 0,5 04:10 20.04.2004
990,9 18,0 49 8,2 78 4,6 --- --- --- 0,5 04:25 20.04.2004
991,1 18,0 49 8,2 78 4,6 --- --- --- 0,5 04:40 20.04.2004
991,2 18,0 49 8,1 78 4,5 --- --- --- 0,5 04:55 20.04.2004
991,2 17,9 50 8,1 78 4,5 --- --- --- 0,5 05:10 20.04.2004
991,2 18,2 51 7,8 78 4,2 --- --- --- 0,5 05:25 20.04.2004
991,2 18,1 50 7,8 79 4,3 --- --- --- 0,5 05:40 20.04.2004
991,2 18,0 50 7,8 79 4,3 --- --- --- 0,5 05:55 20.04.2004
991,4 17,9 50 7,8 80 4,5 --- --- --- 0,5 06:10 20.04.2004
991,5 17,8 50 8,0 80 4,7 --- --- --- 0,5 06:25 20.04.2004
991,7 17,7 50 8,1 81 5,0 --- --- --- 0,5 06:40 20.04.2004
991,9 17,7 50 8,2 81 5,1 --- --- --- 0,5 06:55 20.04.2004
991,9 17,6 50 8,4 81 5,3 --- --- --- 0,5 07:10 20.04.2004
992,2 17,6 50 8,5 80 5,2 --- --- --- 0,5 07:25 20.04.2004
992,3 17,5 50 8,6 80 5,3 --- --- --- 0,5 07:40 20.04.2004
992,5 17,5 50 8,8 80 5,5 --- --- --- 0,5 07:55 20.04.2004
992,7 17,5 51 8,8 81 5,7 --- --- --- 0,5 08:10 20.04.2004
993,1 17,9 53 9,0 81 5,9 --- --- --- 0,5 08:25 20.04.2004
993,6 18,4 52 9,1 81 6,0 --- --- --- 0,5 08:40 20.04.2004
993,7 18,7 51 9,2 81 6,1 --- --- --- 0,5 08:55 20.04.2004
994,0 18,9 51 9,4 81 6,3 --- --- --- 0,5 09:10 20.04.2004
994,1 18,9 50 9,7 80 6,4 --- --- --- 0,5 09:25 20.04.2004
994,2 19,0 49 10,3 80 7,0 --- --- --- 0,5 09:40 20.04.2004
994,1 19,2 48 10,7 77 6,8 --- --- --- 0,5 09:55 20.04.2004
994,2 19,3 49 11,1 76 7,0 --- --- --- 0,5 10:10 20.04.2004
994,3 19,4 49 11,4 76 7,3 --- --- --- 0,5 10:25 20.04.2004
994,6 19,3 49 11,3 74 6,8 --- --- --- 0,5 10:40 20.04.2004
994,9 19,3 49 11,4 73 6,7 --- --- --- 0,5 10:55 20.04.2004
995,2 19,5 49 11,8 73 7,1 --- --- --- 0,5 11:10 20.04.2004
995,5 19,5 51 11,8 71 6,7 --- --- --- 0,5 11:25 20.04.2004
995,6 19,5 51 11,7 71 6,6 --- --- --- 0,5 11:40 20.04.2004
995,8 19,5 50 11,6 72 6,7 --- --- --- 0,5 11:55 20.04.2004
995,8 19,5 50 11,6 71 6,5 --- --- --- 0,5 12:10 20.04.2004
996,1 19,5 50 11,5 71 6,4 --- --- --- 0,5 12:25 20.04.2004
996,4 19,6 50 11,5 72 6,6 --- --- --- 0,5 12:40 20.04.2004
996,6 19,7 50 11,7 72 6,8 --- --- --- 0,5 12:55 20.04.2004
996,7 19,7 50 11,8 72 6,9 --- --- --- 0,5 13:10 20.04.2004
996,8 19,7 50 11,9 70 6,6 --- --- --- 0,5 13:25 20.04.2004
996,9 19,8 50 12,2 69 6,6 --- --- --- 0,5 13:40 20.04.2004
997,2 19,9 50 12,4 69 6,8 --- --- --- 0,5 13:55 20.04.2004
997,3 19,9 50 12,4 68 6,6 --- --- --- 0,5 14:10 20.04.2004
997,5 19,9 49 12,9 67 6,9 --- --- --- 0,5 14:25 20.04.2004
997,6 20,0 49 13,1 64 6,4 --- --- --- 0,5 14:40 20.04.2004
997,7 19,9 49 13,1 64 6,4 --- --- --- 0,5 14:55 20.04.2004
997,7 20,0 49 13,1 64 6,4 --- --- --- 0,5 15:10 20.04.2004
997,9 20,2 49 14,1 63 7,1 --- --- --- 0,5 15:25 20.04.2004
997,9 20,3 49 15,1 61 7,6 --- --- --- 0,5 15:40 20.04.2004
998,2 20,3 48 14,5 56 5,8 --- --- --- 0,5 15:55 20.04.2004
998,2 20,2 48 14,1 59 6,2 --- --- --- 0,5 16:10 20.04.2004
998,4 20,0 48 14,1 60 6,4 --- --- --- 0,5 16:25 20.04.2004
998,6 19,5 48 13,9 61 6,5 --- --- --- 0,5 16:40 20.04.2004
998,7 19,4 49 14,1 61 6,7 --- --- --- 0,5 16:55 20.04.2004
998,9 19,7 50 14,2 61 6,8 --- --- --- 0,5 17:10 20.04.2004
999,0 19,8 50 14,4 60 6,7 --- --- --- 0,5 17:25 20.04.2004
999,0 19,8 50 14,5 58 6,3 --- --- --- 0,5 17:40 20.04.2004
999,2 19,8 50 14,6 58 6,4 --- --- --- 0,5 17:55 20.04.2004
999,3 19,9 49 14,8 57 6,3 --- --- --- 0,5 18:10 20.04.2004
999,5 20,1 49 14,6 56 5,9 --- --- --- 0,5 18:25 20.04.2004
999,4 20,1 49 14,9 57 6,4 --- --- --- 0,5 18:40 20.04.2004
999,6 20,1 49 14,8 57 6,3 --- --- --- 0,5 18:55 20.04.2004
999,6 20,0 49 14,5 57 6,1 --- --- --- 0,5 19:10 20.04.2004
999,9 19,9 49 14,3 59 6,4 --- --- --- 0,5 19:25 20.04.2004
1000,2 19,6 48 14,1 60 6,4 --- --- --- 0,5 19:40 20.04.2004
1000,2 19,5 47 13,8 61 6,4 --- --- --- 0,5 19:55 20.04.2004
1000,4 19,7 46 13,8 62 6,6 --- --- --- 0,5 20:10 20.04.2004
1000,5 19,5 47 13,6 63 6,7 --- --- --- 0,5 20:25 20.04.2004
1000,7 19,3 47 13,4 65 6,9 --- --- --- 0,5 20:40 20.04.2004
1000,9 19,1 48 13,2 66 7,0 --- --- --- 0,5 20:55 20.04.2004
1001,1 19,1 48 13,1 67 7,1 --- --- --- 0,5 21:10 20.04.2004
1001,4 19,2 49 12,8 68 7,0 --- --- --- 0,5 21:25 20.04.2004
1001,4 19,1 49 12,7 69 7,1 --- --- --- 0,5 21:40 20.04.2004
1001,5 19,1 49 12,5 69 6,9 --- --- --- 0,5 21:55 20.04.2004
1001,6 19,1 49 12,5 70 7,1 --- --- --- 0,5 22:10 20.04.2004
1001,7 19,1 50 12,5 71 7,4 --- --- --- 0,5 22:25 20.04.2004
1001,8 19,1 50 12,4 73 7,7 --- --- --- 0,5 22:40 20.04.2004
1001,9 19,1 50 12,5 73 7,8 --- --- --- 0,5 22:55 20.04.2004
1002,0 19,0 50 12,5 74 8,0 --- --- --- 0,5 23:10 20.04.2004
1002,0 19,1 50 12,6 74 8,1 --- --- --- 0,5 23:25 20.04.2004
1002,1 19,0 50 12,6 75 8,3 --- --- --- 0,5 23:40 20.04.2004
1002,2 19,0 50 12,8 75 8,4 --- --- --- 0,5 23:55 20.04.2004
1002,2 19,0 50 12,7 76 8,5 --- --- --- 0,5 00:10 21.04.2004
1002,2 19,0 51 12,8 76 8,6 --- --- --- 0,5 00:25 21.04.2004
1002,3 19,0 51 12,8 77 8,8 --- --- --- 0,5 00:40 21.04.2004
1002,3 19,0 51 13,1 78 9,3 --- --- --- 0,5 00:55 21.04.2004
1002,4 19,1 51 13,0 80 9,6 --- --- --- 0,5 01:10 21.04.2004
1002,4 19,1 52 13,0 80 9,6 --- --- --- 0,5 01:25 21.04.2004
1002,5 19,2 52 12,9 81 9,7 --- --- --- 0,5 01:40 21.04.2004
1002,3 19,2 52 12,8 81 9,6 --- --- --- 0,5 01:55 21.04.2004
1002,3 19,2 53 12,7 81 9,5 --- --- --- 0,5 02:10 21.04.2004
1002,3 19,2 53 12,7 82 9,7 --- --- --- 0,5 02:25 21.04.2004
1002,4 19,2 53 12,7 83 9,9 --- --- --- 0,5 02:40 21.04.2004
1002,5 19,1 53 12,7 83 9,9 --- --- --- 0,5 02:55 21.04.2004
1002,5 19,2 53 12,6 83 9,8 --- --- --- 0,5 03:10 21.04.2004
1002,5 19,2 53 12,6 83 9,8 --- --- --- 0,5 03:25 21.04.2004
1002,4 19,3 53 12,5 83 9,7 --- --- --- 0,5 03:40 21.04.2004
1002,3 19,2 53 12,5 83 9,7 --- --- --- 0,5 03:55 21.04.2004
1002,5 19,2 53 12,5 83 9,7 --- --- --- 0,5 04:10 21.04.2004
1002,6 19,2 53 12,4 83 9,6 --- --- --- 0,5 04:25 21.04.2004
1002,5 19,1 53 12,4 84 9,7 --- --- --- 0,5 04:40 21.04.2004
1002,6 19,0 53 12,3 84 9,6 --- --- --- 0,5 04:55 21.04.2004
1002,5 19,0 53 12,4 84 9,7 --- --- --- 0,5 05:10 21.04.2004
1002,4 19,0 53 12,2 83 9,4 --- --- --- 0,5 05:25 21.04.2004
1002,4 19,0 53 12,1 83 9,3 --- --- --- 0,5 05:40 21.04.2004
1002,6 18,9 54 12,1 84 9,4 --- --- --- 0,5 05:55 21.04.2004
1002,5 19,0 55 12,1 84 9,4 --- --- --- 0,5 06:10 21.04.2004
1002,6 19,4 54 11,8 84 9,1 --- --- --- 0,5 06:25 21.04.2004
1002,6 19,8 54 11,9 84 9,2 --- --- --- 0,5 06:40 21.04.2004
COUPURE
1002,7 22,3 54 16,1 76 11,8 --- --- --- 0,5 23:10 21.04.2004
1003,1 22,2 54 15,9 77 11,8 --- --- --- 0,5 23:25 21.04.2004
1003,1 22,1 54 15,6 77 11,6 --- --- --- 0,5 23:40 21.04.2004
1003,2 22,1 54 15,5 78 11,7 --- --- --- 0,5 23:55 21.04.2004
1003,5 22,1 54 15,4 79 11,7 --- --- --- 0,5 00:10 22.04.2004
1003,5 22,2 54 15,2 79 11,6 --- --- --- 0,5 00:25 22.04.2004
1003,8 22,2 54 15,1 79 11,5 --- --- --- 0,5 00:40 22.04.2004
1003,9 22,3 54 14,8 79 11,2 --- --- --- 0,5 00:55 22.04.2004
1004,0 22,4 54 14,2 81 11,0 --- --- --- 0,5 01:21 22.04.2004
1004,3 22,5 54 14,0 81 10,8 --- --- --- 0,5 01:36 22.04.2004
1004,4 22,5 53 13,7 81 10,5 --- --- --- 0,5 01:51 22.04.2004
1004,3 22,5 53 13,5 81 10,3 --- --- --- 0,5 02:06 22.04.2004
1004,3 22,5 53 13,4 82 10,4 --- --- --- 0,5 02:21 22.04.2004
1004,3 22,5 53 13,3 82 10,3 --- --- --- 0,5 02:36 22.04.2004
1004,3 22,5 52 13,2 82 10,2 --- --- --- 0,5 02:51 22.04.2004
1004,0 22,2 52 13,0 82 10,0 --- --- --- 0,5 03:06 22.04.2004
1003,6 22,0 52 12,9 82 9,9 --- --- --- 0,5 03:21 22.04.2004
1004,0 21,8 53 12,7 82 9,7 --- --- --- 0,5 03:36 22.04.2004
1004,3 21,6 53 12,5 82 9,5 --- --- --- 0,5 03:51 22.04.2004
1004,3 21,6 53 12,4 83 9,6 --- --- --- 0,5 04:06 22.04.2004
1004,3 21,4 53 12,3 83 9,5 --- --- --- 0,5 04:21 22.04.2004
1004,3 21,2 53 12,3 83 9,5 --- --- --- 0,5 04:36 22.04.2004
1004,4 21,1 53 12,2 83 9,4 --- --- --- 0,5 04:51 22.04.2004
1004,6 21,0 53 12,1 83 9,3 --- --- --- 0,5 05:06 22.04.2004
1004,7 20,9 54 12,0 83 9,2 --- --- --- 0,5 05:21 22.04.2004
1004,7 20,9 54 11,9 83 9,1 --- --- --- 0,5 05:36 22.04.2004
1004,8 20,8 54 11,8 83 9,0 --- --- --- 0,5 05:51 22.04.2004
1004,9 20,8 54 11,7 83 8,9 --- --- --- 0,5 06:06 22.04.2004
1004,8 20,7 54 11,7 83 8,9 --- --- --- 0,5 06:21 22.04.2004
1004,9 20,7 54 11,8 83 9,0 --- --- --- 0,5 06:36 22.04.2004
1005,2 20,6 54 11,9 82 8,9 --- --- --- 0,5 06:51 22.04.2004
1005,4 20,6 54 12,1 81 8,9 --- --- --- 0,5 07:06 22.04.2004
1005,5 20,5 54 12,1 80 8,7 --- --- --- 0,5 07:21 22.04.2004
1005,7 20,5 54 12,2 80 8,8 --- --- --- 0,5 07:36 22.04.2004
1005,9 20,6 54 12,3 79 8,7 --- --- --- 0,5 07:51 22.04.2004
1006,3 20,8 54 12,3 77 8,3 --- --- --- 0,5 08:06 22.04.2004
1006,3 20,8 54 12,3 76 8,2 --- --- --- 0,5 08:21 22.04.2004
1006,2 20,7 54 12,4 75 8,1 --- --- --- 0,5 08:36 22.04.2004
1006,3 20,7 54 12,5 74 8,0 --- --- --- 0,5 08:51 22.04.2004
1006,2 20,6 53 12,5 74 8,0 --- --- --- 0,5 09:06 22.04.2004
1006,4 20,6 53 12,7 73 8,0 --- --- --- 0,5 09:21 22.04.2004
1006,5 20,6 53 13,1 72 8,1 --- --- --- 0,5 09:36 22.04.2004
1006,6 20,7 53 13,3 71 8,1 --- --- --- 0,5 09:51 22.04.2004
1006,7 20,7 53 13,5 69 7,9 --- --- --- 0,5 10:06 22.04.2004
1006,9 20,8 53 13,7 68 7,9 --- --- --- 0,5 10:21 22.04.2004
1007,2 20,8 54 13,9 67 7,8 --- --- --- 0,5 10:36 22.04.2004
1007,3 20,8 53 14,4 67 8,3 --- --- --- 0,5 10:51 22.04.2004
1007,3 20,7 51 14,7 64 7,9 --- --- --- 0,5 11:06 22.04.2004
1007,4 20,5 49 15,0 63 8,0 --- --- --- 0,5 11:21 22.04.2004
1007,5 20,5 48 15,4 61 7,9 --- --- --- 0,5 11:36 22.04.2004
1007,5 20,4 48 15,8 60 8,0 --- --- --- 0,5 11:51 22.04.2004
1007,7 20,4 47 16,4 57 7,8 --- --- --- 0,5 12:06 22.04.2004
1007,7 20,5 48 17,4 56 8,5 --- --- --- 0,5 12:21 22.04.2004
1007,6 20,5 48 18,2 54 8,7 --- --- --- 0,5 12:36 22.04.2004
1007,6 20,6 48 18,7 51 8,3 --- --- --- 0,5 12:51 22.04.2004
1007,7 20,7 48 20,4 49 9,3 --- --- --- 0,5 13:06 22.04.2004
1007,4 20,7 48 21,7 44 8,9 --- --- --- 0,5 13:21 22.04.2004
1007,5 20,8 48 22,3 42 8,7 --- --- --- 0,5 13:36 22.04.2004
1007,4 20,8 48 22,1 41 8,2 --- --- --- 0,5 13:51 22.04.2004
1007,5 20,8 48 21,1 43 8,0 --- --- --- 0,5 14:06 22.04.2004
1007,5 20,9 48 21,4 46 9,3 --- --- --- 0,5 14:21 22.04.2004
1007,6 21,0 47 23,0 43 9,7 --- --- --- 0,5 14:36 22.04.2004
1007,7 21,0 47 22,8 40 8,5 --- --- --- 0,5 14:51 22.04.2004
1007,6 21,0 46 22,1 40 7,8 --- --- --- 0,5 15:06 22.04.2004
1007,5 21,1 46 22,7 40 8,4 --- --- --- 0,5 15:21 22.04.2004
1007,6 21,2 47 22,8 38 7,7 --- --- --- 0,5 15:36 22.04.2004
1007,7 21,3 47 23,1 38 8,0 --- --- --- 0,5 15:51 22.04.2004
1007,7 21,5 47 24,8 35 8,3 --- --- --- 0,5 16:06 22.04.2004
1007,9 21,7 47 26,6 31 8,1 --- --- --- 0,5 16:21 22.04.2004
1007,7 22,0 46 28,8 27 7,9 --- --- --- 0,5 16:36 22.04.2004
1007,8 22,4 45 30,2 26 8,6 --- --- --- 0,5 16:51 22.04.2004
1007,9 22,7 45 29,7 24 7,0 --- --- --- 0,5 17:06 22.04.2004
1008,0 22,9 45 29,4 24 6,7 --- --- --- 0,5 17:21 22.04.2004
1008,0 22,9 44 27,1 25 5,4 --- --- --- 0,5 17:36 22.04.2004
1008,0 23,1 43 27,5 26 6,3 --- --- --- 0,5 17:51 22.04.2004
1008,1 23,2 43 27,5 26 6,3 --- --- --- 0,5 18:06 22.04.2004
1008,3 23,3 43 26,4 26 5,3 --- --- --- 0,5 18:21 22.04.2004
1008,3 23,2 43 23,7 29 4,6 --- --- --- 0,5 18:36 22.04.2004
1008,5 23,1 42 22,4 33 5,3 --- --- --- 0,5 18:51 22.04.2004
1008,6 23,2 42 22,9 33 5,8 --- --- --- 0,5 19:06 22.04.2004
1008,7 23,1 40 22,2 33 5,1 --- --- --- 0,5 19:21 22.04.2004
1008,9 23,1 40 22,0 34 5,4 --- --- --- 0,5 19:36 22.04.2004
1009,0 23,0 39 21,2 35 5,1 --- --- --- 0,5 19:51 22.04.2004
1009,1 22,9 41 20,3 36 4,7 --- --- --- 0,5 20:06 22.04.2004
1009,4 22,8 40 19,1 38 4,4 --- --- --- 0,5 20:21 22.04.2004
1009,6 22,6 41 18,1 40 4,3 --- --- --- 0,5 20:36 22.04.2004
1009,7 22,5 41 17,4 43 4,7 --- --- --- 0,5 20:51 22.04.2004
1010,0 22,3 40 16,7 46 5,0 --- --- --- 0,5 21:06 22.04.2004
1010,2 22,2 40 16,2 48 5,1 --- --- --- 0,5 21:21 22.04.2004
1010,4 22,0 41 15,7 49 5,0 --- --- --- 0,5 21:36 22.04.2004
1010,6 22,0 41 15,4 51 5,3 --- --- --- 0,5 21:51 22.04.2004
1010,9 21,8 42 15,0 51 4,9 --- --- --- 0,5 22:06 22.04.2004
1011,0 21,8 44 14,5 52 4,7 --- --- --- 0,5 22:21 22.04.2004
1011,2 21,8 45 14,1 54 4,9 --- --- --- 0,5 22:36 22.04.2004
1011,5 21,8 46 13,8 55 4,9 --- --- --- 0,5 22:51 22.04.2004
1011,7 21,8 46 13,5 55 4,6 --- --- --- 0,5 23:06 22.04.2004
1012,0 21,8 47 13,2 56 4,6 --- --- --- 0,5 23:21 22.04.2004
1012,1 21,7 47 12,8 57 4,5 --- --- --- 0,5 23:36 22.04.2004
1012,3 21,7 47 12,5 57 4,2 --- --- --- 0,5 23:51 22.04.2004
1012,2 21,7 48 12,3 57 4,0 --- --- --- 0,5 00:06 23.04.2004
1012,4 21,6 48 12,1 58 4,1 --- --- --- 0,5 00:21 23.04.2004
1012,5 21,6 48 12,1 59 4,3 --- --- --- 0,5 00:36 23.04.2004
1012,7 21,6 48 12,2 58 4,1 --- --- --- 0,5 00:51 23.04.2004
1012,9 21,6 49 12,2 58 4,1 --- --- --- 0,5 01:06 23.04.2004
1012,9 21,6 49 12,2 58 4,1 --- --- --- 0,5 01:21 23.04.2004
1012,9 21,6 49 12,1 57 3,8 --- --- --- 0,5 01:36 23.04.2004
1013,0 21,5 49 11,9 57 3,6 --- --- --- 0,5 01:51 23.04.2004
1013,1 21,4 49 11,7 57 3,4 --- --- --- 0,5 02:06 23.04.2004
1013,1 21,4 49 11,4 59 3,6 --- --- --- 0,5 02:21 23.04.2004
1013,0 21,3 48 11,1 59 3,4 --- --- --- 0,5 02:36 23.04.2004
1013,0 21,2 48 10,7 60 3,2 --- --- --- 0,5 02:51 23.04.2004
1013,1 21,2 49 10,3 62 3,3 --- --- --- 0,5 03:06 23.04.2004
1013,2 21,1 49 10,1 63 3,3 --- --- --- 0,5 03:21 23.04.2004
1013,0 21,1 49 9,9 65 3,6 --- --- --- 0,5 03:36 23.04.2004
1013,0 21,0 48 9,5 65 3,2 --- --- --- 0,5 03:51 23.04.2004
1013,2 20,9 49 9,1 67 3,3 --- --- --- 0,5 04:06 23.04.2004
1013,1 20,8 49 8,8 68 3,2 --- --- --- 0,5 04:21 23.04.2004
1013,0 20,7 49 8,5 69 3,1 --- --- --- 0,5 04:36 23.04.2004
1013,2 20,6 49 8,1 70 2,9 --- --- --- 0,5 04:51 23.04.2004
1013,2 20,5 49 7,8 71 2,8 --- --- --- 0,5 05:06 23.04.2004
1013,3 20,4 49 7,5 72 2,7 --- --- --- 0,5 05:21 23.04.2004
1013,2 20,4 49 7,3 73 2,7 --- --- --- 0,5 05:36 23.04.2004
1013,3 20,3 49 7,1 73 2,5 --- --- --- 0,5 05:51 23.04.2004
1013,4 20,3 49 6,8 74 2,4 --- --- --- 0,5 06:06 23.04.2004
1013,6 20,3 49 6,7 75 2,5 --- --- --- 0,5 06:21 23.04.2004
1013,5 20,2 48 6,4 75 2,3 --- --- --- 0,5 06:36 23.04.2004
1013,9 20,2 48 6,4 77 2,6 --- --- --- 0,5 06:51 23.04.2004
1013,8 20,1 48 6,3 78 2,7 --- --- --- 0,5 07:06 23.04.2004
1013,9 20,1 48 6,3 79 2,9 --- --- --- 0,5 07:21 23.04.2004
1013,9 20,1 49 6,4 79 3,0 --- --- --- 0,5 07:36 23.04.2004
1014,1 20,0 48 6,4 79 3,0 --- --- --- 0,5 07:51 23.04.2004
1014,3 20,1 49 6,6 79 3,2 --- --- --- 0,5 08:06 23.04.2004
1014,3 20,1 50 7,0 80 3,7 --- --- --- 0,5 08:21 23.04.2004
1014,2 20,0 50 7,5 81 4,4 --- --- --- 0,5 08:36 23.04.2004
1014,4 20,0 50 8,3 82 5,4 --- --- --- 0,5 08:51 23.04.2004
1014,5 19,9 49 9,3 82 6,3 --- --- --- 0,5 09:06 23.04.2004
1014,5 19,8 49 10,2 79 6,7 --- --- --- 0,5 09:21 23.04.2004
1014,8 19,8 49 10,5 76 6,4 --- --- --- 0,5 09:36 23.04.2004
1015,0 19,8 49 11,0 74 6,5 --- --- --- 0,5 09:51 23.04.2004
1015,1 19,7 50 11,4 72 6,5 --- --- --- 0,5 10:06 23.04.2004
1015,0 19,7 50 11,7 71 6,6 --- --- --- 0,5 10:21 23.04.2004
1015,1 19,7 50 12,0 70 6,7 --- --- --- 0,5 10:36 23.04.2004
1015,1 19,6 50 12,4 68 6,6 --- --- --- 0,5 10:51 23.04.2004
1015,1 19,6 49 12,8 66 6,6 --- --- --- 0,5 11:06 23.04.2004
1015,3 19,6 49 13,2 65 6,7 --- --- --- 0,5 11:21 23.04.2004
1015,5 19,5 49 13,5 63 6,6 --- --- --- 0,5 11:36 23.04.2004
1015,5 19,5 49 14,0 63 7,0 --- --- --- 0,5 11:51 23.04.2004
1015,6 19,5 49 14,4 62 7,2 --- --- --- 0,5 12:06 23.04.2004
1015,7 19,5 49 14,9 60 7,2 --- --- --- 0,5 12:21 23.04.2004
1015,6 19,5 49 19,5 56 10,5 --- --- --- 0,5 12:36 23.04.2004
1015,7 19,5 49 24,3 40 9,8 --- --- --- 0,5 12:51 23.04.2004
1015,6 19,5 49 26,5 32 8,4 --- --- --- 0,5 13:06 23.04.2004
1015,5 19,5 49 27,7 29 8,0 --- --- --- 0,5 13:21 23.04.2004
1015,4 19,6 49 28,2 28 7,9 --- --- --- 0,5 13:36 23.04.2004
1015,4 19,6 49 26,9 29 7,3 --- --- --- 0,5 13:51 23.04.2004
1015,4 19,7 50 25,6 29 6,2 --- --- --- 0,5 14:06 23.04.2004
1015,3 19,7 50 25,4 32 7,5 --- --- --- 0,5 14:21 23.04.2004
1015,4 19,8 50 24,8 32 7,0 --- --- --- 0,5 14:36 23.04.2004
1015,4 19,8 50 25,5 32 7,6 --- --- --- 0,5 14:51 23.04.2004
1015,3 19,9 50 24,8 30 6,0 --- --- --- 0,5 15:06 23.04.2004
1015,3 19,9 50 23,7 32 6,0 --- --- --- 0,5 15:21 23.04.2004
1015,3 20,0 50 26,5 26 5,4 --- --- --- 0,5 15:36 23.04.2004
1014,9 20,0 50 24,0 31 5,8 --- --- --- 0,5 15:51 23.04.2004
1015,0 20,1 50 22,1 31 4,2 --- --- --- 0,5 16:06 23.04.2004
1014,8 20,3 50 23,1 32 5,5 --- --- --- 0,5 16:21 23.04.2004
1014,8 20,5 50 24,6 31 6,3 --- --- --- 0,5 16:36 23.04.2004
1014,9 20,7 50 24,8 25 3,4 --- --- --- 0,5 16:51 23.04.2004
1014,6 20,9 50 28,2 24 5,7 --- --- --- 0,5 17:06 23.04.2004
1014,6 21,2 49 30,8 19 4,5 --- --- --- 0,5 17:21 23.04.2004
1014,6 21,2 48 25,7 23 3,0 --- --- --- 0,5 17:36 23.04.2004
1014,7 21,2 48 22,1 31 4,2 --- --- --- 0,5 17:51 23.04.2004
1014,7 21,2 48 22,8 35 6,5 --- --- --- 0,5 18:06 23.04.2004
1014,7 21,3 48 25,4 28 5,5 --- --- --- 0,5 18:21 23.04.2004
1014,7 21,4 48 25,1 26 4,2 --- --- --- 0,5 18:36 23.04.2004
1014,6 21,5 48 23,4 30 4,8 --- --- --- 0,5 18:51 23.04.2004
1014,8 21,6 48 23,2 32 5,6 --- --- --- 0,5 19:06 23.04.2004
1014,8 21,7 48 23,1 33 5,9 --- --- --- 0,5 19:21 23.04.2004
1014,8 21,7 47 22,1 31 4,2 --- --- --- 0,5 19:36 23.04.2004
1014,8 21,8 46 21,2 33 4,3 --- --- --- 0,5 19:51 23.04.2004
1015,1 21,7 46 20,2 35 4,2 --- --- --- 0,5 20:06 23.04.2004
1015,1 21,7 46 18,8 39 4,5 --- --- --- 0,5 20:21 23.04.2004
1015,2 21,7 47 17,8 41 4,3 --- --- --- 0,5 20:36 23.04.2004
1015,3 21,7 47 17,0 44 4,6 --- --- --- 0,5 20:51 23.04.2004
1015,5 21,7 47 16,4 45 4,4 --- --- --- 0,5 21:06 23.04.2004
1015,5 21,8 47 15,9 46 4,3 --- --- --- 0,5 21:21 23.04.2004
1015,8 21,8 47 15,4 48 4,4 --- --- --- 0,5 21:36 23.04.2004
1015,9 21,7 47 14,7 50 4,4 --- --- --- 0,5 21:51 23.04.2004
1016,1 21,6 47 14,1 53 4,6 --- --- --- 0,5 22:06 23.04.2004
1016,4 21,6 47 13,6 54 4,4 --- --- --- 0,5 22:21 23.04.2004
1016,2 21,5 47 13,2 57 4,8 --- --- --- 0,5 22:36 23.04.2004
1016,3 21,6 47 12,8 58 4,7 --- --- --- 0,5 22:51 23.04.2004
1016,5 21,5 47 12,5 59 4,7 --- --- --- 0,5 23:06 23.04.2004
1016,6 21,5 47 12,2 61 4,9 --- --- --- 0,5 23:21 23.04.2004
1016,6 21,4 47 12,0 62 4,9 --- --- --- 0,5 23:36 23.04.2004
1016,7 21,3 48 11,7 63 4,9 --- --- --- 0,5 23:51 23.04.2004
1016,7 21,2 48 11,5 65 5,1 --- --- --- 0,5 00:06 24.04.2004
1016,8 21,1 48 11,3 67 5,4 --- --- --- 0,5 00:21 24.04.2004
1016,8 20,9 49 11,1 67 5,2 --- --- --- 0,5 00:36 24.04.2004
1016,9 20,8 49 10,8 68 5,1 --- --- --- 0,5 00:51 24.04.2004
1017,0 20,7 49 10,6 69 5,1 --- --- --- 0,5 01:06 24.04.2004
1017,0 20,6 49 10,4 70 5,1 --- --- --- 0,5 01:21 24.04.2004
1016,9 20,5 49 10,2 71 5,1 --- --- --- 0,5 01:36 24.04.2004
1016,7 20,5 49 10,1 72 5,2 --- --- --- 0,5 01:51 24.04.2004
1016,8 20,5 49 10,1 72 5,2 --- --- --- 0,5 02:06 24.04.2004
1016,7 20,4 50 9,7 72 4,9 --- --- --- 0,5 02:21 24.04.2004
1016,6 20,4 50 9,4 73 4,8 --- --- --- 0,5 02:36 24.04.2004
1016,5 20,3 50 9,3 73 4,7 --- --- --- 0,5 02:51 24.04.2004
1016,4 20,3 50 9,0 73 4,4 --- --- --- 0,5 03:06 24.04.2004
1016,3 20,2 50 8,7 74 4,3 --- --- --- 0,5 03:21 24.04.2004
1016,2 20,1 49 8,5 75 4,3 --- --- --- 0,5 03:36 24.04.2004
1016,2 20,1 49 8,4 75 4,2 --- --- --- 0,5 03:51 24.04.2004
1016,5 20,0 49 8,2 76 4,2 --- --- --- 0,5 04:06 24.04.2004
1016,3 20,0 49 8,1 76 4,1 --- --- --- 0,5 04:21 24.04.2004
1016,3 19,9 49 7,8 76 3,8 --- --- --- 0,5 04:36 24.04.2004
1016,1 19,9 49 7,7 77 3,9 --- --- --- 0,5 04:51 24.04.2004
1016,2 19,8 49 7,5 77 3,7 --- --- --- 0,5 05:06 24.04.2004
1016,2 19,7 49 7,3 78 3,7 --- --- --- 0,5 05:21 24.04.2004
1016,3 19,6 49 7,2 78 3,6 --- --- --- 0,5 05:36 24.04.2004
1016,1 19,5 48 7,0 78 3,4 --- --- --- 0,5 05:51 24.04.2004
1016,1 19,4 48 6,7 78 3,1 --- --- --- 0,5 06:06 24.04.2004
1016,3 19,4 49 6,5 78 2,9 --- --- --- 0,5 06:21 24.04.2004
1016,4 19,3 49 6,4 79 3,0 --- --- --- 0,5 06:36 24.04.2004
1016,5 19,3 49 6,2 79 2,8 --- --- --- 0,5 06:51 24.04.2004
1016,6 19,2 49 6,1 80 2,9 --- --- --- 0,5 07:06 24.04.2004
1016,8 19,2 49 6,1 80 2,9 --- --- --- 0,5 07:21 24.04.2004
1016,9 19,2 49 6,1 80 2,9 --- --- --- 0,5 07:36 24.04.2004
1017,0 19,2 49 6,1 80 2,9 --- --- --- 0,5 07:51 24.04.2004
1017,0 19,2 48 6,2 81 3,1 --- --- --- 0,5 08:06 24.04.2004
1017,1 19,2 49 6,5 80 3,3 --- --- --- 0,5 08:21 24.04.2004
1017,3 19,1 48 7,2 81 4,1 --- --- --- 0,5 08:36 24.04.2004
1017,3 19,0 47 8,3 79 4,8 --- --- --- 0,5 08:51 24.04.2004
1017,2 18,8 48 9,3 76 5,2 --- --- --- 0,5 09:06 24.04.2004
1017,3 18,8 48 10,1 72 5,2 --- --- --- 0,5 09:21 24.04.2004
1017,4 18,8 48 10,5 69 5,0 --- --- --- 0,5 09:36 24.04.2004
1017,2 18,7 47 10,9 67 5,0 --- --- --- 0,5 09:51 24.04.2004
1017,3 18,7 47 11,4 66 5,2 --- --- --- 0,5 10:06 24.04.2004
1017,4 18,6 47 11,8 64 5,2 --- --- --- 0,5 10:21 24.04.2004
1017,3 18,6 47 12,4 62 5,3 --- --- --- 0,5 10:36 24.04.2004
1017,4 18,7 47 13,1 60 5,5 --- --- --- 0,5 10:51 24.04.2004
1017,3 18,8 48 13,5 57 5,1 --- --- --- 0,5 11:06 24.04.2004
1017,4 18,8 49 14,2 56 5,5 --- --- --- 0,5 11:21 24.04.2004
1017,4 18,9 51 14,7 52 4,9 --- --- --- 0,5 11:36 24.04.2004
1017,3 19,0 50 15,2 50 4,8 --- --- --- 0,5 11:51 24.04.2004
1017,3 19,2 50 15,5 48 4,5 --- --- --- 0,5 12:06 24.04.2004
1017,2 19,2 49 16,1 45 4,1 --- --- --- 0,5 12:21 24.04.2004
1017,3 19,1 48 20,2 39 5,8 --- --- --- 0,5 12:36 24.04.2004
1017,1 19,2 47 24,5 28 4,8 --- --- --- 0,5 12:51 24.04.2004
1016,9 19,3 47 27,2 21 3,0 --- --- --- 0,5 13:06 24.04.2004
1016,8 19,3 47 27,8 19 2,0 --- --- --- 0,5 13:21 24.04.2004
1016,6 19,5 46 28,5 19 2,6 --- --- --- 0,5 13:36 24.04.2004
1016,6 19,5 46 28,0 19 2,2 --- --- --- 0,5 13:51 24.04.2004
1016,6 19,7 46 26,4 19 0,9 --- --- --- 0,5 14:06 24.04.2004
1016,5 19,8 45 26,1 21 2,1 --- --- --- 0,5 14:21 24.04.2004
1016,4 19,9 45 26,5 22 3,0 --- --- --- 0,5 14:36 24.04.2004
1016,4 20,0 45 27,6 20 2,6 --- --- --- 0,5 14:51 24.04.2004
1016,1 20,1 45 28,1 19 2,3 --- --- --- 0,5 15:06 24.04.2004
1016,1 20,2 44 29,3 20 4,0 --- --- --- 0,5 15:21 24.04.2004
1016,0 20,2 44 30,4 19 4,2 --- --- --- 0,5 15:36 24.04.2004
1015,9 20,3 43 31,4 19 5,0 --- --- --- 0,5 15:51 24.04.2004
1015,6 20,5 43 32,1 19 5,6 --- --- --- 0,5 16:06 24.04.2004
1015,6 20,6 43 33,4 19 6,6 --- --- --- 0,5 16:21 24.04.2004
1015,4 20,7 42 33,8 19 7,0 --- --- --- 0,5 16:36 24.04.2004
1015,5 20,9 42 33,4 19 6,6 --- --- --- 0,5 16:51 24.04.2004
1015,3 21,2 42 34,2 19 7,3 --- --- --- 0,5 17:06 24.04.2004
1015,3 21,5 42 34,1 19 7,2 --- --- --- 0,5 17:21 24.04.2004
1015,1 21,7 42 33,0 19 6,3 --- --- --- 0,5 17:36 24.04.2004
1015,1 21,9 43 32,4 19 5,8 --- --- --- 0,5 17:51 24.04.2004
1015,2 22,1 43 32,1 19 5,6 --- --- --- 0,5 18:06 24.04.2004
1015,1 22,4 43 31,5 19 5,1 --- --- --- 0,5 18:21 24.04.2004
1015,2 22,4 41 30,5 19 4,3 --- --- --- 0,5 18:36 24.04.2004
1015,1 22,5 41 29,2 19 3,2 --- --- --- 0,5 18:51 24.04.2004
1015,1 22,6 41 27,9 19 2,1 --- --- --- 0,5 19:06 24.04.2004
1015,1 22,7 41 26,4 22 3,0 --- --- --- 0,5 19:21 24.04.2004
1015,1 22,7 41 24,9 23 2,3 --- --- --- 0,5 19:36 24.04.2004
1015,2 22,8 41 24,2 27 4,0 --- --- --- 0,5 19:51 24.04.2004
1015,2 22,8 42 22,7 28 3,2 --- --- --- 0,5 20:06 24.04.2004
1015,3 22,8 42 21,1 30 2,8 --- --- --- 0,5 20:21 24.04.2004
1015,4 22,8 43 20,0 33 3,2 --- --- --- 0,5 20:36 24.04.2004
1015,5 22,8 43 18,9 36 3,5 --- --- --- 0,5 20:51 24.04.2004
1015,7 22,7 43 18,1 38 3,5 --- --- --- 0,5 21:06 24.04.2004
1015,9 22,7 43 17,6 40 3,8 --- --- --- 0,5 21:21 24.04.2004
1016,0 22,6 43 17,1 41 3,7 --- --- --- 0,5 21:36 24.04.2004
1016,1 22,6 43 16,7 42 3,7 --- --- --- 0,5 21:51 24.04.2004
1016,1 22,5 43 16,4 44 4,1 --- --- --- 0,5 22:06 24.04.2004
1016,1 22,5 43 15,9 43 3,3 --- --- --- 0,5 22:21 24.04.2004
1016,1 22,5 43 15,7 44 3,4 --- --- --- 0,5 22:36 24.04.2004
1016,1 22,5 43 15,5 45 3,6 --- --- --- 0,5 22:51 24.04.2004
1016,2 22,4 43 15,2 46 3,6 --- --- --- 0,5 23:06 24.04.2004
1016,1 22,5 43 14,9 46 3,4 --- --- --- 0,5 23:21 24.04.2004
1016,2 22,4 43 14,7 47 3,5 --- --- --- 0,5 23:36 24.04.2004
1016,2 22,3 43 14,4 49 3,8 --- --- --- 0,5 23:51 24.04.2004
1016,2 22,2 43 14,0 50 3,7 --- --- --- 0,5 00:06 25.04.2004
1016,0 22,1 43 13,5 51 3,5 --- --- --- 0,5 00:21 25.04.2004
1016,1 22,1 44 13,1 53 3,7 --- --- --- 0,5 00:36 25.04.2004
1016,1 22,0 44 12,6 54 3,5 --- --- --- 0,5 00:51 25.04.2004
1016,1 21,9 45 12,3 56 3,7 --- --- --- 0,5 01:06 25.04.2004
1016,0 21,8 45 11,9 57 3,6 --- --- --- 0,5 01:21 25.04.2004
1016,1 21,7 45 11,8 59 4,0 --- --- --- 0,5 01:36 25.04.2004
1016,0 21,7 45 11,7 60 4,2 --- --- --- 0,5 01:51 25.04.2004
1015,9 21,5 45 11,4 62 4,3 --- --- --- 0,5 02:06 25.04.2004
1015,9 21,4 45 11,2 63 4,4 --- --- --- 0,5 02:21 25.04.2004
1016,0 21,4 45 11,1 63 4,3 --- --- --- 0,5 02:36 25.04.2004
1016,0 21,4 46 10,8 64 4,2 --- --- --- 0,5 02:51 25.04.2004
1015,8 21,3 45 10,6 65 4,3 --- --- --- 0,5 03:06 25.04.2004
1016,0 21,2 46 10,5 65 4,2 --- --- --- 0,5 03:21 25.04.2004
1016,0 21,2 46 10,2 67 4,3 --- --- --- 0,5 03:36 25.04.2004
1016,1 21,1 46 10,0 67 4,1 --- --- --- 0,5 03:51 25.04.2004
1016,0 21,0 46 9,6 68 3,9 --- --- --- 0,5 04:06 25.04.2004
1015,9 20,9 47 9,3 70 4,1 --- --- --- 0,5 04:21 25.04.2004
1015,9 20,8 47 9,1 70 3,9 --- --- --- 0,5 04:36 25.04.2004
1015,8 20,7 47 8,8 71 3,8 --- --- --- 0,5 04:51 25.04.2004
1015,8 20,6 47 8,7 72 3,9 --- --- --- 0,5 05:06 25.04.2004
1015,8 20,5 46 8,5 72 3,7 --- --- --- 0,5 05:21 25.04.2004
1015,6 20,4 46 8,3 73 3,7 --- --- --- 0,5 05:36 25.04.2004
1015,7 20,3 46 8,1 74 3,7 --- --- --- 0,5 05:51 25.04.2004
1015,8 20,3 47 7,8 74 3,4 --- --- --- 0,5 06:06 25.04.2004
1015,9 20,3 47 7,6 74 3,2 --- --- --- 0,5 06:21 25.04.2004
1016,0 20,2 47 7,4 75 3,2 --- --- --- 0,5 06:36 25.04.2004
1016,0 20,1 47 7,3 75 3,1 --- --- --- 0,5 06:51 25.04.2004
1016,1 20,1 47 7,1 75 2,9 --- --- --- 0,5 07:06 25.04.2004
1016,4 20,0 47 7,1 75 2,9 --- --- --- 0,5 07:21 25.04.2004
1016,6 19,9 47 7,1 76 3,1 --- --- --- 0,5 07:36 25.04.2004
1016,6 19,8 47 7,1 77 3,3 --- --- --- 0,5 07:51 25.04.2004
1016,9 19,8 47 7,3 77 3,5 --- --- --- 0,5 08:06 25.04.2004
1016,9 19,8 47 7,5 77 3,7 --- --- --- 0,5 08:21 25.04.2004
1017,0 19,9 47 8,1 79 4,6 --- --- --- 0,5 08:36 25.04.2004
1017,1 19,9 47 9,1 79 5,6 --- --- --- 0,5 08:51 25.04.2004
1017,2 20,0 48 10,1 76 6,0 --- --- --- 0,5 09:06 25.04.2004
1017,2 20,1 47 10,7 73 6,0 --- --- --- 0,5 09:21 25.04.2004
1017,3 20,1 47 11,2 71 6,1 --- --- --- 0,5 09:36 25.04.2004
1017,2 20,0 47 11,7 69 6,2 --- --- --- 0,5 09:51 25.04.2004
1017,1 19,9 46 12,3 67 6,3 --- --- --- 0,5 10:06 25.04.2004
1017,1 19,9 46 12,9 64 6,2 --- --- --- 0,5 10:21 25.04.2004
1017,1 20,0 46 13,5 60 5,9 --- --- --- 0,5 10:36 25.04.2004
1017,2 20,0 46 14,2 59 6,3 --- --- --- 0,5 10:51 25.04.2004
1017,0 20,1 46 14,8 56 6,1 --- --- --- 0,5 11:06 25.04.2004
1017,0 20,2 45 15,5 52 5,7 --- --- --- 0,5 11:21 25.04.2004
1016,9 20,1 44 16,1 49 5,4 --- --- --- 0,5 11:36 25.04.2004
1016,8 20,0 43 16,6 47 5,2 --- --- --- 0,5 11:51 25.04.2004
1016,8 20,0 43 17,1 46 5,4 --- --- --- 0,5 12:06 25.04.2004
1016,8 20,0 43 17,6 44 5,2 --- --- --- 0,5 12:21 25.04.2004
1016,6 20,0 43 21,5 39 6,9 --- --- --- 0,5 12:36 25.04.2004
1016,6 20,0 43 25,4 28 5,5 --- --- --- 0,5 12:51 25.04.2004
1016,4 20,0 42 27,5 24 5,1 --- --- --- 0,5 13:06 25.04.2004
1016,2 20,0 43 28,0 21 3,6 --- --- --- 0,5 13:21 25.04.2004
1016,0 20,1 43 29,2 20 3,9 --- --- --- 0,5 13:36 25.04.2004
1016,1 20,2 44 29,2 19 3,2 --- --- --- 0,5 13:51 25.04.2004
1016,1 20,3 45 27,4 19 1,7 --- --- --- 0,5 14:06 25.04.2004
1015,8 20,5 45 29,1 20 3,8 --- --- --- 0,5 14:21 25.04.2004
1015,9 20,6 44 30,1 19 3,9 --- --- --- 0,5 14:36 25.04.2004
1015,8 20,8 44 30,1 19 3,9 --- --- --- 0,5 14:51 25.04.2004
1015,6 20,9 43 30,2 19 4,0 --- --- --- 0,5 15:06 25.04.2004
1015,6 21,1 41 30,5 19 4,3 --- --- --- 0,5 15:21 25.04.2004
1015,4 21,3 40 30,6 19 4,3 --- --- --- 0,5 15:36 25.04.2004
1015,2 21,4 40 31,2 19 4,8 --- --- --- 0,5 15:51 25.04.2004
1014,8 21,7 40 32,4 19 5,8 --- --- --- 0,5 16:06 25.04.2004
1014,7 21,8 40 32,2 19 5,6 --- --- --- 0,5 16:21 25.04.2004
1014,4 22,0 39 33,2 19 6,5 --- --- --- 0,5 16:36 25.04.2004
1014,3 22,2 37 32,7 19 6,1 --- --- --- 0,5 16:51 25.04.2004
1014,0 22,4 38 34,3 19 7,4 --- --- --- 0,5 17:06 25.04.2004
1014,0 22,6 38 34,3 19 7,4 --- --- --- 0,5 17:21 25.04.2004
1014,0 22,7 38 33,8 19 7,0 --- --- --- 0,5 17:36 25.04.2004
1013,8 23,0 37 33,7 19 6,9 --- --- --- 0,5 17:51 25.04.2004
1013,7 23,0 37 32,1 19 5,6 --- --- --- 0,5 18:06 25.04.2004
1013,7 23,2 37 32,4 19 5,8 --- --- --- 0,5 18:21 25.04.2004
1013,7 23,3 37 30,5 19 4,3 --- --- --- 0,5 18:36 25.04.2004
1013,7 23,3 37 27,9 19 2,1 --- --- --- 0,5 18:51 25.04.2004
1013,5 23,2 36 25,9 19 0,5 --- --- --- 0,5 19:06 25.04.2004
1013,6 23,1 36 24,8 22 1,6 --- --- --- 0,5 19:21 25.04.2004
1013,6 23,1 37 24,2 24 2,3 --- --- --- 0,5 19:36 25.04.2004
1013,4 23,0 36 23,4 26 2,8 --- --- --- 0,5 19:51 25.04.2004
1013,5 22,8 37 22,2 27 2,3 --- --- --- 0,5 20:06 25.04.2004
1013,6 22,7 36 21,2 28 1,9 --- --- --- 0,5 20:21 25.04.2004
1013,7 22,6 36 20,4 30 2,2 --- --- --- 0,5 20:36 25.04.2004
1013,7 22,5 36 19,6 31 2,0 --- --- --- 0,5 20:51 25.04.2004
1013,7 22,3 35 18,8 32 1,7 --- --- --- 0,5 21:06 25.04.2004
1013,7 22,2 35 18,2 34 2,1 --- --- --- 0,5 21:21 25.04.2004
1013,7 22,0 35 17,4 36 2,1 --- --- --- 0,5 21:36 25.04.2004
1013,8 22,0 36 16,7 39 2,6 --- --- --- 0,5 21:51 25.04.2004
1013,9 22,0 37 15,8 40 2,2 --- --- --- 0,5 22:06 25.04.2004
1013,9 21,9 39 15,3 43 2,8 --- --- --- 0,5 22:21 25.04.2004
1014,1 21,9 40 14,7 45 2,9 --- --- --- 0,5 22:36 25.04.2004
1014,0 21,9 41 14,3 47 3,1 --- --- --- 0,5 22:51 25.04.2004
1014,1 21,8 42 14,0 49 3,4 --- --- --- 0,5 23:06 25.04.2004
1014,1 21,7 43 13,7 50 3,4 --- --- --- 0,5 23:21 25.04.2004
1014,1 21,7 43 13,3 52 3,6 --- --- --- 0,5 23:36 25.04.2004
1014,0 21,7 43 12,9 53 3,5 --- --- --- 0,5 23:51 25.04.2004
1013,9 21,7 43 12,8 54 3,7 --- --- --- 0,5 00:06 26.04.2004
1014,0 21,7 43 12,5 56 3,9 --- --- --- 0,5 00:21 26.04.2004
1013,9 21,7 43 12,2 57 3,9 --- --- --- 0,5 00:36 26.04.2004
1013,7 21,6 43 12,1 58 4,1 --- --- --- 0,5 00:51 26.04.2004
1013,5 21,5 43 11,8 59 4,0 --- --- --- 0,5 01:06 26.04.2004
1013,4 21,4 43 11,6 59 3,8 --- --- --- 0,5 01:21 26.04.2004
1013,4 21,3 43 11,5 60 4,0 --- --- --- 0,5 01:36 26.04.2004
1013,4 21,3 44 11,3 61 4,0 --- --- --- 0,5 01:51 26.04.2004
1013,3 21,2 44 11,1 62 4,1 --- --- --- 0,5 02:06 26.04.2004
1013,2 21,1 44 11,0 63 4,2 --- --- --- 0,5 02:21 26.04.2004
1013,1 21,1 44 10,8 64 4,2 --- --- --- 0,5 02:36 26.04.2004
1013,1 21,1 44 10,5 64 3,9 --- --- --- 0,5 02:51 26.04.2004
1013,0 21,0 44 10,4 66 4,3 --- --- --- 0,5 03:06 26.04.2004
1012,9 21,0 44 10,2 66 4,1 --- --- --- 0,5 03:21 26.04.2004
1012,7 20,9 45 10,2 66 4,1 --- --- --- 0,5 03:36 26.04.2004
1012,7 20,9 45 10,1 67 4,2 --- --- --- 0,5 03:51 26.04.2004
1012,7 20,9 45 10,0 68 4,3 --- --- --- 0,5 04:06 26.04.2004
1012,6 20,8 45 9,8 68 4,1 --- --- --- 0,5 04:21 26.04.2004
1012,4 20,7 45 9,8 69 4,3 --- --- --- 0,5 04:36 26.04.2004
1012,6 20,7 45 9,8 69 4,3 --- --- --- 0,5 04:51 26.04.2004
1012,4 20,6 45 9,7 69 4,3 --- --- --- 0,5 05:06 26.04.2004
1012,3 20,5 45 9,5 69 4,1 --- --- --- 0,5 05:21 26.04.2004
1012,1 20,5 45 9,4 71 4,4 --- --- --- 0,5 05:36 26.04.2004
1012,1 20,5 45 9,1 71 4,1 --- --- --- 0,5 05:51 26.04.2004
1012,1 20,4 45 8,8 71 3,8 --- --- --- 0,5 06:06 26.04.2004
1011,9 20,3 45 8,5 71 3,5 --- --- --- 0,5 06:21 26.04.2004
1011,9 20,2 45 8,3 72 3,5 --- --- --- 0,5 06:36 26.04.2004
1011,8 20,2 45 8,1 72 3,3 --- --- --- 0,5 06:51 26.04.2004
1011,9 20,2 45 7,9 73 3,3 --- --- --- 0,5 07:06 26.04.2004
1011,8 20,1 45 7,8 73 3,2 --- --- --- 0,5 07:21 26.04.2004
1011,9 20,1 45 7,9 74 3,5 --- --- --- 0,5 07:36 26.04.2004
1012,0 19,8 42 8,1 74 3,7 --- --- --- 0,5 07:51 26.04.2004
1012,0 19,5 41 8,1 75 3,9 --- --- --- 0,5 08:06 26.04.2004
1012,1 19,3 41 8,3 75 4,1 --- --- --- 0,5 08:21 26.04.2004
1011,9 19,2 41 8,7 74 4,3 --- --- --- 0,5 08:36 26.04.2004
1011,9 19,0 41 9,3 76 5,2 --- --- --- 0,5 08:51 26.04.2004
1011,7 18,8 42 10,2 75 5,9 --- --- --- 0,5 09:06 26.04.2004
1011,6 18,7 42 11,1 71 6,0 --- --- --- 0,5 09:21 26.04.2004
1011,5 18,6 41 12,1 65 5,7 --- --- --- 0,5 09:36 26.04.2004
1011,4 18,5 40 12,8 59 5,0 --- --- --- 0,5 09:51 26.04.2004
1011,2 18,5 40 13,2 57 4,8 --- --- --- 0,5 10:06 26.04.2004
1011,2 18,6 40 13,7 54 4,5 --- --- --- 0,5 10:21 26.04.2004
1011,1 18,7 40 14,1 51 4,1 --- --- --- 0,5 10:36 26.04.2004
1011,1 18,7 40 14,4 49 3,8 --- --- --- 0,5 10:51 26.04.2004
1011,0 18,8 40 14,7 47 3,5 --- --- --- 0,5 11:06 26.04.2004
1010,7 18,8 40 15,2 47 3,9 --- --- --- 0,5 11:21 26.04.2004
1010,8 18,9 39 15,4 46 3,8 --- --- --- 0,5 11:36 26.04.2004
1010,5 18,9 39 15,7 46 4,1 --- --- --- 0,5 11:51 26.04.2004
1010,4 18,9 39 16,2 47 4,8 --- --- --- 0,5 12:06 26.04.2004
1010,2 19,0 39 16,5 46 4,8 --- --- --- 0,5 12:21 26.04.2004
1010,1 19,0 40 19,7 43 6,7 --- --- --- 0,5 12:36 26.04.2004
1009,9 19,2 40 24,5 33 7,2 --- --- --- 0,5 12:51 26.04.2004
1009,5 19,3 41 26,7 29 7,2 --- --- --- 0,5 13:06 26.04.2004
1009,3 19,4 41 27,4 24 5,0 --- --- --- 0,5 13:21 26.04.2004
1009,2 19,6 41 27,4 24 5,0 --- --- --- 0,5 13:36 26.04.2004
1008,9 19,7 41 27,4 23 4,4 --- --- --- 0,5 13:51 26.04.2004
1008,7 19,8 40 27,2 23 4,3 --- --- --- 0,5 14:06 26.04.2004
1008,4 19,9 40 27,7 22 4,0 --- --- --- 0,5 14:21 26.04.2004
1008,2 20,1 40 28,8 21 4,3 --- --- --- 0,5 14:36 26.04.2004
1008,0 20,3 40 29,7 19 3,6 --- --- --- 0,5 14:51 26.04.2004
1007,9 20,4 39 30,2 19 4,0 --- --- --- 0,5 15:06 26.04.2004
1007,7 20,5 39 30,7 19 4,4 --- --- --- 0,5 15:21 26.04.2004
1007,6 20,6 39 31,2 19 4,8 --- --- --- 0,5 15:36 26.04.2004
1007,3 20,7 39 32,5 19 5,9 --- --- --- 0,5 15:51 26.04.2004
1007,1 20,8 39 32,8 19 6,1 --- --- --- 0,5 16:06 26.04.2004
1006,9 21,0 39 34,1 19 7,2 --- --- --- 0,5 16:21 26.04.2004
1006,9 21,1 39 32,4 19 5,8 --- --- --- 0,5 16:36 26.04.2004
1006,7 21,3 40 33,7 19 6,9 --- --- --- 0,5 16:51 26.04.2004
1006,4 21,5 40 33,8 19 7,0 --- --- --- 0,5 17:06 26.04.2004
1006,3 21,8 40 34,7 19 7,7 --- --- --- 0,5 17:21 26.04.2004
1006,3 22,0 40 36,1 19 8,8 --- --- --- 0,5 17:36 26.04.2004
1006,2 22,1 40 35,5 19 8,3 --- --- --- 0,5 17:51 26.04.2004
1006,2 22,3 40 34,4 19 7,4 --- --- --- 0,5 18:06 26.04.2004
1006,0 22,3 39 32,4 19 5,8 --- --- --- 0,5 18:21 26.04.2004
1005,9 22,4 38 31,2 19 4,8 --- --- --- 0,5 18:36 26.04.2004
1005,8 22,4 38 29,3 19 3,3 --- --- --- 0,5 18:51 26.04.2004
1005,6 22,5 38 27,8 19 2,0 --- --- --- 0,5 19:06 26.04.2004
1005,6 22,5 38 26,7 19 1,1 --- --- --- 0,5 19:21 26.04.2004
1005,7 22,6 38 25,6 19 0,2 --- --- --- 0,5 19:36 26.04.2004
1005,6 22,5 37 24,3 23 1,8 --- --- --- 0,5 19:51 26.04.2004
1005,7 22,5 37 23,2 25 2,1 --- --- --- 0,5 20:06 26.04.2004
1005,7 22,4 37 22,2 28 2,8 --- --- --- 0,5 20:21 26.04.2004
1005,8 22,3 37 21,3 31 3,5 --- --- --- 0,5 20:36 26.04.2004
1005,8 22,2 37 20,6 32 3,3 --- --- --- 0,5 20:51 26.04.2004
1006,0 22,1 37 19,7 36 4,2 --- --- --- 0,5 21:06 26.04.2004
1006,1 22,0 38 18,8 37 3,8 --- --- --- 0,5 21:21 26.04.2004
1006,1 22,0 38 18,3 38 3,7 --- --- --- 0,5 21:36 26.04.2004
1006,4 21,8 38 17,5 39 3,4 --- --- --- 0,5 21:51 26.04.2004
1006,3 21,6 38 17,0 42 4,0 --- --- --- 0,5 22:06 26.04.2004
1006,2 21,5 39 16,5 44 4,2 --- --- --- 0,5 22:21 26.04.2004
1006,0 21,4 39 15,9 45 4,0 --- --- --- 0,5 22:36 26.04.2004
1005,8 21,5 41 15,5 46 3,9 ---